Provisional Data: Sing Sing Creek near Big Flats, NY


Please select a monitoring station.
Please select start date.
Please select start date.

Toggle Unit: C/F Toggle Unit: C/F
Sample Time Temperature (C) Temperature (F) Specific Conductivity (mS/cm) pH   Turbidity (NTU+) DO (mg/L)
12/31/2022 12:00:00 AM 0.08 32.144 0.232 7.33 78.7 14.02
12/31/2022 12:15:00 AM 0.08 32.144 0.232 7.3 79.8 13.97
12/31/2022 12:30:00 AM 0.07 32.126 0.232 7.3 82 14.04
12/31/2022 12:45:00 AM 0.07 32.126 0.232 7.32 92.75 14.05
12/31/2022 1:00:00 AM 0.07 32.126 0.232 7.3 76.5 14.05
12/31/2022 1:15:00 AM 0.07 32.126 0.231 7.29 73.49 14.06
12/31/2022 1:30:00 AM 0.08 32.144 0.231 7.3 75.17 14.05
12/31/2022 1:45:00 AM 0.08 32.144 0.231 7.3 82.52 14.04
12/31/2022 2:00:00 AM 0.08 32.144 0.231 7.3 73.3 14.04
12/31/2022 2:15:00 AM 0.09 32.162 0.231 7.29 72.83 14.03
12/31/2022 2:30:00 AM 0.1 32.18 0.231 7.29 71.11 14.02
12/31/2022 2:45:00 AM 0.11 32.198 0.232 7.27 67.43 14.02
12/31/2022 3:00:00 AM 0.11 32.198 0.232 7.3 65.61 14.01
12/31/2022 3:15:00 AM 0.12 32.216 0.232 7.3 63.94 14
12/31/2022 3:30:00 AM 0.13 32.234 0.232 7.3 63.02 13.99
12/31/2022 3:45:00 AM 0.14 32.252 0.232 7.3 60.71 13.98
12/31/2022 4:00:00 AM 0.16 32.288 0.233 7.27 63.42 13.97
12/31/2022 4:15:00 AM 0.17 32.306 0.233 7.3 65.04 13.96
12/31/2022 4:30:00 AM 0.18 32.324 0.233 7.29 60.55 13.95
12/31/2022 4:45:00 AM 0.19 32.342 0.233 7.28 62.96 13.94
12/31/2022 5:00:00 AM 0.2 32.36 0.234 7.3 60.02 13.93
12/31/2022 5:15:00 AM 0.21 32.378 0.234 7.31 58.36 13.92
12/31/2022 5:30:00 AM 0.22 32.396 0.234 7.31 56.74 13.91
12/31/2022 5:45:00 AM 0.23 32.414 0.234 7.32 61.6 13.9
12/31/2022 6:00:00 AM 0.23 32.414 0.234 7.3 56.11 13.89
12/31/2022 6:15:00 AM 0.24 32.432 0.235 7.32 53.02 13.88
12/31/2022 6:30:00 AM 0.25 32.45 0.235 7.32 54.48 13.87
12/31/2022 6:45:00 AM 0.26 32.468 0.235 7.32 51.57 13.86
12/31/2022 7:00:00 AM 0.27 32.486 0.235 7.32 50.79 13.86
12/31/2022 7:15:00 AM 0.28 32.504 0.235 7.33 51.71 13.84
12/31/2022 7:30:00 AM 0.29 32.522 0.235 7.3 54.43 13.83
12/31/2022 7:45:00 AM 0.3 32.54 0.235 7.33 50.15 13.83
12/31/2022 8:00:00 AM 0.32 32.576 0.235 7.34 50.24 13.81
12/31/2022 8:15:00 AM 0.33 32.594 0.235 7.3 50.9 13.82
12/31/2022 8:30:00 AM 0.35 32.63 0.235 7.33 52.14 13.8
12/31/2022 8:45:00 AM 0.37 32.666 0.235 7.35 50.69 13.79
12/31/2022 9:00:00 AM 0.39 32.702 0.235 7.32 50.28 13.78
12/31/2022 9:15:00 AM 0.41 32.738 0.235 7.35 46.33 13.78
12/31/2022 9:30:00 AM 0.44 32.792 0.235 7.35 48.64 13.79
12/31/2022 9:45:00 AM 0.47 32.846 0.235 7.32 47.25 13.78
12/31/2022 10:00:00 AM 0.51 32.918 0.235 7.34 52.08 13.78
12/31/2022 10:15:00 AM 0.55 32.99 0.235 7.35 46.78 13.78
12/31/2022 10:30:00 AM 0.59 33.062 0.235 7.35 45.73 13.77
12/31/2022 10:45:00 AM 0.62 33.116 0.235 7.36 46.56 13.76
12/31/2022 11:00:00 AM 0.66 33.188 0.235 7.36 46.67 13.76
12/31/2022 11:15:00 AM 0.7 33.26 0.235 7.36 45.64 13.77
12/31/2022 11:30:00 AM 0.75 33.35 0.235 7.37 45.55 13.78
12/31/2022 11:45:00 AM 0.79 33.422 0.235 7.38 47.38 13.77
12/31/2022 12:00:00 PM 0.85 33.53 0.235 7.38 47.33 13.77
12/31/2022 12:15:00 PM 0.9 33.62 0.235 7.37 48.47 13.78
12/31/2022 12:30:00 PM 0.95 33.71 0.235 7.4 46.17 13.78
12/31/2022 12:45:00 PM 1 33.8 0.235 7.39 44.84 13.78
12/31/2022 1:00:00 PM 1.05 33.89 0.235 7.41 45.52 13.77
12/31/2022 1:15:00 PM 1.1 33.98 0.235 7.38 46.33 13.76
12/31/2022 1:30:00 PM 1.16 34.088 0.235 7.41 41.65 13.76
12/31/2022 1:45:00 PM 1.21 34.178 0.235 7.4 43.48 13.75
12/31/2022 2:00:00 PM 1.25 34.25 0.235 7.42 45.39 13.74
12/31/2022 2:15:00 PM 1.3 34.34 0.235 7.42 44.81 13.72
12/31/2022 2:30:00 PM 1.34 34.412 0.235 7.42 46.41 13.71
12/31/2022 2:45:00 PM 1.37 34.466 0.235 7.43 45.12 13.69
12/31/2022 3:00:00 PM 1.42 34.556 0.235 7.41 45.27 13.66
12/31/2022 3:15:00 PM 1.46 34.628 0.235 7.43 40.55 13.65
12/31/2022 3:30:00 PM 1.49 34.682 0.235 7.45 46.76 13.62
12/31/2022 3:45:00 PM 1.53 34.754 0.235 7.43 42.76 13.59
12/31/2022 4:00:00 PM 1.57 34.826 0.235 7.43 40.52 13.57
12/31/2022 4:15:00 PM 1.61 34.898 0.235 7.44 43.96 13.55
12/31/2022 4:30:00 PM 1.65 34.97 0.235 7.44 43.42 13.51
12/31/2022 4:45:00 PM 1.69 35.042 0.235 7.44 41.77 13.48
12/31/2022 5:00:00 PM 1.73 35.114 0.234 7.43 41.66 13.44
12/31/2022 5:15:00 PM 1.77 35.186 0.234 7.43 42.85 13.4
12/31/2022 5:30:00 PM 1.81 35.258 0.234 7.43 43.49 13.37
12/31/2022 5:45:00 PM 1.86 35.348 0.234 7.43 43.41 13.33
12/31/2022 6:00:00 PM 1.9 35.42 0.233 7.42 42.64 13.3
12/31/2022 6:15:00 PM 1.93 35.474 0.233 7.42 43.96 13.27
12/31/2022 6:30:00 PM 1.96 35.528 0.232 7.42 46.94 13.25
12/31/2022 6:45:00 PM 2 35.6 0.231 7.41 45.3 13.21
12/31/2022 7:00:00 PM 2.03 35.654 0.23 7.4 46.98 13.18
12/31/2022 7:15:00 PM 2.06 35.708 0.228 7.4 46.55 13.17
12/31/2022 7:30:00 PM 2.07 35.726 0.227 7.4 49.66 13.15
12/31/2022 7:45:00 PM 2.08 35.744 0.225 7.39 47.94 13.14
12/31/2022 8:00:00 PM 2.09 35.762 0.223 7.35 50.84 13.13
12/31/2022 8:15:00 PM 2.09 35.762 0.221 7.36 52.31 13.13
12/31/2022 8:30:00 PM 2.1 35.78 0.22 7.37 52.19 13.12
12/31/2022 8:45:00 PM 2.12 35.816 0.218 7.36 53.89 13.11
12/31/2022 9:00:00 PM 2.13 35.834 0.216 7.35 54.52 13.11
12/31/2022 9:15:00 PM 2.12 35.816 0.214 7.33 56.89 13.12
12/31/2022 9:30:00 PM 2.11 35.798 0.213 7.35 56.44 13.12
12/31/2022 9:45:00 PM 2.09 35.762 0.212 7.3 61.34 13.12
12/31/2022 10:00:00 PM 2.06 35.708 0.211 7.33 56.32 13.14
12/31/2022 10:15:00 PM 2.03 35.654 0.21 7.32 57.2 13.15
12/31/2022 10:30:00 PM 1.99 35.582 0.209 7.3 59.76 13.16
12/31/2022 10:45:00 PM 1.97 35.546 0.208 7.31 61.74 13.18
12/31/2022 11:00:00 PM 1.93 35.474 0.207 7.28 57.23 13.19
12/31/2022 11:15:00 PM 1.9 35.42 0.207 7.31 58.79 13.2
12/31/2022 11:30:00 PM 1.89 35.402 0.206 7.3 58.77 13.21
12/31/2022 11:45:00 PM 1.89 35.402 0.205 7.3 59.2 13.21
1/1/2023 12:00:00 AM 1.89 35.402 0.205 7.29 61.33 13.22
1/1/2023 12:15:00 AM 1.89 35.402 0.205 7.3 62.09 13.22
1/1/2023 12:30:00 AM 1.9 35.42 0.204 7.3 59.28 13.21
1/1/2023 12:45:00 AM 1.91 35.438 0.204 7.28 59.01 13.22
1/1/2023 1:00:00 AM 1.92 35.456 0.204 7.3 60.02 13.21
1/1/2023 1:15:00 AM 1.93 35.474 0.204 7.3 62.2 13.2
1/1/2023 1:30:00 AM 1.94 35.492 0.205 7.3 61.79 13.2
1/1/2023 1:45:00 AM 1.94 35.492 0.205 7.3 61.3 13.19
1/1/2023 2:00:00 AM 1.96 35.528 0.205 7.31 61.95 13.18
1/1/2023 2:15:00 AM 1.97 35.546 0.205 7.3 61.87 13.18
1/1/2023 2:30:00 AM 1.99 35.582 0.206 7.28 56.92 13.17
1/1/2023 2:45:00 AM 2.01 35.618 0.206 7.31 63.93 13.16
1/1/2023 3:00:00 AM 2.04 35.672 0.206 7.31 59.26 13.14
1/1/2023 3:15:00 AM 2.06 35.708 0.206 7.31 59.83 13.13
1/1/2023 3:30:00 AM 2.08 35.744 0.207 7.32 59.44 13.12
1/1/2023 3:45:00 AM 2.1 35.78 0.207 7.32 58.82 13.12
1/1/2023 4:00:00 AM 2.12 35.816 0.207 7.31 56.54 13.11
1/1/2023 4:15:00 AM 2.14 35.852 0.208 7.31 60.02 13.1
1/1/2023 4:30:00 AM 2.17 35.906 0.208 7.32 57.42 13.09
1/1/2023 4:45:00 AM 2.2 35.96 0.208 7.32 60.45 13.08
1/1/2023 5:00:00 AM 2.23 36.014 0.209 7.34 58.78 13.07
1/1/2023 5:15:00 AM 2.25 36.05 0.209 7.34 56.88 13.07
1/1/2023 5:30:00 AM 2.25 36.05 0.209 7.33 52.98 13.05
1/1/2023 5:45:00 AM 2.27 36.086 0.209 7.34 58.42 13.04
1/1/2023 6:00:00 AM 2.28 36.104 0.209 7.34 60.3 13.04
1/1/2023 6:15:00 AM 2.3 36.14 0.209 7.34 57.33 13.04
1/1/2023 6:30:00 AM 2.31 36.158 0.209 7.34 65.76 13.04
1/1/2023 6:45:00 AM 2.31 36.158 0.209 7.31 63.48 13.04
1/1/2023 7:00:00 AM 2.32 36.176 0.209 7.35 68.89 13.03
1/1/2023 7:15:00 AM 2.32 36.176 0.209 7.32 63.31 13.03
1/1/2023 7:30:00 AM 2.33 36.194 0.209 7.34 66.04 13.03
1/1/2023 7:45:00 AM 2.34 36.212 0.209 7.32 63.07 13.03
1/1/2023 8:00:00 AM 2.34 36.212 0.209 7.34 61.48 13.04
1/1/2023 8:15:00 AM 2.35 36.23 0.209 7.34 63.11 13.04
1/1/2023 8:30:00 AM 2.35 36.23 0.209 7.34 65.18 13.04
1/1/2023 8:45:00 AM 2.36 36.248 0.209 7.34 64.68 13.04
1/1/2023 9:00:00 AM 2.37 36.266 0.209 7.32 61.18 13.04
1/1/2023 9:15:00 AM 2.38 36.284 0.21 7.33 66.08 13.05
1/1/2023 9:30:00 AM 2.4 36.32 0.21 7.33 59.95 13.05
1/1/2023 9:45:00 AM 2.43 36.374 0.21 7.33 61.24 13.05
1/1/2023 10:00:00 AM 2.46 36.428 0.21 7.35 59.05 13.05
1/1/2023 10:15:00 AM 2.49 36.482 0.21 7.35 62.32 13.06
1/1/2023 10:30:00 AM 2.53 36.554 0.21 7.36 55.61 13.07
1/1/2023 10:45:00 AM 2.58 36.644 0.21 7.36 54.25 13.08
1/1/2023 11:00:00 AM 2.6 36.68 0.21 7.33 56.37 13.08
1/1/2023 11:15:00 AM 2.64 36.752 0.21 7.37 57.7 13.09
1/1/2023 11:30:00 AM 2.69 36.842 0.21 7.38 52.36 13.1
1/1/2023 11:45:00 AM 2.73 36.914 0.211 7.35 59.04 13.11
1/1/2023 12:00:00 PM 2.77 36.986 0.211 7.39 56.9 13.12
1/1/2023 12:15:00 PM 2.81 37.058 0.211 7.39 59.38 13.12
1/1/2023 12:30:00 PM 2.89 37.202 0.212 7.38 62.47 13.11
1/1/2023 12:45:00 PM 2.97 37.346 0.212 7.41 56.94 13.12
1/1/2023 1:00:00 PM 3.05 37.49 0.212 7.41 55.52 13.13
1/1/2023 1:15:00 PM 3.12 37.616 0.212 7.4 54.45 13.12
1/1/2023 1:30:00 PM 3.17 37.706 0.213 7.43 54.06 13.11
1/1/2023 1:45:00 PM 3.21 37.778 0.213 7.43 52.87 13.11
1/1/2023 2:00:00 PM 3.24 37.832 0.213 7.43 53.12 13.09
1/1/2023 2:15:00 PM 3.28 37.904 0.214 7.44 47.96 13.08
1/1/2023 2:30:00 PM 3.3 37.94 0.214 7.44 49.44 13.06
1/1/2023 2:45:00 PM 3.33 37.994 0.215 7.45 51.49 13.06
1/1/2023 3:00:00 PM 3.37 38.066 0.215 7.45 51.1 13.05
1/1/2023 3:15:00 PM 3.41 38.138 0.216 7.46 55.51 13.03
1/1/2023 3:30:00 PM 3.43 38.174 0.216 7.47 59.82 13.01
1/1/2023 3:45:00 PM 3.46 38.228 0.217 7.44 52.71 12.99
1/1/2023 4:00:00 PM 3.48 38.264 0.217 7.46 52.63 12.96
1/1/2023 4:15:00 PM 3.5 38.3 0.218 7.46 50.72 12.94
1/1/2023 4:30:00 PM 3.52 38.336 0.218 7.46 52.02 12.91
1/1/2023 4:45:00 PM 3.54 38.372 0.219 7.47 55.88 12.88
1/1/2023 5:00:00 PM 3.57 38.426 0.219 7.45 54.19 12.84
1/1/2023 5:15:00 PM 3.6 38.48 0.219 7.47 54.96 12.82
1/1/2023 5:30:00 PM 3.64 38.552 0.22 7.47 219.85 12.79
1/1/2023 5:45:00 PM 3.66 38.588 0.22 7.43 59.41 12.75
1/1/2023 6:00:00 PM 3.68 38.624 0.22 7.46 55.79 12.72
1/1/2023 6:15:00 PM 3.7 38.66 0.22 7.46 51.74 12.69
1/1/2023 6:30:00 PM 3.71 38.678 0.22 7.44 51.38 12.67
1/1/2023 6:45:00 PM 3.72 38.696 0.22 7.45 53.02 12.64
1/1/2023 7:00:00 PM 3.72 38.696 0.22 7.45 51.42 12.62
1/1/2023 7:15:00 PM 3.72 38.696 0.22 7.44 52.48 12.61
1/1/2023 7:30:00 PM 3.71 38.678 0.22 7.43 52.77 12.6
1/1/2023 7:45:00 PM 3.71 38.678 0.22 7.44 53.82 12.59
1/1/2023 8:00:00 PM 3.7 38.66 0.22 7.41 53.7 12.58
1/1/2023 8:15:00 PM 3.7 38.66 0.22 7.43 54.82 12.57
1/1/2023 8:30:00 PM 3.7 38.66 0.219 7.43 56.85 12.56
1/1/2023 8:45:00 PM 3.7 38.66 0.219 7.41 51.34 12.55
1/1/2023 9:00:00 PM 3.69 38.642 0.219 7.42 47.88 12.55
1/1/2023 9:15:00 PM 3.69 38.642 0.219 7.41 49.72 12.54
1/1/2023 9:30:00 PM 3.68 38.624 0.219 7.41 52.06 12.54
1/1/2023 9:45:00 PM 3.67 38.606 0.218 7.41 56.77 12.54
1/1/2023 10:00:00 PM 3.66 38.588 0.218 7.39 53.94 12.54
1/1/2023 10:15:00 PM 3.65 38.57 0.218 7.4 50.4 12.54
1/1/2023 10:30:00 PM 3.64 38.552 0.218 7.4 52.3 12.54
1/1/2023 10:45:00 PM 3.63 38.534 0.218 7.37 52.43 12.54
1/1/2023 11:00:00 PM 3.61 38.498 0.218 7.4 56.99 12.55
1/1/2023 11:15:00 PM 3.59 38.462 0.218 7.4 51.56 12.54
1/1/2023 11:30:00 PM 3.57 38.426 0.219 7.39 55.79 12.55
1/1/2023 11:45:00 PM 3.55 38.39 0.219 7.39 50.32 12.55
1/2/2023 12:00:00 AM 3.53 38.354 0.219 7.38 53.7 12.56
1/2/2023 12:15:00 AM 3.52 38.336 0.219 7.39 54.76 12.56
1/2/2023 12:30:00 AM 3.49 38.282 0.22 7.39 51.67 12.56
1/2/2023 12:45:00 AM 3.48 38.264 0.22 7.39 55.83 12.57
1/2/2023 1:00:00 AM 3.46 38.228 0.22 7.39 59.14 12.57
1/2/2023 1:15:00 AM 3.44 38.192 0.221 7.39 50.32 12.58
1/2/2023 1:30:00 AM 3.43 38.174 0.221 7.39 60.62 12.58
1/2/2023 1:45:00 AM 3.41 38.138 0.221 7.36 49.86 12.59
1/2/2023 2:00:00 AM 3.4 38.12 0.222 7.4 55.04 12.58
1/2/2023 2:15:00 AM 3.38 38.084 0.222 7.4 48.17 12.59
1/2/2023 2:30:00 AM 3.35 38.03 0.222 7.39 51.38 12.6
1/2/2023 2:45:00 AM 3.33 37.994 0.223 7.38 46.63 12.61
1/2/2023 3:00:00 AM 3.31 37.958 0.223 7.39 48.12 12.61
1/2/2023 3:15:00 AM 3.3 37.94 0.223 7.38 48.49 12.61
1/2/2023 3:30:00 AM 3.29 37.922 0.224 7.39 48.01 12.61
1/2/2023 3:45:00 AM 3.28 37.904 0.224 7.4 44.79 12.63
1/2/2023 4:00:00 AM 3.27 37.886 0.224 7.4 46.31 12.63
1/2/2023 4:15:00 AM 3.26 37.868 0.225 7.39 51.22 12.63
1/2/2023 4:30:00 AM 3.25 37.85 0.225 7.41 58.18 12.64
1/2/2023 4:45:00 AM 3.24 37.832 0.225 7.41 50.98 12.64
1/2/2023 5:00:00 AM 3.24 37.832 0.225 7.41 49.58 12.63
1/2/2023 5:15:00 AM 3.23 37.814 0.226 7.41 49.49 12.65
1/2/2023 5:30:00 AM 3.23 37.814 0.226 7.41 46.28 12.65
1/2/2023 5:45:00 AM 3.22 37.796 0.226 7.41 47.65 12.65
1/2/2023 6:00:00 AM 3.21 37.778 0.227 7.41 47.94 12.64
1/2/2023 6:15:00 AM 3.21 37.778 0.227 7.42 55.63 12.64
1/2/2023 6:30:00 AM 3.2 37.76 0.228 7.41 51.85 12.65
1/2/2023 6:45:00 AM 3.18 37.724 0.228 7.38 51.1 12.65
1/2/2023 7:00:00 AM 3.17 37.706 0.228 7.42 50.94 12.66
1/2/2023 7:15:00 AM 3.16 37.688 0.229 7.39 76.09 12.64
1/2/2023 7:30:00 AM 3.15 37.67 0.229 7.42 55.82 12.67
1/2/2023 7:45:00 AM 3.14 37.652 0.23 7.41 51.9 12.68
1/2/2023 8:00:00 AM 3.13 37.634 0.23 7.42 50.2 12.67
1/2/2023 8:15:00 AM 3.13 37.634 0.23 7.42 43.49 12.68
1/2/2023 8:30:00 AM 3.12 37.616 0.231 7.42 41.56 12.69
1/2/2023 8:45:00 AM 3.12 37.616 0.231 7.42 44.61 12.71
1/2/2023 9:00:00 AM 3.12 37.616 0.231 7.42 43.65 12.72
1/2/2023 9:15:00 AM 3.13 37.634 0.231 7.43 43.26 12.73
1/2/2023 9:30:00 AM 3.13 37.634 0.232 7.39 44.4 12.76
1/2/2023 9:45:00 AM 3.16 37.688 0.232 7.44 43.44 12.78
1/2/2023 10:00:00 AM 3.19 37.742 0.232 7.44 46 12.8
1/2/2023 10:15:00 AM 3.21 37.778 0.232 7.42 45.43 12.82
1/2/2023 10:30:00 AM 3.22 37.796 0.233 7.43 41.67 12.83
1/2/2023 10:45:00 AM 3.25 37.85 0.233 7.46 41.42 12.85
1/2/2023 11:00:00 AM 3.29 37.922 0.233 7.46 41.35 12.87
1/2/2023 11:15:00 AM 3.36 38.048 0.233 7.43 39.3 12.89
1/2/2023 11:30:00 AM 3.41 38.138 0.234 7.48 40.55 12.92
1/2/2023 11:45:00 AM 3.47 38.246 0.234 7.45 41.71 12.94
1/2/2023 12:00:00 PM 3.57 38.426 0.234 7.49 42.52 12.96
1/2/2023 12:15:00 PM 3.64 38.552 0.234 7.46 55.85 12.98
1/2/2023 12:30:00 PM 3.76 38.768 0.234 7.51 40.91 12.99
1/2/2023 12:45:00 PM 3.84 38.912 0.235 7.52 42.2 12.99
1/2/2023 1:00:00 PM 3.91 39.038 0.235 7.52 37.16 13
1/2/2023 1:15:00 PM 4.01 39.218 0.235 7.53 40.73 13
1/2/2023 1:30:00 PM 4.1 39.38 0.236 7.54 43.05 13
1/2/2023 1:45:00 PM 4.18 39.524 0.236 7.55 39.93 13
1/2/2023 2:00:00 PM 4.25 39.65 0.236 7.55 44.2 12.97
1/2/2023 2:15:00 PM 4.31 39.758 0.237 7.56 39.72 12.96
1/2/2023 2:30:00 PM 4.36 39.848 0.237 7.57 38.86 12.95
1/2/2023 2:45:00 PM 4.39 39.902 0.237 7.57 41.72 12.93
1/2/2023 3:00:00 PM 4.39 39.902 0.237 7.55 38.95 12.91
1/2/2023 3:15:00 PM 4.38 39.884 0.238 7.58 38.35 12.89
1/2/2023 3:30:00 PM 4.38 39.884 0.238 7.58 38.78 12.87
1/2/2023 3:45:00 PM 4.37 39.866 0.238 7.54 38.46 12.85
1/2/2023 4:00:00 PM 4.38 39.884 0.238 7.58 38.74 12.81
1/2/2023 4:15:00 PM 4.38 39.884 0.239 7.54 38.22 12.78
1/2/2023 4:30:00 PM 4.39 39.902 0.239 7.57 38.2 12.75
1/2/2023 4:45:00 PM 4.4 39.92 0.24 7.56 37 12.71
1/2/2023 5:00:00 PM 4.41 39.938 0.24 7.57 40.37 12.68
1/2/2023 5:15:00 PM 4.42 39.956 0.24 7.57 38.41 12.64
1/2/2023 5:30:00 PM 4.42 39.956 0.24 7.57 42.36 12.6
1/2/2023 5:45:00 PM 4.42 39.956 0.241 7.57 39.67 12.57
1/2/2023 6:00:00 PM 4.42 39.956 0.241 7.56 39.14 12.54
1/2/2023 6:15:00 PM 4.42 39.956 0.241 7.55 38.51 12.49
1/2/2023 6:30:00 PM 4.42 39.956 0.241 7.55 38.43 12.46
1/2/2023 6:45:00 PM 4.43 39.974 0.242 7.55 38.64 12.44
1/2/2023 7:00:00 PM 4.43 39.974 0.242 7.54 43.81 12.4
1/2/2023 7:15:00 PM 4.43 39.974 0.242 7.54 38.79 12.37
1/2/2023 7:30:00 PM 4.43 39.974 0.242 7.54 38.98 12.33
1/2/2023 7:45:00 PM 4.43 39.974 0.242 7.49 37.91 12.3
1/2/2023 8:00:00 PM 4.44 39.992 0.242 7.53 38.48 12.28
1/2/2023 8:15:00 PM 4.44 39.992 0.241 7.5 39.4 12.25
1/2/2023 8:30:00 PM 4.44 39.992 0.241 7.52 38.62 12.23
1/2/2023 8:45:00 PM 4.44 39.992 0.241 7.52 38.82 12.22
1/2/2023 9:00:00 PM 4.44 39.992 0.241 7.47 38.49 12.21
1/2/2023 9:15:00 PM 4.43 39.974 0.241 7.5 39.58 12.19
1/2/2023 9:30:00 PM 4.43 39.974 0.24 7.49 60.88 12.18
1/2/2023 9:45:00 PM 4.42 39.956 0.24 7.5 38.86 12.17
1/2/2023 10:00:00 PM 4.4 39.92 0.24 7.5 38.65 12.17
1/2/2023 10:15:00 PM 4.39 39.902 0.24 7.46 40.24 12.16
1/2/2023 10:30:00 PM 4.36 39.848 0.24 7.49 39.95 12.16
1/2/2023 10:45:00 PM 4.34 39.812 0.24 7.48 40.16 12.17
1/2/2023 11:00:00 PM 4.32 39.776 0.24 7.48 40.65 12.17
1/2/2023 11:15:00 PM 4.29 39.722 0.24 7.48 42.62 12.16
1/2/2023 11:30:00 PM 4.26 39.668 0.24 7.48 42.28 12.17
1/2/2023 11:45:00 PM 4.22 39.596 0.24 7.47 68.13 12.17
1/3/2023 12:00:00 AM 4.17 39.506 0.241 7.47 42.04 12.2
1/3/2023 12:15:00 AM 4.13 39.434 0.241 7.47 42.59 12.21
1/3/2023 12:30:00 AM 4.08 39.344 0.241 7.47 45.4 12.23
1/3/2023 12:45:00 AM 4.03 39.254 0.242 7.44 41.4 12.23
1/3/2023 1:00:00 AM 3.98 39.164 0.242 7.46 40.99 12.26
1/3/2023 1:15:00 AM 3.94 39.092 0.243 7.47 42 12.27
1/3/2023 1:30:00 AM 3.9 39.02 0.243 7.43 43.96 12.29
1/3/2023 1:45:00 AM 3.86 38.948 0.244 7.47 43.9 12.31
1/3/2023 2:00:00 AM 3.82 38.876 0.244 7.47 44.55 12.32
1/3/2023 2:15:00 AM 3.79 38.822 0.244 7.46 42.41 12.34
1/3/2023 2:30:00 AM 3.75 38.75 0.245 7.47 44.61 12.35
1/3/2023 2:45:00 AM 3.72 38.696 0.245 7.47 41.78 12.37
1/3/2023 3:00:00 AM 3.69 38.642 0.246 7.47 42.66 12.38
1/3/2023 3:15:00 AM 3.66 38.588 0.246 7.47 42.07 12.4
1/3/2023 3:30:00 AM 3.63 38.534 0.246 7.44 40.96 12.41
1/3/2023 3:45:00 AM 3.6 38.48 0.247 7.47 39.97 12.43
1/3/2023 4:00:00 AM 3.57 38.426 0.247 7.47 42.61 12.43
1/3/2023 4:15:00 AM 3.55 38.39 0.248 7.47 40.37 12.45
1/3/2023 4:30:00 AM 3.53 38.354 0.248 7.46 40.34 12.46
1/3/2023 4:45:00 AM 3.51 38.318 0.249 7.48 183.59 12.44
1/3/2023 5:00:00 AM 3.49 38.282 0.249 7.47 43.99 12.47
1/3/2023 5:15:00 AM 3.47 38.246 0.249 7.47 42.8 12.48
1/3/2023 5:30:00 AM 3.45 38.21 0.25 7.46 42.27 12.48
1/3/2023 5:45:00 AM 3.44 38.192 0.25 7.47 39.8 12.48
1/3/2023 6:00:00 AM 3.43 38.174 0.251 7.47 39.66 12.49
1/3/2023 6:15:00 AM 3.42 38.156 0.251 7.47 38.51 12.5
1/3/2023 6:30:00 AM 3.41 38.138 0.252 7.46 41.75 12.5
1/3/2023 6:45:00 AM 3.41 38.138 0.252 7.48 39.63 12.49
1/3/2023 7:00:00 AM 3.4 38.12 0.252 7.48 37.52 12.49
1/3/2023 7:15:00 AM 3.4 38.12 0.253 7.47 37.48 12.5
1/3/2023 7:30:00 AM 3.4 38.12 0.253 7.48 37.26 12.5
1/3/2023 7:45:00 AM 3.4 38.12 0.254 7.48 38.2 12.49
1/3/2023 8:00:00 AM 3.39 38.102 0.254 7.48 39.41 12.47
1/3/2023 8:15:00 AM 3.39 38.102 0.254 7.48 40.14 12.5
1/3/2023 8:30:00 AM 3.4 38.12 0.254 7.48 40.14 12.5
1/3/2023 8:45:00 AM 3.4 38.12 0.254 7.48 40.76 12.46
1/3/2023 9:00:00 AM 3.41 38.138 0.254 7.49 39.92 12.52
1/3/2023 9:15:00 AM 3.42 38.156 0.254 7.49 39.2 12.51
1/3/2023 9:30:00 AM 3.43 38.174 0.254 7.48 37.13 12.53
1/3/2023 9:45:00 AM 3.44 38.192 0.254 7.5 42.34 12.53
1/3/2023 10:00:00 AM 3.46 38.228 0.254 7.5 57.99 12.53
1/3/2023 10:15:00 AM 3.47 38.246 0.255 7.5 40.1 12.53
1/3/2023 10:30:00 AM 3.49 38.282 0.255 7.5 42.03 12.55
1/3/2023 10:45:00 AM 3.52 38.336 0.256 7.51 42.43 12.57
1/3/2023 11:00:00 AM 3.54 38.372 0.256 7.51 42.66 12.57
1/3/2023 11:15:00 AM 3.57 38.426 0.257 7.52 38.39 12.58
1/3/2023 11:30:00 AM 3.6 38.48 0.258 7.52 37.89 12.59
1/3/2023 11:45:00 AM 3.62 38.516 0.258 7.49 38.38 12.59
1/3/2023 12:00:00 PM 3.65 38.57 0.258 7.53 38.98 12.6
1/3/2023 12:15:00 PM 3.69 38.642 0.258 7.53 38.09 12.61
1/3/2023 12:30:00 PM 3.72 38.696 0.257 7.54 39.54 12.62
1/3/2023 12:45:00 PM 3.76 38.768 0.257 7.51 40.66 12.64
1/3/2023 1:00:00 PM 3.8 38.84 0.256 7.55 38.66 12.65
1/3/2023 1:15:00 PM 3.83 38.894 0.256 7.54 39.86 12.66
1/3/2023 1:30:00 PM 3.87 38.966 0.259 7.55 40.34 12.67
1/3/2023 1:45:00 PM 3.91 39.038 0.265 7.52 39.15 12.66
1/3/2023 2:00:00 PM 3.95 39.11 0.274 7.56 44.3 12.64
1/3/2023 2:15:00 PM 4 39.2 0.287 7.56 49.02 12.62
1/3/2023 2:30:00 PM 4.03 39.254 0.289 7.53 41.61 12.62
1/3/2023 2:45:00 PM 4.05 39.29 0.28 7.55 48.04 12.63
1/3/2023 3:00:00 PM 4.05 39.29 0.273 7.56 48.78 12.64
1/3/2023 3:15:00 PM 4.04 39.272 0.269 7.52 48.93 12.64
1/3/2023 3:30:00 PM 4.03 39.254 0.27 7.53 53.78 12.64
1/3/2023 3:45:00 PM 4.02 39.236 0.294 7.51 60.09 12.61
1/3/2023 4:00:00 PM 4.02 39.236 0.346 7.5 70.4 12.55
1/3/2023 4:15:00 PM 4.02 39.236 0.388 7.48 81.11 12.51
1/3/2023 4:30:00 PM 4 39.2 0.384 7.44 88.46 12.5
1/3/2023 4:45:00 PM 4 39.2 0.351 7.45 96.14 12.5
1/3/2023 5:00:00 PM 3.99 39.182 0.321 7.42 98.57 12.51
1/3/2023 5:15:00 PM 3.99 39.182 0.302 7.41 104.14 12.5
1/3/2023 5:30:00 PM 3.99 39.182 0.283 7.39 110.72 12.49
1/3/2023 5:45:00 PM 3.98 39.164 0.263 7.37 112.09 12.48
1/3/2023 6:00:00 PM 3.95 39.11 0.25 7.36 121.08 12.49
1/3/2023 6:15:00 PM 3.9 39.02 0.245 7.33 128.6 12.51
1/3/2023 6:30:00 PM 3.85 38.93 0.244 7.32 135.07 12.51
1/3/2023 6:45:00 PM 3.8 38.84 0.243 7.3 140.47 12.52
1/3/2023 7:00:00 PM 3.77 38.786 0.244 7.27 142.83 12.51
1/3/2023 7:15:00 PM 3.76 38.768 0.247 7.29 149.19 12.52
1/3/2023 7:30:00 PM 3.77 38.786 0.252 7.3 219.75 12.5
1/3/2023 7:45:00 PM 3.8 38.84 0.257 7.31 143.08 12.47
1/3/2023 8:00:00 PM 3.85 38.93 0.258 7.32 142.72 12.44
1/3/2023 8:15:00 PM 3.89 39.002 0.254 7.32 150.61 12.42
1/3/2023 8:30:00 PM 3.92 39.056 0.249 7.3 154.76 12.41
1/3/2023 8:45:00 PM 3.94 39.092 0.243 7.31 193.12 12.4
1/3/2023 9:00:00 PM 3.95 39.11 0.239 7.26 194.57 12.4
1/3/2023 9:15:00 PM 3.95 39.11 0.235 7.25 182.22 12.41
1/3/2023 9:30:00 PM 3.96 39.128 0.227 7.24 181.33 12.41
1/3/2023 9:45:00 PM 3.97 39.146 0.229 7.26 197.13 12.4
1/3/2023 10:00:00 PM 3.98 39.164 0.228 7.22 190.69 12.4
1/3/2023 10:15:00 PM 3.97 39.146 0.226 7.18 208.13 12.41
1/3/2023 10:30:00 PM 3.97 39.146 0.225 7.19 213.4 12.41
1/3/2023 10:45:00 PM 3.97 39.146 0.224 7.18 189.26 12.41
1/3/2023 11:00:00 PM 3.97 39.146 0.223 7.18 200.08 12.41
1/3/2023 11:15:00 PM 3.98 39.164 0.222 7.18 175.85 12.4
1/3/2023 11:30:00 PM 3.99 39.182 0.222 7.17 196.18 12.4
1/3/2023 11:45:00 PM 4.02 39.236 0.221 7.16 183.59 12.38
1/4/2023 12:00:00 AM 4.04 39.272 0.221 7.17 155.29 12.37
1/4/2023 12:15:00 AM 4.06 39.308 0.22 7.14 157.09 12.37
1/4/2023 12:30:00 AM 4.09 39.362 0.22 7.15 155 12.36
1/4/2023 12:45:00 AM 4.11 39.398 0.219 7.16 180.47 12.34
1/4/2023 1:00:00 AM 4.13 39.434 0.219 7.17 148.26 12.33
1/4/2023 1:15:00 AM 4.15 39.47 0.219 7.16 126.31 12.32
1/4/2023 1:30:00 AM 4.17 39.506 0.219 7.16 108.07 12.31
1/4/2023 1:45:00 AM 4.19 39.542 0.219 7.16 113.19 12.3
1/4/2023 2:00:00 AM 4.21 39.578 0.22 7.17 107.08 12.29
1/4/2023 2:15:00 AM 4.22 39.596 0.22 7.17 112.93 12.28
1/4/2023 2:30:00 AM 4.23 39.614 0.22 7.17 96.2 12.27
1/4/2023 2:45:00 AM 4.25 39.65 0.22 7.18 89.53 12.27
1/4/2023 3:00:00 AM 4.25 39.65 0.221 7.18 84.37 12.26
1/4/2023 3:15:00 AM 4.26 39.668 0.221 7.15 83.41 12.25
1/4/2023 3:30:00 AM 4.27 39.686 0.221 7.19 79 12.24
1/4/2023 3:45:00 AM 4.28 39.704 0.221 7.19 76.86 12.24
1/4/2023 4:00:00 AM 4.29 39.722 0.222 7.19 78.32 12.23
1/4/2023 4:15:00 AM 4.29 39.722 0.222 7.15 76.65 12.23
1/4/2023 4:30:00 AM 4.3 39.74 0.222 7.19 72.49 12.22
1/4/2023 4:45:00 AM 4.31 39.758 0.223 7.19 70.39 12.21
1/4/2023 5:00:00 AM 4.32 39.776 0.223 7.19 72.82 12.21
1/4/2023 5:15:00 AM 4.33 39.794 0.223 7.23 3616.64 12.19
1/4/2023 5:30:00 AM 4.35 39.83 0.224 7.19 78.98 12.2
1/4/2023 5:45:00 AM 4.36 39.848 0.224 7.2 70.42 12.19
1/4/2023 6:00:00 AM 4.37 39.866 0.224 7.21 73.9 12.19
1/4/2023 6:15:00 AM 4.38 39.884 0.224 7.21 73.49 12.19
1/4/2023 6:30:00 AM 4.39 39.902 0.225 7.21 71.07 12.18
1/4/2023 6:45:00 AM 4.39 39.902 0.225 7.21 59.15 12.18
1/4/2023 7:00:00 AM 4.4 39.92 0.225 7.19 63.27 12.17
1/4/2023 7:15:00 AM 4.41 39.938 0.225 7.2 72.23 12.17
1/4/2023 7:30:00 AM 4.42 39.956 0.226 7.21 64.71 12.16
1/4/2023 7:45:00 AM 4.43 39.974 0.226 7.21 61.46 12.16
1/4/2023 8:00:00 AM 4.44 39.992 0.226 7.22 63.67 12.16
1/4/2023 8:15:00 AM 4.45 40.01 0.227 7.22 62.52 12.16
1/4/2023 8:30:00 AM 4.47 40.046 0.227 7.22 59.03 12.15
1/4/2023 8:45:00 AM 4.48 40.064 0.227 7.23 61.74 12.16
1/4/2023 9:00:00 AM 4.5 40.1 0.227 7.23 60.61 12.15
1/4/2023 9:15:00 AM 4.51 40.118 0.228 7.24 57.97 12.15
1/4/2023 9:30:00 AM 4.53 40.154 0.228 7.24 57.42 12.16
1/4/2023 9:45:00 AM 4.56 40.208 0.228 7.25 59.24 12.16
1/4/2023 10:00:00 AM 4.58 40.244 0.228 7.22 56.37 12.17
1/4/2023 10:15:00 AM 4.61 40.298 0.229 7.26 55.08 12.18
1/4/2023 10:30:00 AM 4.64 40.352 0.229 7.26 56.82 12.18
1/4/2023 10:45:00 AM 4.68 40.424 0.229 7.27 54.02 12.2
1/4/2023 11:00:00 AM 4.71 40.478 0.229 7.26 61.03 12.2
1/4/2023 11:15:00 AM 4.74 40.532 0.229 7.29 51.48 12.21
1/4/2023 11:30:00 AM 4.78 40.604 0.229 7.3 51.52 12.22
1/4/2023 11:45:00 AM 4.82 40.676 0.23 7.3 49.82 12.23
1/4/2023 12:00:00 PM 4.86 40.748 0.23 7.29 48.77 12.23
1/4/2023 12:15:00 PM 4.9 40.82 0.23 7.32 47.67 12.24
1/4/2023 12:30:00 PM 4.94 40.892 0.23 7.33 50.84 12.24
1/4/2023 12:45:00 PM 4.97 40.946 0.23 7.33 58.3 12.24
1/4/2023 1:00:00 PM 5.01 41.018 0.231 7.33 53.79 12.24
1/4/2023 1:15:00 PM 5.04 41.072 0.231 7.34 51.03 12.23
1/4/2023 1:30:00 PM 5.07 41.126 0.231 7.35 54.11 12.22
1/4/2023 1:45:00 PM 5.11 41.198 0.231 7.32 49.81 12.22
1/4/2023 2:00:00 PM 5.14 41.252 0.232 7.36 47.58 12.21
1/4/2023 2:15:00 PM 5.17 41.306 0.232 7.37 48.98 12.2
1/4/2023 2:30:00 PM 5.2 41.36 0.232 7.37 50.65 12.19
1/4/2023 2:45:00 PM 5.23 41.414 0.233 7.37 45.54 12.18
1/4/2023 3:00:00 PM 5.26 41.468 0.233 7.35 46.64 12.15
1/4/2023 3:15:00 PM 5.29 41.522 0.233 7.38 49.19 12.13
1/4/2023 3:30:00 PM 5.32 41.576 0.233 7.37 55.74 12.11
1/4/2023 3:45:00 PM 5.34 41.612 0.234 7.38 42.83 12.08
1/4/2023 4:00:00 PM 5.37 41.666 0.234 7.38 46.73 12.05
1/4/2023 4:15:00 PM 5.39 41.702 0.234 7.35 44.52 12.03
1/4/2023 4:30:00 PM 5.42 41.756 0.234 7.37 51.74 12.02
1/4/2023 4:45:00 PM 5.44 41.792 0.235 7.38 49.18 11.99
1/4/2023 5:00:00 PM 5.47 41.846 0.235 7.37 46.37 11.97
1/4/2023 5:15:00 PM 5.49 41.882 0.235 7.34 45.62 11.93
1/4/2023 5:30:00 PM 5.52 41.936 0.235 7.37 46.52 11.9
1/4/2023 5:45:00 PM 5.54 41.972 0.236 7.37 46.65 11.87
1/4/2023 6:00:00 PM 5.57 42.026 0.236 7.37 47.33 11.85
1/4/2023 6:15:00 PM 5.59 42.062 0.236 7.34 43.1 11.84
1/4/2023 6:30:00 PM 5.62 42.116 0.236 7.37 43.47 11.82
1/4/2023 6:45:00 PM 5.64 42.152 0.236 7.37 46.65 11.8
1/4/2023 7:00:00 PM 5.66 42.188 0.236 7.36 48.21 11.78
1/4/2023 7:15:00 PM 5.69 42.242 0.238 7.37 44.9 11.75
1/4/2023 7:30:00 PM 5.72 42.296 0.24 7.37 48.87 11.74
1/4/2023 7:45:00 PM 5.74 42.332 0.24 7.36 45.24 11.71
1/4/2023 8:00:00 PM 5.76 42.368 0.238 7.37 53.04 11.71
1/4/2023 8:15:00 PM 5.78 42.404 0.238 7.37 46.69 11.7
1/4/2023 8:30:00 PM 5.81 42.458 0.238 7.34 50.32 11.69
1/4/2023 8:45:00 PM 5.84 42.512 0.237 7.37 54.55 11.68
1/4/2023 9:00:00 PM 5.87 42.566 0.236 7.35 53.08 11.66
1/4/2023 9:15:00 PM 5.88 42.584 0.237 7.38 50.61 11.66
1/4/2023 9:30:00 PM 5.89 42.602 0.242 7.35 50.03 11.65
1/4/2023 9:45:00 PM 5.91 42.638 0.249 7.38 53.17 11.65
1/4/2023 10:00:00 PM 5.91 42.638 0.255 7.37 55.4 11.65
1/4/2023 10:15:00 PM 5.92 42.656 0.257 7.38 55.07 11.63
1/4/2023 10:30:00 PM 5.94 42.692 0.253 7.38 54.19 11.63
1/4/2023 10:45:00 PM 5.94 42.692 0.247 7.38 52.87 11.64
1/4/2023 11:00:00 PM 5.94 42.692 0.24 7.37 53.18 11.65
1/4/2023 11:15:00 PM 5.93 42.674 0.235 7.33 53.68 11.65
1/4/2023 11:30:00 PM 5.92 42.656 0.231 7.36 54.06 11.66
1/4/2023 11:45:00 PM 5.92 42.656 0.228 7.32 54.7 11.66
1/5/2023 12:00:00 AM 5.92 42.656 0.227 7.35 56.14 11.66
1/5/2023 12:15:00 AM 5.93 42.674 0.227 7.35 64.69 11.66
1/5/2023 12:30:00 AM 5.93 42.674 0.227 7.35 64.43 11.66
1/5/2023 12:45:00 AM 5.93 42.674 0.227 7.35 56 11.67
1/5/2023 1:00:00 AM 5.91 42.638 0.226 7.34 61.78 11.67
1/5/2023 1:15:00 AM 5.89 42.602 0.225 7.35 57.78 11.68
1/5/2023 1:30:00 AM 5.86 42.548 0.224 7.34 57.46 11.67
1/5/2023 1:45:00 AM 5.84 42.512 0.222 7.34 57.9 11.68
1/5/2023 2:00:00 AM 5.82 42.476 0.222 7.34 53.08 11.68
1/5/2023 2:15:00 AM 5.8 42.44 0.221 7.31 55.77 11.68
1/5/2023 2:30:00 AM 5.78 42.404 0.221 7.33 55.61 11.68
1/5/2023 2:45:00 AM 5.76 42.368 0.221 7.32 53.49 11.69
1/5/2023 3:00:00 AM 5.74 42.332 0.221 7.35 59.07 11.71
1/5/2023 3:15:00 AM 5.71 42.278 0.221 7.34 49.2 11.71
1/5/2023 3:30:00 AM 5.69 42.242 0.221 7.35 53.89 11.71
1/5/2023 3:45:00 AM 5.67 42.206 0.221 7.32 51.75 11.7
1/5/2023 4:00:00 AM 5.64 42.152 0.221 7.35 47.45 11.73
1/5/2023 4:15:00 AM 5.62 42.116 0.222 7.32 55.84 11.71
1/5/2023 4:30:00 AM 5.6 42.08 0.223 7.34 50.18 11.71
1/5/2023 4:45:00 AM 5.57 42.026 0.224 7.36 50.49 11.72
1/5/2023 5:00:00 AM 5.54 41.972 0.225 7.35 47 11.74
1/5/2023 5:15:00 AM 5.52 41.936 0.226 7.36 50.76 11.73
1/5/2023 5:30:00 AM 5.49 41.882 0.226 7.32 45.19 11.73
1/5/2023 5:45:00 AM 5.47 41.846 0.227 7.36 51.16 11.75
1/5/2023 6:00:00 AM 5.45 41.81 0.227 7.37 51.04 11.76
1/5/2023 6:15:00 AM 5.43 41.774 0.228 7.33 50.39 11.75
1/5/2023 6:30:00 AM 5.4 41.72 0.229 7.37 48.12 11.76
1/5/2023 6:45:00 AM 5.37 41.666 0.23 7.37 47.61 11.77
1/5/2023 7:00:00 AM 5.34 41.612 0.231 7.34 49.01 11.78
1/5/2023 7:15:00 AM 5.31 41.558 0.232 7.37 47.63 11.78
1/5/2023 7:30:00 AM 5.28 41.504 0.233 7.37 50.12 11.8
1/5/2023 7:45:00 AM 5.24 41.432 0.234 7.34 51.67 11.81
1/5/2023 8:00:00 AM 5.22 41.396 0.235 7.36 48.43 11.82
1/5/2023 8:15:00 AM 5.19 41.342 0.235 7.36 47.26 11.84
1/5/2023 8:30:00 AM 5.17 41.306 0.236 7.38 45.32 11.85
1/5/2023 8:45:00 AM 5.16 41.288 0.236 7.35 51.36 11.87
1/5/2023 9:00:00 AM 5.15 41.27 0.236 7.38 49.92 11.88
1/5/2023 9:15:00 AM 5.13 41.234 0.237 7.38 56.14 11.9
1/5/2023 9:30:00 AM 5.12 41.216 0.237 7.38 45.3 11.92
1/5/2023 9:45:00 AM 5.11 41.198 0.237 7.39 45.86 11.95
1/5/2023 10:00:00 AM 5.13 41.234 0.237 7.38 45.35 11.98
1/5/2023 10:15:00 AM 5.14 41.252 0.237 7.4 47.02 12
1/5/2023 10:30:00 AM 5.15 41.27 0.237 7.39 43.01 12.03
1/5/2023 10:45:00 AM 5.16 41.288 0.237 7.41 41.39 12.06
1/5/2023 11:00:00 AM 5.18 41.324 0.238 7.42 43 12.08
1/5/2023 11:15:00 AM 5.2 41.36 0.238 7.41 41.32 12.11
1/5/2023 11:30:00 AM 5.23 41.414 0.238 7.43 46.6 12.14
1/5/2023 11:45:00 AM 5.26 41.468 0.238 7.44 45.43 12.16
1/5/2023 12:00:00 PM 5.29 41.522 0.239 7.44 46.78 12.19
1/5/2023 12:15:00 PM 5.36 41.648 0.239 7.45 44.75 12.22
1/5/2023 12:30:00 PM 5.44 41.792 0.239 7.45 41.48 12.23
1/5/2023 12:45:00 PM 5.49 41.882 0.239 7.47 40.27 12.24
1/5/2023 1:00:00 PM 5.56 42.008 0.239 7.44 38.17 12.27
1/5/2023 1:15:00 PM 5.63 42.134 0.24 7.48 41.64 12.26
1/5/2023 1:30:00 PM 5.69 42.242 0.24 7.49 38.75 12.28
1/5/2023 1:45:00 PM 5.75 42.35 0.24 7.5 37.35 12.28
1/5/2023 2:00:00 PM 5.8 42.44 0.24 7.5 39.19 12.29
1/5/2023 2:15:00 PM 5.83 42.494 0.241 7.51 42.82 12.27
1/5/2023 2:30:00 PM 5.88 42.584 0.241 7.52 37.51 12.28
1/5/2023 2:45:00 PM 5.91 42.638 0.241 7.48 39.68 12.27
1/5/2023 3:00:00 PM 5.92 42.656 0.241 7.51 48.03 12.25
1/5/2023 3:15:00 PM 5.92 42.656 0.241 7.52 43.83 12.24
1/5/2023 3:30:00 PM 5.91 42.638 0.241 7.52 47.48 12.21
1/5/2023 3:45:00 PM 5.9 42.62 0.242 7.49 41.03 12.2
1/5/2023 4:00:00 PM 5.89 42.602 0.242 7.51 49.66 12.17
1/5/2023 4:15:00 PM 5.89 42.602 0.243 7.51 40.53 12.16
1/5/2023 4:30:00 PM 5.88 42.584 0.243 7.51 41.46 12.13
1/5/2023 4:45:00 PM 5.87 42.566 0.244 7.52 42.73 12.1
1/5/2023 5:00:00 PM 5.85 42.53 0.244 7.52 47.87 12.07
1/5/2023 5:15:00 PM 5.84 42.512 0.244 7.52 41.42 12.04
1/5/2023 5:30:00 PM 5.84 42.512 0.245 7.48 48.53 12.01
1/5/2023 5:45:00 PM 5.84 42.512 0.245 7.5 43.81 11.98
1/5/2023 6:00:00 PM 5.83 42.494 0.245 7.51 42.43 11.95
1/5/2023 6:15:00 PM 5.83 42.494 0.246 7.48 38.15 11.91
1/5/2023 6:30:00 PM 5.83 42.494 0.246 7.5 39.54 11.89
1/5/2023 6:45:00 PM 5.83 42.494 0.246 7.46 43.59 11.85
1/5/2023 7:00:00 PM 5.83 42.494 0.246 7.48 46.85 11.83
1/5/2023 7:15:00 PM 5.82 42.476 0.247 7.48 49.1 11.8
1/5/2023 7:30:00 PM 5.81 42.458 0.247 7.48 38.06 11.77
1/5/2023 7:45:00 PM 5.8 42.44 0.247 7.48 47.13 11.75
1/5/2023 8:00:00 PM 5.78 42.404 0.248 7.47 37.88 11.74
1/5/2023 8:15:00 PM 5.77 42.386 0.248 7.47 36.39 11.73
1/5/2023 8:30:00 PM 5.75 42.35 0.248 7.46 45.8 11.72
1/5/2023 8:45:00 PM 5.73 42.314 0.249 7.46 43.26 11.7
1/5/2023 9:00:00 PM 5.71 42.278 0.249 7.43 42.29 11.69
1/5/2023 9:15:00 PM 5.68 42.224 0.249 7.46 42.31 11.7
1/5/2023 9:30:00 PM 5.66 42.188 0.25 7.43 60.26 11.69
1/5/2023 9:45:00 PM 5.63 42.134 0.25 7.45 50.47 11.69
1/5/2023 10:00:00 PM 5.61 42.098 0.25 7.45 52.6 11.67
1/5/2023 10:15:00 PM 5.57 42.026 0.25 7.45 51.75 11.69
1/5/2023 10:30:00 PM 5.54 41.972 0.25 7.43 53.73 11.7
1/5/2023 10:45:00 PM 5.5 41.9 0.251 7.45 51.42 11.7
1/5/2023 11:00:00 PM 5.45 41.81 0.251 7.44 60.04 11.69
1/5/2023 11:15:00 PM 5.4 41.72 0.251 7.44 54.05 11.72
1/5/2023 11:30:00 PM 5.35 41.63 0.251 7.44 51.02 11.72
1/5/2023 11:45:00 PM 5.3 41.54 0.252 7.4 48.91 11.73
1/6/2023 12:00:00 AM 5.25 41.45 0.252 7.44 50.65 11.74
1/6/2023 12:15:00 AM 5.2 41.36 0.252 7.44 47.74 11.76
1/6/2023 12:30:00 AM 5.15 41.27 0.252 7.43 55.56 11.78
1/6/2023 12:45:00 AM 5.1 41.18 0.252 7.43 53.33 11.79
1/6/2023 1:00:00 AM 5.05 41.09 0.253 7.4 50.44 11.81
1/6/2023 1:15:00 AM 5 41 0.253 7.43 44.79 11.82
1/6/2023 1:30:00 AM 4.95 40.91 0.253 7.43 44.63 11.84
1/6/2023 1:45:00 AM 4.9 40.82 0.253 7.43 44.04 11.86
1/6/2023 2:00:00 AM 4.85 40.73 0.254 7.43 41.59 11.88
1/6/2023 2:15:00 AM 4.79 40.622 0.254 7.43 41.19 11.89
1/6/2023 2:30:00 AM 4.75 40.55 0.254 7.4 47.07 11.91
1/6/2023 2:45:00 AM 4.7 40.46 0.254 7.44 41.32 11.93
1/6/2023 3:00:00 AM 4.65 40.37 0.255 7.39 44.8 11.94
1/6/2023 3:15:00 AM 4.61 40.298 0.255 7.44 57.87 11.96
1/6/2023 3:30:00 AM 4.57 40.226 0.255 7.44 46.83 11.98
1/6/2023 3:45:00 AM 4.54 40.172 0.256 7.4 41.45 11.99
1/6/2023 4:00:00 AM 4.51 40.118 0.256 7.44 46.09 12
1/6/2023 4:15:00 AM 4.48 40.064 0.256 7.44 41.47 12.01
1/6/2023 4:30:00 AM 4.45 40.01 0.256 7.4 44.16 12.02
1/6/2023 4:45:00 AM 4.42 39.956 0.257 7.44 40.3 12.03
1/6/2023 5:00:00 AM 4.39 39.902 0.257 7.39 39.69 12.04
1/6/2023 5:15:00 AM 4.37 39.866 0.257 7.43 39.1 12.05
1/6/2023 5:30:00 AM 4.34 39.812 0.257 7.43 39.59 12.07
1/6/2023 5:45:00 AM 4.31 39.758 0.258 7.43 40.26 12.08
1/6/2023 6:00:00 AM 4.29 39.722 0.258 7.43 41.14 12.09
1/6/2023 6:15:00 AM 4.26 39.668 0.258 7.44 39.4 12.09
1/6/2023 6:30:00 AM 4.24 39.632 0.258 7.44 39.03 12.11
1/6/2023 6:45:00 AM 4.22 39.596 0.258 7.44 41.81 12.11
1/6/2023 7:00:00 AM 4.2 39.56 0.258 7.44 45.51 12.11
1/6/2023 7:15:00 AM 4.19 39.542 0.258 7.44 43.89 12.12
1/6/2023 7:30:00 AM 4.17 39.506 0.259 7.44 43.51 12.12
1/6/2023 7:45:00 AM 4.16 39.488 0.259 7.44 37.06 12.13
1/6/2023 8:00:00 AM 4.15 39.47 0.259 7.44 35.02 12.14
1/6/2023 8:15:00 AM 4.14 39.452 0.259 7.41 46.47 12.14
1/6/2023 8:30:00 AM 4.13 39.434 0.259 7.45 51.34 12.15
1/6/2023 8:45:00 AM 4.13 39.434 0.259 7.45 48.01 12.16
1/6/2023 9:00:00 AM 4.12 39.416 0.26 7.41 46.53 12.18
1/6/2023 9:15:00 AM 4.12 39.416 0.26 7.46 44.41 12.19
1/6/2023 9:30:00 AM 4.11 39.398 0.26 7.42 49.46 12.2
1/6/2023 9:45:00 AM 4.12 39.416 0.26 7.46 52.28 12.22
1/6/2023 10:00:00 AM 4.13 39.434 0.261 7.47 47.27 12.25
1/6/2023 10:15:00 AM 4.15 39.47 0.261 7.43 44.12 12.28
1/6/2023 10:30:00 AM 4.16 39.488 0.262 7.48 44.5 12.3
1/6/2023 10:45:00 AM 4.16 39.488 0.262 7.49 40.46 12.31
1/6/2023 11:00:00 AM 4.17 39.506 0.263 7.46 48.63 12.33
1/6/2023 11:15:00 AM 4.19 39.542 0.263 7.5 52.58 12.35
1/6/2023 11:30:00 AM 4.2 39.56 0.263 7.5 42.74 12.39
1/6/2023 11:45:00 AM 4.22 39.596 0.263 7.48 45.93 12.41
1/6/2023 12:00:00 PM 4.23 39.614 0.263 7.5 43.17 12.43
1/6/2023 12:15:00 PM 4.26 39.668 0.263 7.52 39 12.46
1/6/2023 12:30:00 PM 4.3 39.74 0.263 7.49 40.16 12.48
1/6/2023 12:45:00 PM 4.35 39.83 0.262 7.54 36.09 12.52
1/6/2023 1:00:00 PM 4.41 39.938 0.262 7.54 40.98 12.55
1/6/2023 1:15:00 PM 4.43 39.974 0.262 7.55 48.45 12.56
1/6/2023 1:30:00 PM 4.44 39.992 0.262 7.52 43.25 12.56
1/6/2023 1:45:00 PM 4.46 40.028 0.262 7.56 46.26 12.57
1/6/2023 2:00:00 PM 4.47 40.046 0.263 7.56 48.59 12.58
1/6/2023 2:15:00 PM 4.49 40.082 0.265 7.56 46.23 12.59
1/6/2023 2:30:00 PM 4.51 40.118 0.266 7.55 42.7 12.6
1/6/2023 2:45:00 PM 4.52 40.136 0.265 7.58 45.39 12.6
1/6/2023 3:00:00 PM 4.53 40.154 0.265 7.54 44.97 12.58
1/6/2023 3:15:00 PM 4.54 40.172 0.264 7.58 41.73 12.57
1/6/2023 3:30:00 PM 4.55 40.19 0.263 7.58 43.9 12.57
1/6/2023 3:45:00 PM 4.55 40.19 0.263 7.58 39.16 12.55
1/6/2023 4:00:00 PM 4.55 40.19 0.263 7.58 38.5 12.53
1/6/2023 4:15:00 PM 4.56 40.208 0.262 7.56 37.65 12.52
1/6/2023 4:30:00 PM 4.55 40.19 0.262 7.56 40.21 12.49
1/6/2023 4:45:00 PM 4.55 40.19 0.263 7.58 37.26 12.47
1/6/2023 5:00:00 PM 4.55 40.19 0.263 7.54 42.88 12.45
1/6/2023 5:15:00 PM 4.55 40.19 0.265 7.56 43.53 12.42
1/6/2023 5:30:00 PM 4.55 40.19 0.269 7.57 39.28 12.39
1/6/2023 5:45:00 PM 4.54 40.172 0.274 7.56 42.35 12.37
1/6/2023 6:00:00 PM 4.54 40.172 0.28 7.56 43.46 12.35
1/6/2023 6:15:00 PM 4.54 40.172 0.284 7.53 42.37 12.32
1/6/2023 6:30:00 PM 4.54 40.172 0.287 7.56 49.39 12.3
1/6/2023 6:45:00 PM 4.53 40.154 0.288 7.52 49.92 12.28
1/6/2023 7:00:00 PM 4.53 40.154 0.287 7.55 39.77 12.26
1/6/2023 7:15:00 PM 4.52 40.136 0.284 7.54 43.03 12.23
1/6/2023 7:30:00 PM 4.51 40.118 0.282 7.54 47.63 12.22
1/6/2023 7:45:00 PM 4.5 40.1 0.28 7.53 51.34 12.2
1/6/2023 8:00:00 PM 4.49 40.082 0.277 7.51 39.31 12.2
1/6/2023 8:15:00 PM 4.48 40.064 0.275 7.38 49.38 12.18
1/6/2023 8:30:00 PM 4.48 40.064 0.274 7.49 43.87 12.16
1/6/2023 8:45:00 PM 4.48 40.064 0.272 7.5 44.75 12.15
1/6/2023 9:00:00 PM 4.47 40.046 0.271 7.51 43.94 12.14
1/6/2023 9:15:00 PM 4.47 40.046 0.27 7.48 41.62 12.13
1/6/2023 9:30:00 PM 4.47 40.046 0.269 7.51 53.11 12.13
1/6/2023 9:45:00 PM 4.46 40.028 0.269 7.51 83.5 12.12
1/6/2023 10:00:00 PM 4.45 40.01 0.268 7.5 49.68 12.12
1/6/2023 10:15:00 PM 4.44 39.992 0.268 7.48 52.39 12.12
1/6/2023 10:30:00 PM 4.43 39.974 0.267 7.51 46.84 12.12
1/6/2023 10:45:00 PM 4.42 39.956 0.267 7.47 50.62 12.12
1/6/2023 11:00:00 PM 4.41 39.938 0.267 7.5 49.62 12.12
1/6/2023 11:15:00 PM 4.4 39.92 0.267 7.49 46.26 12.12
1/6/2023 11:30:00 PM 4.38 39.884 0.267 7.5 47.11 12.12
1/6/2023 11:45:00 PM 4.36 39.848 0.267 7.48 41.64 12.12
1/7/2023 12:00:00 AM 4.35 39.83 0.267 7.5 53.08 12.12
1/7/2023 12:15:00 AM 4.34 39.812 0.267 7.5 44.31 12.13
1/7/2023 12:30:00 AM 4.33 39.794 0.267 7.5 42.98 12.12
1/7/2023 12:45:00 AM 4.32 39.776 0.267 7.5 38.92 12.13
1/7/2023 1:00:00 AM 4.3 39.74 0.267 7.5 50.39 12.12
1/7/2023 1:15:00 AM 4.29 39.722 0.267 7.47 42.75 12.13
1/7/2023 1:30:00 AM 4.27 39.686 0.268 7.47 44.83 12.13
1/7/2023 1:45:00 AM 4.26 39.668 0.268 7.5 41.06 12.13
1/7/2023 2:00:00 AM 4.24 39.632 0.268 7.5 42.09 12.14
1/7/2023 2:15:00 AM 4.23 39.614 0.269 7.51 39.56 12.15
1/7/2023 2:30:00 AM 4.21 39.578 0.269 7.49 45.4 12.15
1/7/2023 2:45:00 AM 4.19 39.542 0.269 7.51 41.89 12.16
1/7/2023 3:00:00 AM 4.17 39.506 0.27 7.5 43.66 12.17
1/7/2023 3:15:00 AM 4.15 39.47 0.27 7.47 39.2 12.18
1/7/2023 3:30:00 AM 4.13 39.434 0.27 7.5 43.61 12.18
1/7/2023 3:45:00 AM 4.11 39.398 0.27 7.5 40.73 12.18
1/7/2023 4:00:00 AM 4.09 39.362 0.27 7.49 44.74 12.19
1/7/2023 4:15:00 AM 4.07 39.326 0.27 7.51 39.79 12.2
1/7/2023 4:30:00 AM 4.05 39.29 0.271 7.51 41.51 12.21
1/7/2023 4:45:00 AM 4.04 39.272 0.271 7.47 37.65 12.21
1/7/2023 5:00:00 AM 4.03 39.254 0.272 7.49 44.9 12.22
1/7/2023 5:15:00 AM 4.01 39.218 0.272 7.49 40.05 12.22
1/7/2023 5:30:00 AM 4 39.2 0.273 7.5 37.27 12.23
1/7/2023 5:45:00 AM 3.99 39.182 0.273 7.51 34.87 12.23
1/7/2023 6:00:00 AM 3.98 39.164 0.274 7.51 39.78 12.23
1/7/2023 6:15:00 AM 3.97 39.146 0.274 7.49 39.04 12.24
1/7/2023 6:30:00 AM 3.96 39.128 0.274 7.51 38.24 12.24
1/7/2023 6:45:00 AM 3.96 39.128 0.275 7.51 39.58 12.24
1/7/2023 7:00:00 AM 3.95 39.11 0.275 7.51 35.86 12.24
1/7/2023 7:15:00 AM 3.95 39.11 0.275 7.47 41.25 12.24
1/7/2023 7:30:00 AM 3.94 39.092 0.275 7.51 45.01 12.25
1/7/2023 7:45:00 AM 3.93 39.074 0.276 7.51 34.31 12.25
1/7/2023 8:00:00 AM 3.92 39.056 0.276 7.51 38.13 12.26
1/7/2023 8:15:00 AM 3.92 39.056 0.276 7.51 36.35 12.26
1/7/2023 8:30:00 AM 3.92 39.056 0.276 7.49 45.61 12.26
1/7/2023 8:45:00 AM 3.91 39.038 0.277 7.51 44.14 12.27
1/7/2023 9:00:00 AM 3.91 39.038 0.277 7.49 38.36 12.29
1/7/2023 9:15:00 AM 3.91 39.038 0.278 7.52 46.47 12.29
1/7/2023 9:30:00 AM 3.92 39.056 0.278 7.49 38.77 12.31
1/7/2023 9:45:00 AM 3.93 39.074 0.279 7.53 39.36 12.33
1/7/2023 10:00:00 AM 3.94 39.092 0.279 7.52 43.63 12.35
1/7/2023 10:15:00 AM 3.96 39.128 0.28 7.53 38.39 12.38
1/7/2023 10:30:00 AM 3.98 39.164 0.28 7.53 43.91 12.41
1/7/2023 10:45:00 AM 4.01 39.218 0.28 7.54 42.15 12.44
1/7/2023 11:00:00 AM 4.04 39.272 0.281 7.55 47.36 12.47
1/7/2023 11:15:00 AM 4.07 39.326 0.281 7.55 38.74 12.5
1/7/2023 11:30:00 AM 4.09 39.362 0.281 7.56 40.44 12.53
1/7/2023 11:45:00 AM 4.11 39.398 0.281 7.57 49.54 12.54
1/7/2023 12:00:00 PM 4.14 39.452 0.281 7.57 38.68 12.57
1/7/2023 12:15:00 PM 4.16 39.488 0.282 7.54 39.79 12.58
1/7/2023 12:30:00 PM 4.18 39.524 0.282 7.58 40.97 12.61
1/7/2023 12:45:00 PM 4.2 39.56 0.282 7.59 42.88 12.63
1/7/2023 1:00:00 PM 4.23 39.614 0.282 7.6 40.16 12.65
1/7/2023 1:15:00 PM 4.27 39.686 0.282 7.57 36.62 12.68
1/7/2023 1:30:00 PM 4.27 39.686 0.281 7.6 39.75 12.68
1/7/2023 1:45:00 PM 4.29 39.722 0.281 7.61 48.89 12.69
1/7/2023 2:00:00 PM 4.32 39.776 0.281 7.59 57.75 12.7
1/7/2023 2:15:00 PM 4.37 39.866 0.281 7.6 61.55 12.71
1/7/2023 2:30:00 PM 4.4 39.92 0.281 7.61 53.25 12.71
1/7/2023 2:45:00 PM 4.42 39.956 0.281 7.63 46.58 12.72
1/7/2023 3:00:00 PM 4.43 39.974 0.281 7.6 115.44 12.71
1/7/2023 3:15:00 PM 4.43 39.974 0.281 7.63 56.47 12.71
1/7/2023 3:30:00 PM 4.43 39.974 0.281 7.63 66.1 12.69
1/7/2023 3:45:00 PM 4.45 40.01 0.282 7.62 49.6 12.7
1/7/2023 4:00:00 PM 4.45 40.01 0.282 7.63 51.03 12.65
1/7/2023 4:15:00 PM 4.45 40.01 0.282 7.63 50.1 12.63
1/7/2023 4:30:00 PM 4.45 40.01 0.282 7.63 40.58 12.61
1/7/2023 4:45:00 PM 4.45 40.01 0.283 7.63 47.37 12.58
1/7/2023 5:00:00 PM 4.45 40.01 0.283 7.63 42.47 12.56
1/7/2023 5:15:00 PM 4.45 40.01 0.283 7.6 38.93 12.53
1/7/2023 5:30:00 PM 4.45 40.01 0.283 7.62 55.36 12.5
1/7/2023 5:45:00 PM 4.44 39.992 0.283 7.62 77.31 12.48
1/7/2023 6:00:00 PM 4.44 39.992 0.283 7.62 62.29 12.46
1/7/2023 6:15:00 PM 4.43 39.974 0.283 7.61 46.82 12.44
1/7/2023 6:30:00 PM 4.42 39.956 0.283 7.61 52.27 12.42
1/7/2023 6:45:00 PM 4.41 39.938 0.284 7.59 74.29 12.39
1/7/2023 7:00:00 PM 4.4 39.92 0.284 7.6 52.38 12.37
1/7/2023 7:15:00 PM 4.39 39.902 0.284 7.6 44.51 12.35
1/7/2023 7:30:00 PM 4.36 39.848 0.284 7.59 43.79 12.32
1/7/2023 7:45:00 PM 4.35 39.83 0.284 7.57 45.25 12.31
1/7/2023 8:00:00 PM 4.34 39.812 0.284 7.59 47.49 12.28
1/7/2023 8:15:00 PM 4.33 39.794 0.284 7.58 44.43 12.26
1/7/2023 8:30:00 PM 4.31 39.758 0.284 7.57 42.2 12.25
1/7/2023 8:45:00 PM 4.3 39.74 0.284 7.57 44.47 12.24
1/7/2023 9:00:00 PM 4.3 39.74 0.285 7.57 42.43 12.22
1/7/2023 9:15:00 PM 4.29 39.722 0.285 7.54 40.89 12.21
1/7/2023 9:30:00 PM 4.28 39.704 0.285 7.57 40.19 12.2
1/7/2023 9:45:00 PM 4.27 39.686 0.285 7.55 67 12.19
1/7/2023 10:00:00 PM 4.27 39.686 0.286 7.55 43.35 12.19
1/7/2023 10:15:00 PM 4.27 39.686 0.286 7.56 39.76 12.17
1/7/2023 10:30:00 PM 4.26 39.668 0.286 7.56 44.32 12.16
1/7/2023 10:45:00 PM 4.25 39.65 0.286 7.53 44.19 12.17
1/7/2023 11:00:00 PM 4.24 39.632 0.286 7.55 38.72 12.17
1/7/2023 11:15:00 PM 4.24 39.632 0.286 7.54 40.54 12.16
1/7/2023 11:30:00 PM 4.23 39.614 0.286 7.56 42.2 12.16
1/7/2023 11:45:00 PM 4.22 39.596 0.287 7.55 37.77 12.15
1/8/2023 12:00:00 AM 4.21 39.578 0.287 7.55 44.01 12.15
1/8/2023 12:15:00 AM 4.2 39.56 0.287 7.56 41.4 12.15
1/8/2023 12:30:00 AM 4.19 39.542 0.288 7.55 53.31 12.15
1/8/2023 12:45:00 AM 4.17 39.506 0.288 7.55 38.43 12.16
1/8/2023 1:00:00 AM 4.16 39.488 0.288 7.55 39.01 12.15
1/8/2023 1:15:00 AM 4.14 39.452 0.288 7.55 35.54 12.16
1/8/2023 1:30:00 AM 4.11 39.398 0.288 7.52 36.18 12.17
1/8/2023 1:45:00 AM 4.08 39.344 0.288 7.55 35.96 12.17
1/8/2023 2:00:00 AM 4.06 39.308 0.288 7.55 36.84 12.17
1/8/2023 2:15:00 AM 4.04 39.272 0.288 7.52 34.52 12.18
1/8/2023 2:30:00 AM 4.02 39.236 0.289 7.55 38.76 12.17
1/8/2023 2:45:00 AM 4.01 39.218 0.289 7.54 39.35 12.18
1/8/2023 3:00:00 AM 3.98 39.164 0.289 7.55 39.43 12.2
1/8/2023 3:15:00 AM 3.96 39.128 0.289 7.51 44.28 12.2
1/8/2023 3:30:00 AM 3.94 39.092 0.289 7.55 42.71 12.21
1/8/2023 3:45:00 AM 3.91 39.038 0.29 7.54 39.69 12.22
1/8/2023 4:00:00 AM 3.89 39.002 0.29 7.55 56.08 12.24
1/8/2023 4:15:00 AM 3.86 38.948 0.29 7.54 37 12.23
1/8/2023 4:30:00 AM 3.84 38.912 0.29 7.53 66.33 12.25
1/8/2023 4:45:00 AM 3.81 38.858 0.29 7.55 42.66 12.25
1/8/2023 5:00:00 AM 3.78 38.804 0.29 7.53 46.86 12.27
1/8/2023 5:15:00 AM 3.76 38.768 0.29 7.53 49.19 12.29
1/8/2023 5:30:00 AM 3.73 38.714 0.29 7.55 40.72 12.3
1/8/2023 5:45:00 AM 3.7 38.66 0.29 7.54 39.51 12.31
1/8/2023 6:00:00 AM 3.68 38.624 0.291 7.55 43.76 12.31
1/8/2023 6:15:00 AM 3.65 38.57 0.291 7.54 39.13 12.32
1/8/2023 6:30:00 AM 3.63 38.534 0.291 7.55 42.69 12.34
1/8/2023 6:45:00 AM 3.6 38.48 0.291 7.53 39.93 12.35
1/8/2023 7:00:00 AM 3.58 38.444 0.292 7.55 37.96 12.36
1/8/2023 7:15:00 AM 3.55 38.39 0.292 7.54 37.46 12.37
1/8/2023 7:30:00 AM 3.53 38.354 0.292 7.55 35.87 12.37
1/8/2023 7:45:00 AM 3.5 38.3 0.293 7.51 39.31 12.38
1/8/2023 8:00:00 AM 3.48 38.264 0.293 7.54 237.58 12.37
1/8/2023 8:15:00 AM 3.46 38.228 0.293 7.55 56.01 12.42
1/8/2023 8:30:00 AM 3.45 38.21 0.293 7.51 59.44 12.43
1/8/2023 8:45:00 AM 3.43 38.174 0.294 7.55 47.76 12.46
1/8/2023 9:00:00 AM 3.43 38.174 0.294 7.52 41.92 12.49
1/8/2023 9:15:00 AM 3.43 38.174 0.294 7.55 50.62 12.51
1/8/2023 9:30:00 AM 3.43 38.174 0.294 7.53 57.43 12.54
1/8/2023 9:45:00 AM 3.43 38.174 0.294 7.56 54.84 12.58
1/8/2023 10:00:00 AM 3.44 38.192 0.294 7.57 67.44 12.6
1/8/2023 10:15:00 AM 3.44 38.192 0.295 7.57 48.03 12.65
1/8/2023 10:30:00 AM 3.46 38.228 0.295 7.58 87.56 12.68
1/8/2023 10:45:00 AM 3.48 38.264 0.295 7.58 80.01 12.72
1/8/2023 11:00:00 AM 3.51 38.318 0.296 7.59 75.52 12.74
1/8/2023 11:15:00 AM 3.54 38.372 0.296 7.59 56.89 12.78
1/8/2023 11:30:00 AM 3.6 38.48 0.296 7.6 47.38 12.82
1/8/2023 11:45:00 AM 3.69 38.642 0.297 7.57 54.62 12.86
1/8/2023 12:00:00 PM 3.77 38.786 0.297 7.61 61.58 12.86
1/8/2023 12:15:00 PM 3.84 38.912 0.297 7.59 42.14 12.9
1/8/2023 12:30:00 PM 3.91 39.038 0.298 7.62 49.13 12.92
1/8/2023 12:45:00 PM 3.95 39.11 0.298 7.64 47.39 12.95
1/8/2023 1:00:00 PM 4 39.2 0.298 7.64 41.55 12.96
1/8/2023 1:15:00 PM 4.05 39.29 0.298 7.64 35.21 12.98
1/8/2023 1:30:00 PM 4.1 39.38 0.299 7.65 42.5 12.98
1/8/2023 1:45:00 PM 4.15 39.47 0.299 7.66 42.82 12.99
1/8/2023 2:00:00 PM 4.19 39.542 0.299 7.63 47.42 12.98
1/8/2023 2:15:00 PM 4.22 39.596 0.299 7.65 51.15 12.96
1/8/2023 2:30:00 PM 4.26 39.668 0.299 7.67 49.27 12.98
1/8/2023 2:45:00 PM 4.28 39.704 0.3 7.65 45.25 12.97
1/8/2023 3:00:00 PM 4.31 39.758 0.3 7.68 44.48 12.96
1/8/2023 3:15:00 PM 4.32 39.776 0.3 7.68 48.64 12.95
1/8/2023 3:30:00 PM 4.32 39.776 0.3 7.68 42.85 12.94
1/8/2023 3:45:00 PM 4.31 39.758 0.301 7.68 51.97 12.92
1/8/2023 4:00:00 PM 4.29 39.722 0.301 7.69 43.78 12.91
1/8/2023 4:15:00 PM 4.24 39.632 0.301 7.69 38.77 12.88
1/8/2023 4:30:00 PM 4.2 39.56 0.302 7.68 42.01 12.84
1/8/2023 4:45:00 PM 4.16 39.488 0.302 7.66 51.62 12.8
1/8/2023 5:00:00 PM 4.12 39.416 0.302 7.68 40.26 12.77
1/8/2023 5:15:00 PM 4.08 39.344 0.303 7.67 38.63 12.74
1/8/2023 5:30:00 PM 4.05 39.29 0.303 7.65 42.82 12.72
1/8/2023 5:45:00 PM 4.01 39.218 0.304 7.67 36.13 12.69
1/8/2023 6:00:00 PM 3.97 39.146 0.304 7.66 42.83 12.66
1/8/2023 6:15:00 PM 3.93 39.074 0.305 7.66 37.67 12.64
1/8/2023 6:30:00 PM 3.89 39.002 0.305 7.65 37 12.61
1/8/2023 6:45:00 PM 3.85 38.93 0.305 7.65 34.93 12.58
1/8/2023 7:00:00 PM 3.81 38.858 0.306 7.65 48.76 12.56
1/8/2023 7:15:00 PM 3.77 38.786 0.306 7.64 37.11 12.53
1/8/2023 7:30:00 PM 3.73 38.714 0.306 7.64 37.7 12.52
1/8/2023 7:45:00 PM 3.69 38.642 0.306 7.63 35.65 12.51
1/8/2023 8:00:00 PM 3.65 38.57 0.307 7.63 45.79 12.48
1/8/2023 8:15:00 PM 3.61 38.498 0.307 7.62 35.43 12.47
1/8/2023 8:30:00 PM 3.57 38.426 0.307 7.63 40.34 12.44
1/8/2023 8:45:00 PM 3.53 38.354 0.307 7.62 35.93 12.43
1/8/2023 9:00:00 PM 3.5 38.3 0.307 7.6 37.11 12.42
1/8/2023 9:15:00 PM 3.46 38.228 0.307 7.61 39.88 12.41
1/8/2023 9:30:00 PM 3.43 38.174 0.307 7.6 33.67 12.4
1/8/2023 9:45:00 PM 3.4 38.12 0.307 7.6 39.28 12.38
1/8/2023 10:00:00 PM 3.37 38.066 0.307 7.59 49.71 12.38
1/8/2023 10:15:00 PM 3.34 38.012 0.307 7.6 39.38 12.37
1/8/2023 10:30:00 PM 3.31 37.958 0.307 7.59 39.08 12.36
1/8/2023 10:45:00 PM 3.28 37.904 0.307 7.59 53.1 12.37
1/8/2023 11:00:00 PM 3.26 37.868 0.307 7.55 37.81 12.36
1/8/2023 11:15:00 PM 3.23 37.814 0.307 7.59 44.7 12.36
1/8/2023 11:30:00 PM 3.21 37.778 0.307 7.55 39.82 12.37
1/8/2023 11:45:00 PM 3.19 37.742 0.308 7.58 44.86 12.36
1/9/2023 12:00:00 AM 3.18 37.724 0.308 7.58 44.53 12.37
1/9/2023 12:15:00 AM 3.17 37.706 0.308 7.55 42.02 12.37
1/9/2023 12:30:00 AM 3.16 37.688 0.308 7.58 37.63 12.36
1/9/2023 12:45:00 AM 3.15 37.67 0.308 7.56 38.64 12.36
1/9/2023 1:00:00 AM 3.13 37.634 0.309 7.57 34.8 12.36
1/9/2023 1:15:00 AM 3.11 37.598 0.309 7.57 40.33 12.36
1/9/2023 1:30:00 AM 3.1 37.58 0.309 7.57 43.09 12.36
1/9/2023 1:45:00 AM 3.08 37.544 0.309 7.57 39.11 12.37
1/9/2023 2:00:00 AM 3.07 37.526 0.309 7.57 37.42 12.38
1/9/2023 2:15:00 AM 3.05 37.49 0.309 7.57 41.14 12.38
1/9/2023 2:30:00 AM 3.03 37.454 0.309 7.57 36.01 12.39
1/9/2023 2:45:00 AM 3.01 37.418 0.31 7.57 39.87 12.39
1/9/2023 3:00:00 AM 3 37.4 0.31 7.57 51.53 12.39
1/9/2023 3:15:00 AM 2.99 37.382 0.31 7.57 36.79 12.4
1/9/2023 3:30:00 AM 2.98 37.364 0.311 7.57 37.81 12.4
1/9/2023 3:45:00 AM 2.96 37.328 0.311 7.57 42.53 12.41
1/9/2023 4:00:00 AM 2.95 37.31 0.311 7.54 42.71 12.41
1/9/2023 4:15:00 AM 2.94 37.292 0.311 7.57 38.82 12.41
1/9/2023 4:30:00 AM 2.92 37.256 0.311 7.57 37.63 12.42
1/9/2023 4:45:00 AM 2.91 37.238 0.311 7.57 37.62 12.43
1/9/2023 5:00:00 AM 2.9 37.22 0.311 7.53 37.81 12.44
1/9/2023 5:15:00 AM 2.89 37.202 0.311 7.57 39.47 12.44
1/9/2023 5:30:00 AM 2.88 37.184 0.312 7.57 37.4 12.45
1/9/2023 5:45:00 AM 2.86 37.148 0.312 7.56 34.99 12.44
1/9/2023 6:00:00 AM 2.85 37.13 0.312 7.57 33.92 12.47
1/9/2023 6:15:00 AM 2.84 37.112 0.312 7.56 38.82 12.46
1/9/2023 6:30:00 AM 2.82 37.076 0.312 7.53 36.39 12.46
1/9/2023 6:45:00 AM 2.81 37.058 0.312 7.56 36.92 12.47
1/9/2023 7:00:00 AM 2.79 37.022 0.312 7.57 37.56 12.48
1/9/2023 7:15:00 AM 2.78 37.004 0.312 7.56 37.62 12.49
1/9/2023 7:30:00 AM 2.76 36.968 0.312 7.56 68.15 12.49
1/9/2023 7:45:00 AM 2.75 36.95 0.312 7.57 42.01 12.5
1/9/2023 8:00:00 AM 2.74 36.932 0.313 7.56 38.31 12.51
1/9/2023 8:15:00 AM 2.73 36.914 0.313 7.56 42.56 12.53
1/9/2023 8:30:00 AM 2.71 36.878 0.313 7.57 37.25 12.55
1/9/2023 8:45:00 AM 2.7 36.86 0.313 7.55 37.59 12.56
1/9/2023 9:00:00 AM 2.7 36.86 0.313 7.56 36.05 12.59
1/9/2023 9:15:00 AM 2.69 36.842 0.314 7.58 36.86 12.6
1/9/2023 9:30:00 AM 2.68 36.824 0.314 7.58 43.14 12.64
1/9/2023 9:45:00 AM 2.69 36.842 0.314 7.58 38.53 12.67
1/9/2023 10:00:00 AM 2.69 36.842 0.314 7.59 36.19 12.71
1/9/2023 10:15:00 AM 2.7 36.86 0.315 7.6 38.09 12.74
1/9/2023 10:30:00 AM 2.71 36.878 0.315 7.58 36.82 12.78
1/9/2023 10:45:00 AM 2.75 36.95 0.315 7.59 38.6 12.8
1/9/2023 11:00:00 AM 2.78 37.004 0.315 7.62 34.69 12.84
1/9/2023 11:15:00 AM 2.82 37.076 0.315 7.62 38.04 12.87
1/9/2023 11:30:00 AM 2.87 37.166 0.316 7.6 37.84 12.9
1/9/2023 11:45:00 AM 2.91 37.238 0.316 7.63 37.74 12.94
1/9/2023 12:00:00 PM 2.94 37.292 0.316 7.64 35.54 12.95
1/9/2023 12:15:00 PM 2.97 37.346 0.317 7.63 34.08 12.97
1/9/2023 12:30:00 PM 3.03 37.454 0.317 7.65 33.89 13
1/9/2023 12:45:00 PM 3.11 37.598 0.317 7.66 34.91 13.01
1/9/2023 1:00:00 PM 3.21 37.778 0.318 7.67 35.96 13.02
1/9/2023 1:15:00 PM 3.3 37.94 0.318 7.67 35.94 13.05
1/9/2023 1:30:00 PM 3.4 38.12 0.318 7.68 32.12 13.06
1/9/2023 1:45:00 PM 3.48 38.264 0.317 7.67 34.31 13.09
1/9/2023 2:00:00 PM 3.56 38.408 0.317 7.7 37.16 13.08
1/9/2023 2:15:00 PM 3.63 38.534 0.317 7.7 34.81 13.08
1/9/2023 2:30:00 PM 3.69 38.642 0.317 7.7 35.34 13.09
1/9/2023 2:45:00 PM 3.74 38.732 0.317 7.71 34.35 13.08
1/9/2023 3:00:00 PM 3.78 38.804 0.317 7.71 34.28 13.06
1/9/2023 3:15:00 PM 3.81 38.858 0.317 7.71 31.74 13.05
1/9/2023 3:30:00 PM 3.82 38.876 0.317 7.72 30.63 13.03
1/9/2023 3:45:00 PM 3.83 38.894 0.317 7.72 32.92 13
1/9/2023 4:00:00 PM 3.84 38.912 0.316 7.72 33.38 12.98
1/9/2023 4:15:00 PM 3.82 38.876 0.316 7.72 32.21 12.95
1/9/2023 4:30:00 PM 3.8 38.84 0.315 7.69 32.72 12.92
1/9/2023 4:45:00 PM 3.77 38.786 0.314 7.7 32.14 12.89
1/9/2023 5:00:00 PM 3.74 38.732 0.313 7.69 33.65 12.84
1/9/2023 5:15:00 PM 3.71 38.678 0.312 7.7 36.87 12.81
1/9/2023 5:30:00 PM 3.68 38.624 0.312 7.69 32.49 12.78
1/9/2023 5:45:00 PM 3.65 38.57 0.312 7.69 32.98 12.75
1/9/2023 6:00:00 PM 3.61 38.498 0.312 7.69 32.52 12.73
1/9/2023 6:15:00 PM 3.58 38.444 0.312 7.68 39.29 12.69
1/9/2023 6:30:00 PM 3.54 38.372 0.312 7.68 33.54 12.67
1/9/2023 6:45:00 PM 3.5 38.3 0.312 7.64 35.77 12.63
1/9/2023 7:00:00 PM 3.47 38.246 0.312 7.67 34.07 12.61
1/9/2023 7:15:00 PM 3.44 38.192 0.313 7.66 45.36 12.59
1/9/2023 7:30:00 PM 3.4 38.12 0.313 7.63 33.94 12.58
1/9/2023 7:45:00 PM 3.37 38.066 0.314 7.66 33.49 12.56
1/9/2023 8:00:00 PM 3.34 38.012 0.314 7.65 32.21 12.54
1/9/2023 8:15:00 PM 3.32 37.976 0.315 7.64 37.72 12.52
1/9/2023 8:30:00 PM 3.3 37.94 0.315 7.64 35.24 12.49
1/9/2023 8:45:00 PM 3.29 37.922 0.316 7.65 33.18 12.48
1/9/2023 9:00:00 PM 3.28 37.904 0.317 7.64 33.5 12.45
1/9/2023 9:15:00 PM 3.28 37.904 0.318 7.64 35.51 12.43
1/9/2023 9:30:00 PM 3.28 37.904 0.318 7.64 32.71 12.42
1/9/2023 9:45:00 PM 3.28 37.904 0.319 7.61 39.19 12.41
1/9/2023 10:00:00 PM 3.29 37.922 0.32 7.63 32.58 12.38
1/9/2023 10:15:00 PM 3.3 37.94 0.321 7.63 33.07 12.37
1/9/2023 10:30:00 PM 3.3 37.94 0.321 7.61 39.02 12.35
1/9/2023 10:45:00 PM 3.31 37.958 0.322 7.63 37.28 12.34
1/9/2023 11:00:00 PM 3.31 37.958 0.323 7.62 34.78 12.34
1/9/2023 11:15:00 PM 3.33 37.994 0.323 7.61 32.77 12.31
1/9/2023 11:30:00 PM 3.34 38.012 0.324 7.62 40.34 12.31
1/9/2023 11:45:00 PM 3.35 38.03 0.324 7.62 35.53 12.3
1/10/2023 12:00:00 AM 3.36 38.048 0.324 7.59 35.75 12.28
1/10/2023 12:15:00 AM 3.38 38.084 0.324 7.62 37.07 12.27
1/10/2023 12:30:00 AM 3.39 38.102 0.325 7.62 33.07 12.25
1/10/2023 12:45:00 AM 3.41 38.138 0.325 7.62 32.98 12.24
1/10/2023 1:00:00 AM 3.42 38.156 0.326 7.61 31.57 12.24
1/10/2023 1:15:00 AM 3.43 38.174 0.326 7.62 36.94 12.23
1/10/2023 1:30:00 AM 3.44 38.192 0.326 7.61 34.25 12.23
1/10/2023 1:45:00 AM 3.44 38.192 0.326 7.61 32.06 12.22
1/10/2023 2:00:00 AM 3.45 38.21 0.327 7.59 33.64 12.22
1/10/2023 2:15:00 AM 3.46 38.228 0.327 7.61 36.4 12.21
1/10/2023 2:30:00 AM 3.46 38.228 0.327 7.61 35.24 12.22
1/10/2023 2:45:00 AM 3.47 38.246 0.327 7.59 42.7 12.21
1/10/2023 3:00:00 AM 3.47 38.246 0.328 7.61 34.89 12.2
1/10/2023 3:15:00 AM 3.47 38.246 0.328 7.6 35 12.2
1/10/2023 3:30:00 AM 3.47 38.246 0.329 7.62 33.55 12.21
1/10/2023 3:45:00 AM 3.47 38.246 0.329 7.58 34.87 12.22
1/10/2023 4:00:00 AM 3.46 38.228 0.33 7.62 33.25 12.21
1/10/2023 4:15:00 AM 3.46 38.228 0.33 7.61 31.59 12.21
1/10/2023 4:30:00 AM 3.45 38.21 0.33 7.58 35.21 12.22
1/10/2023 4:45:00 AM 3.45 38.21 0.33 7.61 32.14 12.21
1/10/2023 5:00:00 AM 3.44 38.192 0.33 7.61 34.89 12.21
1/10/2023 5:15:00 AM 3.44 38.192 0.33 7.6 33.17 12.23
1/10/2023 5:30:00 AM 3.44 38.192 0.33 7.61 34.45 12.21
1/10/2023 5:45:00 AM 3.43 38.174 0.33 7.59 33.4 12.23
1/10/2023 6:00:00 AM 3.43 38.174 0.33 7.61 30.74 12.23
1/10/2023 6:15:00 AM 3.42 38.156 0.33 7.58 32.21 12.23
1/10/2023 6:30:00 AM 3.42 38.156 0.331 7.6 34.59 12.22
1/10/2023 6:45:00 AM 3.41 38.138 0.331 7.61 33.98 12.24
1/10/2023 7:00:00 AM 3.4 38.12 0.331 7.61 49.49 12.22
1/10/2023 7:15:00 AM 3.4 38.12 0.331 7.61 32.58 12.24
1/10/2023 7:30:00 AM 3.39 38.102 0.332 7.59 38.09 12.23
1/10/2023 7:45:00 AM 3.39 38.102 0.332 7.61 34.61 12.22
1/10/2023 8:00:00 AM 3.39 38.102 0.332 7.6 32.76 12.23
1/10/2023 8:15:00 AM 3.39 38.102 0.332 7.6 34.95 12.23
1/10/2023 8:30:00 AM 3.39 38.102 0.333 7.61 33.9 12.22
1/10/2023 8:45:00 AM 3.39 38.102 0.333 7.61 33.15 12.26
1/10/2023 9:00:00 AM 3.39 38.102 0.333 7.58 32.93 12.26
1/10/2023 9:15:00 AM 3.4 38.12 0.333 7.62 31.92 12.27
1/10/2023 9:30:00 AM 3.4 38.12 0.333 7.6 30.32 12.28
1/10/2023 9:45:00 AM 3.4 38.12 0.333 7.62 31.63 12.3
1/10/2023 10:00:00 AM 3.41 38.138 0.334 7.62 35.05 12.33
1/10/2023 10:15:00 AM 3.42 38.156 0.334 7.63 32.63 12.35
1/10/2023 10:30:00 AM 3.43 38.174 0.334 7.62 32.37 12.38
1/10/2023 10:45:00 AM 3.44 38.192 0.334 7.63 31.02 12.42
1/10/2023 11:00:00 AM 3.44 38.192 0.334 7.64 32.36 12.44
1/10/2023 11:15:00 AM 3.45 38.21 0.335 7.64 32.01 12.46
1/10/2023 11:30:00 AM 3.47 38.246 0.335 7.63 32.25 12.5
1/10/2023 11:45:00 AM 3.48 38.264 0.335 7.64 31.63 12.52
1/10/2023 12:00:00 PM 3.49 38.282 0.336 7.66 35.41 12.52
1/10/2023 12:15:00 PM 3.5 38.3 0.336 7.66 33.17 12.55
1/10/2023 12:30:00 PM 3.52 38.336 0.336 7.67 31.83 12.59
1/10/2023 12:45:00 PM 3.53 38.354 0.337 7.66 32.6 12.6
1/10/2023 1:00:00 PM 3.54 38.372 0.337 7.67 30.61 12.63
1/10/2023 1:15:00 PM 3.56 38.408 0.337 7.68 34.86 12.65
1/10/2023 1:30:00 PM 3.57 38.426 0.337 7.69 31.04 12.65
1/10/2023 1:45:00 PM 3.59 38.462 0.338 7.69 32.04 12.67
1/10/2023 2:00:00 PM 3.59 38.462 0.338 7.69 33.24 12.66
1/10/2023 2:15:00 PM 3.6 38.48 0.338 7.66 35.48 12.69
1/10/2023 2:30:00 PM 3.62 38.516 0.338 7.7 31.5 12.68
1/10/2023 2:45:00 PM 3.63 38.534 0.339 7.7 31.07 12.71
1/10/2023 3:00:00 PM 3.64 38.552 0.339 7.71 32.03 12.72
1/10/2023 3:15:00 PM 3.66 38.588 0.339 7.7 31.46 12.7
1/10/2023 3:30:00 PM 3.66 38.588 0.339 7.71 31.06 12.72
1/10/2023 3:45:00 PM 3.67 38.606 0.339 7.68 31.9 12.68
1/10/2023 4:00:00 PM 3.67 38.606 0.339 7.71 29.72 12.68
1/10/2023 4:15:00 PM 3.67 38.606 0.339 7.71 28.57 12.65
1/10/2023 4:30:00 PM 3.67 38.606 0.339 7.71 35.95 12.64
1/10/2023 4:45:00 PM 3.67 38.606 0.339 7.69 29.91 12.59
1/10/2023 5:00:00 PM 3.66 38.588 0.339 7.7 29.6 12.6
1/10/2023 5:15:00 PM 3.65 38.57 0.339 7.71 30.91 12.58
1/10/2023 5:30:00 PM 3.64 38.552 0.339 7.69 31.5 12.55
1/10/2023 5:45:00 PM 3.64 38.552 0.339 7.7 28.73 12.56
1/10/2023 6:00:00 PM 3.63 38.534 0.339 7.7 30.1 12.52
1/10/2023 6:15:00 PM 3.62 38.516 0.339 7.69 29.63 12.5
1/10/2023 6:30:00 PM 3.61 38.498 0.338 7.69 29.8 12.49
1/10/2023 6:45:00 PM 3.6 38.48 0.338 7.69 35.51 12.47
1/10/2023 7:00:00 PM 3.59 38.462 0.338 7.69 29.97 12.45
1/10/2023 7:15:00 PM 3.58 38.444 0.338 7.69 32.26 12.45
1/10/2023 7:30:00 PM 3.57 38.426 0.337 7.68 30.62 12.44
1/10/2023 7:45:00 PM 3.56 38.408 0.337 7.68 30.48 12.41
1/10/2023 8:00:00 PM 3.56 38.408 0.337 7.67 28.62 12.39
1/10/2023 8:15:00 PM 3.55 38.39 0.337 7.65 29.82 12.38
1/10/2023 8:30:00 PM 3.54 38.372 0.336 7.67 33.71 12.38
1/10/2023 8:45:00 PM 3.53 38.354 0.336 7.67 29.99 12.36
1/10/2023 9:00:00 PM 3.52 38.336 0.336 7.66 30.43 12.33
1/10/2023 9:15:00 PM 3.51 38.318 0.336 7.66 30.85 12.32
1/10/2023 9:30:00 PM 3.5 38.3 0.335 7.66 31.03 12.32
1/10/2023 9:45:00 PM 3.49 38.282 0.335 7.65 29.87 12.31
1/10/2023 10:00:00 PM 3.48 38.264 0.335 7.64 30.37 12.29
1/10/2023 10:15:00 PM 3.47 38.246 0.335 7.65 31.13 12.29
1/10/2023 10:30:00 PM 3.46 38.228 0.335 7.63 32.51 12.28
1/10/2023 10:45:00 PM 3.45 38.21 0.336 7.65 29.87 12.28
1/10/2023 11:00:00 PM 3.44 38.192 0.336 7.64 30.85 12.26
1/10/2023 11:15:00 PM 3.43 38.174 0.336 7.63 31.65 12.27
1/10/2023 11:30:00 PM 3.42 38.156 0.336 7.64 33.12 12.26
1/10/2023 11:45:00 PM 3.41 38.138 0.336 7.64 31.72 12.27
1/11/2023 12:00:00 AM 3.4 38.12 0.336 7.64 31.87 12.26
1/11/2023 12:15:00 AM 3.39 38.102 0.336 7.64 34.47 12.27
1/11/2023 12:30:00 AM 3.38 38.084 0.337 7.64 32.14 12.26
1/11/2023 12:45:00 AM 3.37 38.066 0.337 7.64 32.64 12.26
1/11/2023 1:00:00 AM 3.36 38.048 0.337 7.64 31.22 12.25
1/11/2023 1:15:00 AM 3.35 38.03 0.337 7.62 35.41 12.26
1/11/2023 1:30:00 AM 3.34 38.012 0.337 7.64 34.68 12.25
1/11/2023 1:45:00 AM 3.33 37.994 0.337 7.64 34.64 12.26
1/11/2023 2:00:00 AM 3.32 37.976 0.337 7.63 36.55 12.26
1/11/2023 2:15:00 AM 3.31 37.958 0.337 7.62 34.88 12.26
1/11/2023 2:30:00 AM 3.3 37.94 0.337 7.62 34.17 12.27
1/11/2023 2:45:00 AM 3.29 37.922 0.338 7.64 34.8 12.27
1/11/2023 3:00:00 AM 3.28 37.904 0.338 7.64 35.27 12.27
1/11/2023 3:15:00 AM 3.26 37.868 0.338 7.64 36.46 12.27
1/11/2023 3:30:00 AM 3.25 37.85 0.338 7.64 34.46 12.28
1/11/2023 3:45:00 AM 3.24 37.832 0.338 7.64 31.71 12.29
1/11/2023 4:00:00 AM 3.23 37.814 0.338 7.64 32.49 12.29
1/11/2023 4:15:00 AM 3.22 37.796 0.339 7.63 34.57 12.29
1/11/2023 4:30:00 AM 3.2 37.76 0.339 7.64 34.46 12.3
1/11/2023 4:45:00 AM 3.19 37.742 0.339 7.6 31.11 12.31
1/11/2023 5:00:00 AM 3.18 37.724 0.34 7.63 33.38 12.32
1/11/2023 5:15:00 AM 3.17 37.706 0.34 7.61 32.96 12.32
1/11/2023 5:30:00 AM 3.15 37.67 0.34 7.63 32.29 12.31
1/11/2023 5:45:00 AM 3.14 37.652 0.34 7.64 33.08 12.32
1/11/2023 6:00:00 AM 3.13 37.634 0.34 7.64 36.07 12.33
1/11/2023 6:15:00 AM 3.11 37.598 0.341 7.64 32.5 12.33
1/11/2023 6:30:00 AM 3.1 37.58 0.341 7.63 32.11 12.32
1/11/2023 6:45:00 AM 3.09 37.562 0.341 7.63 33.45 12.35
1/11/2023 7:00:00 AM 3.08 37.544 0.341 7.63 34 12.34
1/11/2023 7:15:00 AM 3.07 37.526 0.341 7.64 32.92 12.35
1/11/2023 7:30:00 AM 3.06 37.508 0.341 7.63 36.97 12.34
1/11/2023 7:45:00 AM 3.05 37.49 0.341 7.63 33.76 12.37
1/11/2023 8:00:00 AM 3.04 37.472 0.341 7.63 31.27 12.36
1/11/2023 8:15:00 AM 3.03 37.454 0.342 7.63 34.51 12.37
1/11/2023 8:30:00 AM 3.03 37.454 0.342 7.64 32.41 12.39
1/11/2023 8:45:00 AM 3.03 37.454 0.342 7.64 34.42 12.42
1/11/2023 9:00:00 AM 3.04 37.472 0.343 7.64 34.18 12.43
1/11/2023 9:15:00 AM 3.05 37.49 0.343 7.65 34.36 12.47
1/11/2023 9:30:00 AM 3.06 37.508 0.344 7.65 31.51 12.52
1/11/2023 9:45:00 AM 3.08 37.544 0.344 7.66 32.75 12.55
1/11/2023 10:00:00 AM 3.1 37.58 0.344 7.67 33.73 12.6
1/11/2023 10:15:00 AM 3.13 37.634 0.345 7.66 34.19 12.63
1/11/2023 10:30:00 AM 3.16 37.688 0.345 7.67 33.72 12.66
1/11/2023 10:45:00 AM 3.19 37.742 0.345 7.68 31.95 12.7
1/11/2023 11:00:00 AM 3.23 37.814 0.345 7.68 34.1 12.73
1/11/2023 11:15:00 AM 3.28 37.904 0.345 7.69 38.67 12.78
1/11/2023 11:30:00 AM 3.34 38.012 0.346 7.67 34.29 12.82
1/11/2023 11:45:00 AM 3.39 38.102 0.346 7.71 34.32 12.86
1/11/2023 12:00:00 PM 3.43 38.174 0.346 7.71 32.2 12.87
1/11/2023 12:15:00 PM 3.49 38.282 0.346 7.7 31.76 12.9
1/11/2023 12:30:00 PM 3.54 38.372 0.346 7.73 34.39 12.95
1/11/2023 12:45:00 PM 3.59 38.462 0.346 7.7 32.52 12.94
1/11/2023 1:00:00 PM 3.64 38.552 0.347 7.73 32.88 12.97
1/11/2023 1:15:00 PM 3.69 38.642 0.347 7.74 33.34 13
1/11/2023 1:30:00 PM 3.75 38.75 0.347 7.74 33.01 13.01
1/11/2023 1:45:00 PM 3.81 38.858 0.347 7.75 31.92 13.03
1/11/2023 2:00:00 PM 3.88 38.984 0.347 7.75 31.89 13.06
1/11/2023 2:15:00 PM 3.94 39.092 0.347 7.77 33.14 13.06
1/11/2023 2:30:00 PM 4 39.2 0.348 7.78 33.17 13.07
1/11/2023 2:45:00 PM 4.04 39.272 0.348 7.78 33.04 13.08
1/11/2023 3:00:00 PM 4.09 39.362 0.348 7.78 31.45 13.08
1/11/2023 3:15:00 PM 4.12 39.416 0.348 7.79 33.09 13.06
1/11/2023 3:30:00 PM 4.16 39.488 0.348 7.77 30.7 13.07
1/11/2023 3:45:00 PM 4.18 39.524 0.349 7.79 31.67 13.02
1/11/2023 4:00:00 PM 4.2 39.56 0.349 7.79 31.76 12.98
1/11/2023 4:15:00 PM 4.21 39.578 0.349 7.79 31.14 12.95
1/11/2023 4:30:00 PM 4.21 39.578 0.349 7.77 29.84 12.89
1/11/2023 4:45:00 PM 4.21 39.578 0.349 7.79 32.07 12.86
1/11/2023 5:00:00 PM 4.21 39.578 0.35 7.77 31.48 12.8
1/11/2023 5:15:00 PM 4.2 39.56 0.35 7.77 33.39 12.74
1/11/2023 5:30:00 PM 4.19 39.542 0.35 7.77 35.82 12.69
1/11/2023 5:45:00 PM 4.19 39.542 0.351 7.77 42.81 12.62
1/11/2023 6:00:00 PM 4.18 39.524 0.351 7.75 49.27 12.54
1/11/2023 6:15:00 PM 4.17 39.506 0.351 7.72 54.68 12.48
1/11/2023 6:30:00 PM 4.15 39.47 0.352 7.74 53.97 12.44
1/11/2023 6:45:00 PM 4.15 39.47 0.352 7.74 56.31 12.39
1/11/2023 7:00:00 PM 4.14 39.452 0.352 7.71 51.05 12.38
1/11/2023 7:15:00 PM 4.13 39.434 0.352 7.73 45.62 12.37
1/11/2023 7:30:00 PM 4.11 39.398 0.352 7.73 43.63 12.35
1/11/2023 7:45:00 PM 4.09 39.362 0.353 7.72 41.37 12.34
1/11/2023 8:00:00 PM 4.07 39.326 0.353 7.73 35.85 12.33
1/11/2023 8:15:00 PM 4.06 39.308 0.353 7.73 36.26 12.31
1/11/2023 8:30:00 PM 4.05 39.29 0.354 7.72 35.78 12.29
1/11/2023 8:45:00 PM 4.03 39.254 0.354 7.7 32.49 12.28
1/11/2023 9:00:00 PM 4.01 39.218 0.354 7.72 33.06 12.25
1/11/2023 9:15:00 PM 3.98 39.164 0.355 7.71 60.68 12.21
1/11/2023 9:30:00 PM 3.95 39.11 0.355 7.71 32.69 12.2
1/11/2023 9:45:00 PM 3.91 39.038 0.355 7.69 31.93 12.18
1/11/2023 10:00:00 PM 3.89 39.002 0.355 7.7 31.59 12.18
1/11/2023 10:15:00 PM 3.85 38.93 0.356 7.7 32.2 12.16
1/11/2023 10:30:00 PM 3.83 38.894 0.356 7.7 31.72 12.14
1/11/2023 10:45:00 PM 3.8 38.84 0.357 7.66 31.61 12.12
1/11/2023 11:00:00 PM 3.78 38.804 0.357 7.7 31.07 12.12
1/11/2023 11:15:00 PM 3.77 38.786 0.357 7.69 32.15 12.12
1/11/2023 11:30:00 PM 3.76 38.768 0.357 7.68 31.73 12.1
1/11/2023 11:45:00 PM 3.74 38.732 0.357 7.68 32.49 12.1
1/12/2023 12:00:00 AM 3.74 38.732 0.358 7.68 33.16 12.08
1/12/2023 12:15:00 AM 3.73 38.714 0.358 7.66 32.73 12.09
1/12/2023 12:30:00 AM 3.73 38.714 0.358 7.66 31.75 12.06
1/12/2023 12:45:00 AM 3.73 38.714 0.358 7.68 31.83 12.08
1/12/2023 1:00:00 AM 3.73 38.714 0.358 7.67 32.38 12.07
1/12/2023 1:15:00 AM 3.74 38.732 0.358 7.67 33.63 12.07
1/12/2023 1:30:00 AM 3.74 38.732 0.358 7.65 33.46 12.06
1/12/2023 1:45:00 AM 3.75 38.75 0.358 7.67 31.36 12.03
1/12/2023 2:00:00 AM 3.75 38.75 0.358 7.67 30.78 12.03
1/12/2023 2:15:00 AM 3.76 38.768 0.359 7.65 33.4 12.03
1/12/2023 2:30:00 AM 3.77 38.786 0.358 7.67 30.06 12.04
1/12/2023 2:45:00 AM 3.78 38.804 0.358 7.67 30.51 12.03
1/12/2023 3:00:00 AM 3.79 38.822 0.358 7.66 33.24 12.02
1/12/2023 3:15:00 AM 3.79 38.822 0.359 7.67 30.82 12.01
1/12/2023 3:30:00 AM 3.8 38.84 0.359 7.66 32.44 12
1/12/2023 3:45:00 AM 3.81 38.858 0.359 7.66 31.72 12
1/12/2023 4:00:00 AM 3.82 38.876 0.358 7.66 31.11 12
1/12/2023 4:15:00 AM 3.83 38.894 0.359 7.66 31.14 11.98
1/12/2023 4:30:00 AM 3.84 38.912 0.358 7.66 32.87 12
1/12/2023 4:45:00 AM 3.85 38.93 0.359 7.64 33.43 11.98
1/12/2023 5:00:00 AM 3.86 38.948 0.358 7.66 32.1 12
1/12/2023 5:15:00 AM 3.87 38.966 0.358 7.66 30.61 11.98
1/12/2023 5:30:00 AM 3.86 38.948 0.358 7.66 32.37 11.97
1/12/2023 5:45:00 AM 3.87 38.966 0.358 7.66 30.82 11.97
1/12/2023 6:00:00 AM 3.88 38.984 0.358 7.66 30.89 11.97
1/12/2023 6:15:00 AM 3.88 38.984 0.358 7.66 31.92 11.97
1/12/2023 6:30:00 AM 3.89 39.002 0.359 7.66 35.59 11.94
1/12/2023 6:45:00 AM 3.9 39.02 0.359 7.66 32.4 11.94
1/12/2023 7:00:00 AM 3.9 39.02 0.359 7.66 32.11 11.96
1/12/2023 7:15:00 AM 3.91 39.038 0.359 7.66 34.15 11.96
1/12/2023 7:30:00 AM 3.91 39.038 0.359 7.65 33.04 11.94
1/12/2023 7:45:00 AM 3.91 39.038 0.359 7.66 34.18 11.95
1/12/2023 8:00:00 AM 3.92 39.056 0.359 7.66 33.47 11.95
1/12/2023 8:15:00 AM 3.92 39.056 0.359 7.66 99.78 11.96
1/12/2023 8:30:00 AM 3.93 39.074 0.36 7.66 34.82 11.96
1/12/2023 8:45:00 AM 3.93 39.074 0.36 7.63 131.32 11.98
1/12/2023 9:00:00 AM 3.94 39.092 0.36 7.67 33.02 11.99
1/12/2023 9:15:00 AM 3.95 39.11 0.36 7.65 32.69 12
1/12/2023 9:30:00 AM 3.96 39.128 0.361 7.67 35.27 12.02
1/12/2023 9:45:00 AM 3.97 39.146 0.361 7.67 36.64 12.01
1/12/2023 10:00:00 AM 4 39.2 0.361 7.68 37.07 12.07
1/12/2023 10:15:00 AM 4.01 39.218 0.361 7.68 35.33 12.1
1/12/2023 10:30:00 AM 4.03 39.254 0.362 7.68 34.55 12.11
1/12/2023 10:45:00 AM 4.05 39.29 0.362 7.68 33.22 12.14
1/12/2023 11:00:00 AM 4.07 39.326 0.362 7.7 38.45 12.17
1/12/2023 11:15:00 AM 4.09 39.362 0.363 7.68 34.13 12.17
1/12/2023 11:30:00 AM 4.13 39.434 0.366 7.72 4.18 12.49
1/12/2023 11:45:00 AM 4.14 39.452 0.367 7.73 4.79 12.52
1/12/2023 12:00:00 PM 4.16 39.488 0.367 7.72 3.18 12.54
1/12/2023 12:15:00 PM 4.18 39.524 0.367 7.73 3.25 12.56
1/12/2023 12:30:00 PM 4.21 39.578 0.368 7.72 3.23 12.58
1/12/2023 12:45:00 PM 4.24 39.632 0.369 7.73 2.97 12.61
1/12/2023 1:00:00 PM 4.26 39.668 0.369 7.73 3.41 12.62
1/12/2023 1:15:00 PM 4.28 39.704 0.369 7.74 3 12.63
1/12/2023 1:30:00 PM 4.3 39.74 0.369 7.74 2.87 12.65
1/12/2023 1:45:00 PM 4.33 39.794 0.369 7.75 2.95 12.67
1/12/2023 2:00:00 PM 4.36 39.848 0.369 7.75 2.69 12.67
1/12/2023 2:15:00 PM 4.38 39.884 0.369 7.75 2.47 12.69
1/12/2023 2:30:00 PM 4.39 39.902 0.37 7.75 2.56 12.7
1/12/2023 2:45:00 PM 4.41 39.938 0.369 7.75 2.57 12.69
1/12/2023 3:00:00 PM 4.43 39.974 0.369 7.76 2.64 12.7
1/12/2023 3:15:00 PM 4.44 39.992 0.369 7.76 2.71 12.69
1/12/2023 3:30:00 PM 4.46 40.028 0.369 7.75 2.62 12.64
1/12/2023 3:45:00 PM 4.47 40.046 0.37 7.75 2.53 12.63
1/12/2023 4:00:00 PM 4.49 40.082 0.37 7.75 2.56 12.63
1/12/2023 4:15:00 PM 4.5 40.1 0.37 7.74 2.81 12.59
1/12/2023 4:30:00 PM 4.51 40.118 0.369 7.73 2.56 12.57
1/12/2023 4:45:00 PM 4.52 40.136 0.37 7.74 2.66 12.51
1/12/2023 5:00:00 PM 4.53 40.154 0.369 7.72 2.9 12.47
1/12/2023 5:15:00 PM 4.54 40.172 0.369 7.73 2.78 12.43
1/12/2023 5:30:00 PM 4.54 40.172 0.368 7.73 2.49 12.41
1/12/2023 5:45:00 PM 4.55 40.19 0.367 7.73 4.6 12.42
1/12/2023 6:00:00 PM 4.56 40.208 0.366 7.73 3.59 12.39
1/12/2023 6:15:00 PM 4.57 40.226 0.366 7.73 3.03 12.35
1/12/2023 6:30:00 PM 4.58 40.244 0.366 7.71 3.22 12.33
1/12/2023 6:45:00 PM 4.59 40.262 0.367 7.71 3.41 12.3
1/12/2023 7:00:00 PM 4.6 40.28 0.367 7.71 4.03 12.27
1/12/2023 7:15:00 PM 4.61 40.298 0.366 7.71 3.72 12.26
1/12/2023 7:30:00 PM 4.61 40.298 0.368 7.71 3.77 12.2
1/12/2023 7:45:00 PM 4.62 40.316 0.366 7.71 4.06 12.2
1/12/2023 8:00:00 PM 4.63 40.334 0.369 7.7 3.59 12.17
1/12/2023 8:15:00 PM 4.63 40.334 0.365 7.7 4.21 12.14
1/12/2023 8:30:00 PM 4.64 40.352 0.365 7.7 3.33 12.15
1/12/2023 8:45:00 PM 4.65 40.37 0.365 7.69 5.27 12.1
1/12/2023 9:00:00 PM 4.66 40.388 0.364 7.68 4.77 12.07
1/12/2023 9:15:00 PM 4.67 40.406 0.365 7.69 3.91 12.06
1/12/2023 9:30:00 PM 4.67 40.406 0.363 7.69 3.11 12.06
1/12/2023 9:45:00 PM 4.68 40.424 0.364 7.69 3.7 12.01
1/12/2023 10:00:00 PM 4.68 40.424 0.365 7.68 3.75 12.01
1/12/2023 10:15:00 PM 4.7 40.46 0.364 7.68 5.01 12
1/12/2023 10:30:00 PM 4.71 40.478 0.365 7.68 3.93 12
1/12/2023 10:45:00 PM 4.72 40.496 0.365 7.67 3.25 11.99
1/12/2023 11:00:00 PM 4.73 40.514 0.366 7.67 3.93 11.97
1/12/2023 11:15:00 PM 4.74 40.532 0.367 7.66 3.87 11.93
1/12/2023 11:30:00 PM 4.75 40.55 0.367 7.67 3.52 11.95
1/12/2023 11:45:00 PM 4.76 40.568 0.368 7.66 3.65 11.94
1/13/2023 12:00:00 AM 4.78 40.604 0.369 7.67 3.54 11.92
1/13/2023 12:15:00 AM 4.79 40.622 0.373 7.67 3.58 11.92
1/13/2023 12:30:00 AM 4.8 40.64 0.377 7.66 4.01 11.91
1/13/2023 12:45:00 AM 4.81 40.658 0.382 7.66 4.15 11.91
1/13/2023 1:00:00 AM 4.82 40.676 0.384 7.66 4.54 11.9
1/13/2023 1:15:00 AM 4.83 40.694 0.383 7.66 4.53 11.89
1/13/2023 1:30:00 AM 4.84 40.712 0.379 7.66 4.72 11.9
1/13/2023 1:45:00 AM 4.85 40.73 0.373 7.65 4.41 11.88
1/13/2023 2:00:00 AM 4.85 40.73 0.366 7.66 5.02 11.9
1/13/2023 2:15:00 AM 4.85 40.73 0.361 7.66 5.64 11.9
1/13/2023 2:30:00 AM 4.84 40.712 0.358 7.65 8.13 11.91
1/13/2023 2:45:00 AM 4.82 40.676 0.355 7.66 22.35 11.95
1/13/2023 3:00:00 AM 4.81 40.658 0.351 7.65 16.09 11.95
1/13/2023 3:15:00 AM 4.8 40.64 0.348 7.64 9.95 11.95
1/13/2023 3:30:00 AM 4.79 40.622 0.347 7.64 9.18 11.98
1/13/2023 3:45:00 AM 4.78 40.604 0.352 7.64 8.21 11.99
1/13/2023 4:00:00 AM 4.78 40.604 0.366 7.64 10.06 11.99
1/13/2023 4:15:00 AM 4.78 40.604 0.384 7.61 12.07 11.99
1/13/2023 4:30:00 AM 4.79 40.622 0.399 7.62 12.14 11.98
1/13/2023 4:45:00 AM 4.79 40.622 0.403 7.62 15.45 11.97
1/13/2023 5:00:00 AM 4.78 40.604 0.392 7.61 16.85 11.98
1/13/2023 5:15:00 AM 4.76 40.568 0.369 7.6 20.27 12.01
1/13/2023 5:30:00 AM 4.71 40.478 0.343 7.58 21.2 12.05
1/13/2023 5:45:00 AM 4.65 40.37 0.32 7.58 24.94 12.1
1/13/2023 6:00:00 AM 4.58 40.244 0.308 7.56 27.22 12.13
1/13/2023 6:15:00 AM 4.53 40.154 0.301 7.54 30.39 12.16
1/13/2023 6:30:00 AM 4.48 40.064 0.296 7.52 35.07 12.19
1/13/2023 6:45:00 AM 4.45 40.01 0.292 7.5 43.94 12.21
1/13/2023 7:00:00 AM 4.4 39.92 0.293 7.5 48.78 12.24
1/13/2023 7:15:00 AM 4.33 39.794 0.292 7.49 61.64 12.28
1/13/2023 7:30:00 AM 4.26 39.668 0.284 7.48 76.57 12.33
1/13/2023 7:45:00 AM 4.19 39.542 0.274 7.46 87.15 12.38
1/13/2023 8:00:00 AM 4.14 39.452 0.267 7.45 102.44 12.42
1/13/2023 8:15:00 AM 4.1 39.38 0.258 7.44 109.15 12.45
1/13/2023 8:30:00 AM 4.04 39.272 0.251 7.42 127.07 12.51
1/13/2023 8:45:00 AM 3.98 39.164 0.242 7.37 125.78 12.56
1/13/2023 9:00:00 AM 3.92 39.056 0.234 7.36 132.2 12.6
1/13/2023 9:15:00 AM 3.86 38.948 0.228 7.34 142.35 12.63
1/13/2023 9:30:00 AM 3.8 38.84 0.227 7.32 142.65 12.66
1/13/2023 9:45:00 AM 3.75 38.75 0.225 7.29 149.57 12.69
1/13/2023 10:00:00 AM 3.71 38.678 0.226 7.31 155.7 12.72
1/13/2023 10:15:00 AM 3.7 38.66 0.229 7.32 153.62 12.72
1/13/2023 10:30:00 AM 3.7 38.66 0.228 7.33 148.66 12.71
1/13/2023 10:45:00 AM 3.69 38.642 0.224 7.33 141.48 12.73
1/13/2023 11:00:00 AM 3.66 38.588 0.219 7.31 148.23 12.76
1/13/2023 11:15:00 AM 3.63 38.534 0.215 7.29 142.84 12.79
1/13/2023 11:30:00 AM 3.61 38.498 0.212 7.28 128.81 12.81
1/13/2023 11:45:00 AM 3.58 38.444 0.211 7.3 126.69 12.83
1/13/2023 12:00:00 PM 3.56 38.408 0.21 7.3 116.01 12.84
1/13/2023 12:15:00 PM 3.55 38.39 0.209 7.3 102.4 12.86
1/13/2023 12:30:00 PM 3.53 38.354 0.209 7.3 104.1 12.86
1/13/2023 12:45:00 PM 3.52 38.336 0.209 7.31 83.55 12.87
1/13/2023 1:00:00 PM 3.51 38.318 0.209 7.3 79.07 12.88
1/13/2023 1:15:00 PM 3.49 38.282 0.209 7.3 77.16 12.89
1/13/2023 1:30:00 PM 3.48 38.264 0.209 7.31 64.32 12.89
1/13/2023 1:45:00 PM 3.46 38.228 0.21 7.3 64.12 12.89
1/13/2023 2:00:00 PM 3.46 38.228 0.211 7.31 60.96 12.9
1/13/2023 2:15:00 PM 3.45 38.21 0.211 7.31 61.55 12.9
1/13/2023 2:30:00 PM 3.45 38.21 0.212 7.31 51.4 12.9
1/13/2023 2:45:00 PM 3.44 38.192 0.213 7.31 47.92 12.9
1/13/2023 3:00:00 PM 3.42 38.156 0.214 7.31 46.16 12.9
1/13/2023 3:15:00 PM 3.4 38.12 0.215 7.31 45.82 12.9
1/13/2023 3:30:00 PM 3.39 38.102 0.215 7.32 42.5 12.9
1/13/2023 3:45:00 PM 3.37 38.066 0.216 7.31 42.87 12.9
1/13/2023 4:00:00 PM 3.36 38.048 0.216 7.3 39.69 12.9
1/13/2023 4:15:00 PM 3.34 38.012 0.217 7.32 39.95 12.9
1/13/2023 4:30:00 PM 3.32 37.976 0.217 7.32 36.52 12.9
1/13/2023 4:45:00 PM 3.31 37.958 0.217 7.32 33.14 12.9
1/13/2023 5:00:00 PM 3.29 37.922 0.218 7.32 32.39 12.9
1/13/2023 5:15:00 PM 3.27 37.886 0.219 7.32 30.71 12.9
1/13/2023 5:30:00 PM 3.25 37.85 0.219 7.33 33.4 12.9
1/13/2023 5:45:00 PM 3.23 37.814 0.22 7.32 29.34 12.9
1/13/2023 6:00:00 PM 3.2 37.76 0.22 7.32 25.92 12.9
1/13/2023 6:15:00 PM 3.18 37.724 0.221 7.31 27.35 12.9
1/13/2023 6:30:00 PM 3.16 37.688 0.221 7.33 26.17 12.91
1/13/2023 6:45:00 PM 3.13 37.634 0.222 7.32 25.53 12.91
1/13/2023 7:00:00 PM 3.11 37.598 0.222 7.32 25.17 12.92
1/13/2023 7:15:00 PM 3.08 37.544 0.223 7.32 29.24 12.92
1/13/2023 7:30:00 PM 3.05 37.49 0.224 7.32 22.98 12.93
1/13/2023 7:45:00 PM 3.03 37.454 0.224 7.32 23.41 12.93
1/13/2023 8:00:00 PM 3 37.4 0.225 7.33 23.33 12.93
1/13/2023 8:15:00 PM 2.98 37.364 0.226 7.33 23.28 12.94
1/13/2023 8:30:00 PM 2.95 37.31 0.227 7.33 22.82 12.94
1/13/2023 8:45:00 PM 2.92 37.256 0.228 7.33 22.5 12.95
1/13/2023 9:00:00 PM 2.9 37.22 0.228 7.33 26.76 12.95
1/13/2023 9:15:00 PM 2.87 37.166 0.229 7.33 20.5 12.96
1/13/2023 9:30:00 PM 2.84 37.112 0.229 7.33 20.46 12.97
1/13/2023 9:45:00 PM 2.81 37.058 0.23 7.33 19.11 12.98
1/13/2023 10:00:00 PM 2.77 36.986 0.23 7.33 19.14 12.99
1/13/2023 10:15:00 PM 2.74 36.932 0.231 7.33 32.75 12.99
1/13/2023 10:30:00 PM 2.71 36.878 0.231 7.34 18.79 13
1/13/2023 10:45:00 PM 2.68 36.824 0.232 7.34 18.31 13.01
1/13/2023 11:00:00 PM 2.65 36.77 0.233 7.33 19.74 13.02
1/13/2023 11:15:00 PM 2.62 36.716 0.233 7.34 18.2 13.03
1/13/2023 11:30:00 PM 2.59 36.662 0.234 7.34 17.41 13.04
1/13/2023 11:45:00 PM 2.56 36.608 0.234 7.34 17.02 13.04
1/14/2023 12:00:00 AM 2.53 36.554 0.235 7.34 16.26 13.05
1/14/2023 12:15:00 AM 2.5 36.5 0.236 7.35 18.06 13.06
1/14/2023 12:30:00 AM 2.47 36.446 0.237 7.34 15.62 13.07
1/14/2023 12:45:00 AM 2.45 36.41 0.237 7.35 15.16 13.08
1/14/2023 1:00:00 AM 2.41 36.338 0.238 7.35 15.02 13.09
1/14/2023 1:15:00 AM 2.38 36.284 0.239 7.35 14.45 13.1
1/14/2023 1:30:00 AM 2.35 36.23 0.24 7.35 14.79 13.11
1/14/2023 1:45:00 AM 2.32 36.176 0.24 7.35 14.58 13.11
1/14/2023 2:00:00 AM 2.29 36.122 0.241 7.36 15.02 13.13
1/14/2023 2:15:00 AM 2.26 36.068 0.242 7.36 15.48 13.14
1/14/2023 2:30:00 AM 2.23 36.014 0.243 7.36 14.43 13.14
1/14/2023 2:45:00 AM 2.21 35.978 0.244 7.37 13.89 13.15
1/14/2023 3:00:00 AM 2.18 35.924 0.244 7.37 12.91 13.16
1/14/2023 3:15:00 AM 2.16 35.888 0.245 7.37 14.91 13.17
1/14/2023 3:30:00 AM 2.14 35.852 0.246 7.37 14.18 13.18
1/14/2023 3:45:00 AM 2.12 35.816 0.247 7.38 14.53 13.18
1/14/2023 4:00:00 AM 2.09 35.762 0.248 7.38 14.34 13.19
1/14/2023 4:15:00 AM 2.07 35.726 0.249 7.38 12.02 13.2
1/14/2023 4:30:00 AM 2.05 35.69 0.249 7.38 12.84 13.2
1/14/2023 4:45:00 AM 2.02 35.636 0.25 7.39 11.69 13.21
1/14/2023 5:00:00 AM 2 35.6 0.251 7.39 15.23 13.22
1/14/2023 5:15:00 AM 1.97 35.546 0.251 7.39 12.26 13.22
1/14/2023 5:30:00 AM 1.95 35.51 0.252 7.39 11.75 13.23
1/14/2023 5:45:00 AM 1.92 35.456 0.253 7.39 14.18 13.24
1/14/2023 6:00:00 AM 1.89 35.402 0.253 7.39 25.05 13.25
1/14/2023 6:15:00 AM 1.86 35.348 0.254 7.4 11.04 13.27
1/14/2023 6:30:00 AM 1.83 35.294 0.254 7.4 12.38 13.28
1/14/2023 6:45:00 AM 1.8 35.24 0.255 7.4 11.34 13.29
1/14/2023 7:00:00 AM 1.77 35.186 0.256 7.39 14.7 13.3
1/14/2023 7:15:00 AM 1.74 35.132 0.256 7.38 37.61 13.31
1/14/2023 7:30:00 AM 1.71 35.078 0.257 7.4 11.33 13.33
1/14/2023 7:45:00 AM 1.68 35.024 0.258 7.41 12.1 13.33
1/14/2023 8:00:00 AM 1.66 34.988 0.258 7.41 12.7 13.34
1/14/2023 8:15:00 AM 1.62 34.916 0.259 7.41 11.26 13.35
1/14/2023 8:30:00 AM 1.6 34.88 0.259 7.41 10.39 13.37
1/14/2023 8:45:00 AM 1.58 34.844 0.26 7.4 10.75 13.39
1/14/2023 9:00:00 AM 1.56 34.808 0.26 7.41 10.52 13.4
1/14/2023 9:15:00 AM 1.54 34.772 0.261 7.4 10.61 13.42
1/14/2023 9:30:00 AM 1.52 34.736 0.261 7.42 10.01 13.44
1/14/2023 9:45:00 AM 1.51 34.718 0.262 7.42 9.59 13.46
1/14/2023 10:00:00 AM 1.51 34.718 0.262 7.43 9.19 13.48
1/14/2023 10:15:00 AM 1.5 34.7 0.263 7.44 9.11 13.5
1/14/2023 10:30:00 AM 1.49 34.682 0.263 7.44 9.2 13.52
1/14/2023 10:45:00 AM 1.49 34.682 0.264 7.44 9.2 13.55
1/14/2023 11:00:00 AM 1.49 34.682 0.264 7.45 9.25 13.57
1/14/2023 11:15:00 AM 1.5 34.7 0.265 7.45 8.81 13.59
1/14/2023 11:30:00 AM 1.5 34.7 0.265 7.46 8.7 13.62
1/14/2023 11:45:00 AM 1.5 34.7 0.266 7.46 9.74 13.64
1/14/2023 12:00:00 PM 1.5 34.7 0.266 7.46 10.27 13.67
1/14/2023 12:15:00 PM 1.51 34.718 0.267 7.47 9.41 13.69
1/14/2023 12:30:00 PM 1.52 34.736 0.268 7.48 9.31 13.72
1/14/2023 12:45:00 PM 1.54 34.772 0.268 7.47 8.77 13.74
1/14/2023 1:00:00 PM 1.55 34.79 0.269 7.49 8.65 13.76
1/14/2023 1:15:00 PM 1.57 34.826 0.27 7.48 8.27 13.77
1/14/2023 1:30:00 PM 1.58 34.844 0.27 7.5 8.27 13.78
1/14/2023 1:45:00 PM 1.58 34.844 0.27 7.5 8.81 13.79
1/14/2023 2:00:00 PM 1.59 34.862 0.271 7.5 19.7 13.81
1/14/2023 2:15:00 PM 1.6 34.88 0.271 7.49 9.16 13.81
1/14/2023 2:30:00 PM 1.6 34.88 0.271 7.5 7.86 13.83
1/14/2023 2:45:00 PM 1.61 34.898 0.272 7.51 8.13 13.84
1/14/2023 3:00:00 PM 1.61 34.898 0.272 7.51 8.83 13.84
1/14/2023 3:15:00 PM 1.62 34.916 0.272 7.52 14.23 13.85
1/14/2023 3:30:00 PM 1.62 34.916 0.273 7.53 7.91 13.85
1/14/2023 3:45:00 PM 1.62 34.916 0.274 7.53 7.29 13.85
1/14/2023 4:00:00 PM 1.61 34.898 0.274 7.53 7.75 13.85
1/14/2023 4:15:00 PM 1.6 34.88 0.275 7.53 7.53 13.84
1/14/2023 4:30:00 PM 1.59 34.862 0.275 7.54 7.58 13.83
1/14/2023 4:45:00 PM 1.57 34.826 0.275 7.53 7.16 13.82
1/14/2023 5:00:00 PM 1.55 34.79 0.276 7.53 6.97 13.8
1/14/2023 5:15:00 PM 1.53 34.754 0.276 7.53 7.14 13.79
1/14/2023 5:30:00 PM 1.5 34.7 0.276 7.53 7.64 13.77
1/14/2023 5:45:00 PM 1.48 34.664 0.277 7.53 7.52 13.77
1/14/2023 6:00:00 PM 1.45 34.61 0.277 7.52 7.33 13.76
1/14/2023 6:15:00 PM 1.43 34.574 0.277 7.53 7.39 13.75
1/14/2023 6:30:00 PM 1.41 34.538 0.278 7.53 7.28 13.74
1/14/2023 6:45:00 PM 1.39 34.502 0.278 7.53 7.56 13.73
1/14/2023 7:00:00 PM 1.37 34.466 0.279 7.53 7.36 13.72
1/14/2023 7:15:00 PM 1.35 34.43 0.279 7.52 7.34 13.7
1/14/2023 7:30:00 PM 1.33 34.394 0.279 7.52 6.82 13.69
1/14/2023 7:45:00 PM 1.32 34.376 0.279 7.52 7.14 13.69
1/14/2023 8:00:00 PM 1.3 34.34 0.28 7.52 6.98 13.68
1/14/2023 8:15:00 PM 1.29 34.322 0.28 7.51 7.06 13.67
1/14/2023 8:30:00 PM 1.28 34.304 0.28 7.5 7.85 13.66
1/14/2023 8:45:00 PM 1.27 34.286 0.28 7.51 7.62 13.65
1/14/2023 9:00:00 PM 1.27 34.286 0.28 7.51 7.56 13.65
1/14/2023 9:15:00 PM 1.27 34.286 0.28 7.51 7.11 13.64
1/14/2023 9:30:00 PM 1.26 34.268 0.28 7.51 7.82 13.63
1/14/2023 9:45:00 PM 1.25 34.25 0.28 7.5 9.45 13.62
1/14/2023 10:00:00 PM 1.24 34.232 0.28 7.51 7.36 13.62
1/14/2023 10:15:00 PM 1.23 34.214 0.28 7.51 7.59 13.62
1/14/2023 10:30:00 PM 1.22 34.196 0.281 7.51 7.76 13.62
1/14/2023 10:45:00 PM 1.21 34.178 0.281 7.51 7.27 13.62
1/14/2023 11:00:00 PM 1.21 34.178 0.281 7.51 7.52 13.61
1/14/2023 11:15:00 PM 1.2 34.16 0.281 7.51 7.18 13.62
1/14/2023 11:30:00 PM 1.19 34.142 0.281 7.5 7.55 13.61
1/14/2023 11:45:00 PM 1.19 34.142 0.282 7.5 6.6 13.61
1/15/2023 12:00:00 AM 1.18 34.124 0.282 7.5 7.29 13.62
1/15/2023 12:15:00 AM 1.16 34.088 0.282 7.5 7.08 13.62
1/15/2023 12:30:00 AM 1.15 34.07 0.282 7.5 7.07 13.62
1/15/2023 12:45:00 AM 1.15 34.07 0.282 7.5 7.26 13.62
1/15/2023 1:00:00 AM 1.14 34.052 0.282 7.5 6.73 13.62
1/15/2023 1:15:00 AM 1.13 34.034 0.283 7.5 8.62 13.62
1/15/2023 1:30:00 AM 1.12 34.016 0.283 7.49 6.91 13.63
1/15/2023 1:45:00 AM 1.12 34.016 0.283 7.49 6.54 13.63
1/15/2023 2:00:00 AM 1.1 33.98 0.283 7.5 6.88 13.64
1/15/2023 2:15:00 AM 1.09 33.962 0.284 7.5 6.64 13.64
1/15/2023 2:30:00 AM 1.08 33.944 0.284 7.5 6.5 13.65
1/15/2023 2:45:00 AM 1.08 33.944 0.284 7.5 6.63 13.65
1/15/2023 3:00:00 AM 1.07 33.926 0.285 7.5 6.66 13.66
1/15/2023 3:15:00 AM 1.06 33.908 0.285 7.5 6.54 13.66
1/15/2023 3:30:00 AM 1.05 33.89 0.285 7.5 6.55 13.66
1/15/2023 3:45:00 AM 1.04 33.872 0.285 7.49 6.86 13.67
1/15/2023 4:00:00 AM 1.03 33.854 0.286 7.5 6.8 13.67
1/15/2023 4:15:00 AM 1.02 33.836 0.286 7.5 6.76 13.68
1/15/2023 4:30:00 AM 1.02 33.836 0.287 7.5 6.45 13.68
1/15/2023 4:45:00 AM 1.01 33.818 0.287 7.5 7.01 13.69
1/15/2023 5:00:00 AM 1 33.8 0.287 7.5 6.96 13.69
1/15/2023 5:15:00 AM 0.98 33.764 0.287 7.5 6.97 13.7
1/15/2023 5:30:00 AM 0.98 33.764 0.287 7.5 7.18 13.7
1/15/2023 5:45:00 AM 0.97 33.746 0.288 7.5 6.67 13.7
1/15/2023 6:00:00 AM 0.97 33.746 0.288 7.5 6.93 13.71
1/15/2023 6:15:00 AM 0.96 33.728 0.288 7.5 6.91 13.71
1/15/2023 6:30:00 AM 0.96 33.728 0.289 7.5 6.34 13.72
1/15/2023 6:45:00 AM 0.95 33.71 0.289 7.51 6.73 13.72
1/15/2023 7:00:00 AM 0.94 33.692 0.29 7.5 6.81 13.72
1/15/2023 7:15:00 AM 0.94 33.692 0.29 7.5 7.18 13.72
1/15/2023 7:30:00 AM 0.93 33.674 0.29 7.5 8.63 13.72
1/15/2023 7:45:00 AM 0.92 33.656 0.29 7.51 11.12 13.73
1/15/2023 8:00:00 AM 0.92 33.656 0.291 7.51 6.97 13.72
1/15/2023 8:15:00 AM 0.91 33.638 0.291 7.51 6.97 13.75
1/15/2023 8:30:00 AM 0.91 33.638 0.291 7.51 6.59 13.75
1/15/2023 8:45:00 AM 0.91 33.638 0.291 7.51 6.28 13.77
1/15/2023 9:00:00 AM 0.92 33.656 0.292 7.51 6.24 13.79
1/15/2023 9:15:00 AM 0.92 33.656 0.292 7.51 6.5 13.8
1/15/2023 9:30:00 AM 0.93 33.674 0.292 7.51 6.68 13.83
1/15/2023 9:45:00 AM 0.94 33.692 0.292 7.52 6.84 13.85
1/15/2023 10:00:00 AM 0.96 33.728 0.293 7.53 6.81 13.84
1/15/2023 10:15:00 AM 0.98 33.764 0.292 7.53 6.51 13.89
1/15/2023 10:30:00 AM 1.01 33.818 0.292 7.52 6.4 13.91
1/15/2023 10:45:00 AM 1.03 33.854 0.293 7.53 6.33 13.93
1/15/2023 11:00:00 AM 1.06 33.908 0.293 7.54 6.27 13.95
1/15/2023 11:15:00 AM 1.09 33.962 0.292 7.54 6.08 13.97
1/15/2023 11:30:00 AM 1.13 34.034 0.293 7.54 5.98 13.98
1/15/2023 11:45:00 AM 1.18 34.124 0.293 7.55 5.67 14
1/15/2023 12:00:00 PM 1.22 34.196 0.293 7.55 5.98 14.02
1/15/2023 12:15:00 PM 1.29 34.322 0.293 7.54 5.83 14.04
1/15/2023 12:30:00 PM 1.35 34.43 0.293 7.56 5.75 14.04
1/15/2023 12:45:00 PM 1.42 34.556 0.294 7.56 5.67 14.05
1/15/2023 1:00:00 PM 1.5 34.7 0.294 7.58 5.41 14.06
1/15/2023 1:15:00 PM 1.56 34.808 0.294 7.58 5.31 14.06
1/15/2023 1:30:00 PM 1.63 34.934 0.293 7.58 5.71 14.07
1/15/2023 1:45:00 PM 1.69 35.042 0.294 7.59 5.75 14.06
1/15/2023 2:00:00 PM 1.73 35.114 0.294 7.59 5.83 14.07
1/15/2023 2:15:00 PM 1.78 35.204 0.294 7.59 5.86 14.06
1/15/2023 2:30:00 PM 1.83 35.294 0.294 7.6 5.53 14.06
1/15/2023 2:45:00 PM 1.87 35.366 0.294 7.6 5.95 14.04
1/15/2023 3:00:00 PM 1.91 35.438 0.294 7.6 5.79 14.02
1/15/2023 3:15:00 PM 1.92 35.456 0.295 7.61 6.02 14.01
1/15/2023 3:30:00 PM 1.93 35.474 0.295 7.61 6.13 13.99
1/15/2023 3:45:00 PM 1.95 35.51 0.295 7.59 5.68 13.98
1/15/2023 4:00:00 PM 1.96 35.528 0.295 7.61 5.73 13.95
1/15/2023 4:15:00 PM 1.95 35.51 0.295 7.61 5.94 13.93
1/15/2023 4:30:00 PM 1.92 35.456 0.296 7.61 5.92 13.9
1/15/2023 4:45:00 PM 1.9 35.42 0.296 7.61 6.15 13.88
1/15/2023 5:00:00 PM 1.87 35.366 0.296 7.62 5.83 13.86
1/15/2023 5:15:00 PM 1.84 35.312 0.297 7.61 7.43 13.83
1/15/2023 5:30:00 PM 1.81 35.258 0.297 7.61 8.37 13.8
1/15/2023 5:45:00 PM 1.77 35.186 0.297 7.61 5.96 13.79
1/15/2023 6:00:00 PM 1.73 35.114 0.298 7.6 6.35 13.77
1/15/2023 6:15:00 PM 1.68 35.024 0.298 7.61 6.31 13.75
1/15/2023 6:30:00 PM 1.64 34.952 0.299 7.6 6.3 13.74
1/15/2023 6:45:00 PM 1.6 34.88 0.299 7.6 5.65 13.71
1/15/2023 7:00:00 PM 1.56 34.808 0.299 7.6 6.21 13.7
1/15/2023 7:15:00 PM 1.53 34.754 0.299 7.59 5.67 13.68
1/15/2023 7:30:00 PM 1.51 34.718 0.3 7.59 5.92 13.67
1/15/2023 7:45:00 PM 1.48 34.664 0.3 7.58 5.71 13.66
1/15/2023 8:00:00 PM 1.45 34.61 0.3 7.58 6.05 13.65
1/15/2023 8:15:00 PM 1.44 34.592 0.301 7.58 6 13.64
1/15/2023 8:30:00 PM 1.41 34.538 0.302 7.58 5.87 13.63
1/15/2023 8:45:00 PM 1.39 34.502 0.302 7.58 5.64 13.61
1/15/2023 9:00:00 PM 1.37 34.466 0.301 7.58 5.98 13.6
1/15/2023 9:15:00 PM 1.36 34.448 0.301 7.57 6.21 13.59
1/15/2023 9:30:00 PM 1.34 34.412 0.302 7.57 6.04 13.58
1/15/2023 9:45:00 PM 1.33 34.394 0.302 7.57 5.93 13.58
1/15/2023 10:00:00 PM 1.32 34.376 0.302 7.57 5.72 13.57
1/15/2023 10:15:00 PM 1.32 34.376 0.302 7.57 5.93 13.56
1/15/2023 10:30:00 PM 1.32 34.376 0.302 7.56 5.88 13.56
1/15/2023 10:45:00 PM 1.31 34.358 0.302 7.54 5.92 13.55
1/15/2023 11:00:00 PM 1.31 34.358 0.302 7.55 6.09 13.54
1/15/2023 11:15:00 PM 1.31 34.358 0.302 7.56 5.75 13.54
1/15/2023 11:30:00 PM 1.3 34.34 0.302 7.56 5.97 13.53
1/15/2023 11:45:00 PM 1.3 34.34 0.302 7.56 6.35 13.52
1/16/2023 12:00:00 AM 1.29 34.322 0.302 7.55 6.02 13.51
1/16/2023 12:15:00 AM 1.29 34.322 0.302 7.53 6.07 13.51
1/16/2023 12:30:00 AM 1.29 34.322 0.303 7.55 6.08 13.51
1/16/2023 12:45:00 AM 1.28 34.304 0.303 7.55 6.08 13.5
1/16/2023 1:00:00 AM 1.28 34.304 0.303 7.54 6 13.5
1/16/2023 1:15:00 AM 1.26 34.268 0.303 7.55 5.67 13.51
1/16/2023 1:30:00 AM 1.24 34.232 0.303 7.55 6.06 13.5
1/16/2023 1:45:00 AM 1.23 34.214 0.303 7.55 5.93 13.5
1/16/2023 2:00:00 AM 1.21 34.178 0.304 7.55 5.62 13.51
1/16/2023 2:15:00 AM 1.18 34.124 0.304 7.55 5.85 13.52
1/16/2023 2:30:00 AM 1.15 34.07 0.304 7.55 5.6 13.53
1/16/2023 2:45:00 AM 1.13 34.034 0.305 7.55 5.87 13.53
1/16/2023 3:00:00 AM 1.1 33.98 0.305 7.55 5.48 13.54
1/16/2023 3:15:00 AM 1.07 33.926 0.306 7.55 5.71 13.54
1/16/2023 3:30:00 AM 1.04 33.872 0.305 7.55 5.65 13.56
1/16/2023 3:45:00 AM 1.01 33.818 0.306 7.55 5.7 13.57
1/16/2023 4:00:00 AM 0.97 33.746 0.306 7.55 5.7 13.57
1/16/2023 4:15:00 AM 0.94 33.692 0.307 7.54 5.91 13.58
1/16/2023 4:30:00 AM 0.91 33.638 0.307 7.55 5.64 13.59
1/16/2023 4:45:00 AM 0.87 33.566 0.307 7.54 6.08 13.6
1/16/2023 5:00:00 AM 0.83 33.494 0.308 7.54 5.95 13.61
1/16/2023 5:15:00 AM 0.79 33.422 0.308 7.54 5.97 13.62
1/16/2023 5:30:00 AM 0.75 33.35 0.308 7.53 6.36 13.63
1/16/2023 5:45:00 AM 0.71 33.278 0.308 7.53 6.33 13.64
1/16/2023 6:00:00 AM 0.67 33.206 0.309 7.52 6.25 13.66
1/16/2023 6:15:00 AM 0.64 33.152 0.309 7.53 6.38 13.68
1/16/2023 6:30:00 AM 0.6 33.08 0.309 7.53 6.55 13.69
1/16/2023 6:45:00 AM 0.56 33.008 0.31 7.52 6.25 13.71
1/16/2023 7:00:00 AM 0.52 32.936 0.31 7.53 5.99 13.73
1/16/2023 7:15:00 AM 0.48 32.864 0.31 7.53 6.46 13.74
1/16/2023 7:30:00 AM 0.44 32.792 0.311 7.53 6.56 13.76
1/16/2023 7:45:00 AM 0.41 32.738 0.312 7.53 8.25 13.77
1/16/2023 8:00:00 AM 0.37 32.666 0.312 7.53 6.7 13.79
1/16/2023 8:15:00 AM 0.33 32.594 0.312 7.53 6.73 13.81
1/16/2023 8:30:00 AM 0.31 32.558 0.313 7.53 6.67 13.83
1/16/2023 8:45:00 AM 0.28 32.504 0.314 7.53 6.14 13.85
1/16/2023 9:00:00 AM 0.26 32.468 0.314 7.53 6.69 13.87
1/16/2023 9:15:00 AM 0.24 32.432 0.315 7.54 5.95 13.89
1/16/2023 9:30:00 AM 0.22 32.396 0.315 7.54 6.16 13.91
1/16/2023 9:45:00 AM 0.22 32.396 0.316 7.54 6.24 13.94
1/16/2023 10:00:00 AM 0.22 32.396 0.317 7.54 6.09 13.95
1/16/2023 10:15:00 AM 0.25 32.45 0.317 7.54 5.95 13.98
1/16/2023 10:30:00 AM 0.27 32.486 0.318 7.55 5.81 13.99
1/16/2023 10:45:00 AM 0.3 32.54 0.318 7.55 5.62 14
1/16/2023 11:00:00 AM 0.32 32.576 0.319 7.55 6.21 14.03
1/16/2023 11:15:00 AM 0.37 32.666 0.32 7.55 5.48 14.04
1/16/2023 11:30:00 AM 0.43 32.774 0.322 7.57 5.5 14.05
1/16/2023 11:45:00 AM 0.48 32.864 0.322 7.57 5.69 14.06
1/16/2023 12:00:00 PM 0.53 32.954 0.323 7.56 5.58 14.09
1/16/2023 12:15:00 PM 0.6 33.08 0.324 7.58 5.52 14.1
1/16/2023 12:30:00 PM 0.69 33.242 0.325 7.59 5.64 14.11
1/16/2023 12:45:00 PM 0.82 33.476 0.326 7.59 5.7 14.11
1/16/2023 1:00:00 PM 0.97 33.746 0.328 7.6 5.82 14.11
1/16/2023 1:15:00 PM 1.14 34.052 0.329 7.61 5.59 14.11
1/16/2023 1:30:00 PM 1.29 34.322 0.331 7.62 5.5 14.1
1/16/2023 1:45:00 PM 1.44 34.592 0.334 7.63 7.06 14.05
1/16/2023 2:00:00 PM 1.58 34.844 0.335 7.64 5.98 14.06
1/16/2023 2:15:00 PM 1.7 35.06 0.336 7.65 6.86 14.03
1/16/2023 2:30:00 PM 1.82 35.276 0.337 7.66 7.12 14.01
1/16/2023 2:45:00 PM 1.91 35.438 0.337 7.66 9.3 13.99
1/16/2023 3:00:00 PM 1.98 35.564 0.338 7.66 9.05 13.94
1/16/2023 3:15:00 PM 2.04 35.672 0.338 7.67 7 13.92
1/16/2023 3:30:00 PM 2.09 35.762 0.339 7.68 6.4 13.89
1/16/2023 3:45:00 PM 2.13 35.834 0.341 7.68 6.4 13.82
1/16/2023 4:00:00 PM 2.16 35.888 0.34 7.68 6.53 13.78
1/16/2023 4:15:00 PM 2.17 35.906 0.342 7.69 6.23 13.75
1/16/2023 4:30:00 PM 2.17 35.906 0.342 7.68 5.84 13.71
1/16/2023 4:45:00 PM 2.16 35.888 0.339 7.69 6.05 13.68
1/16/2023 5:00:00 PM 2.14 35.852 0.337 7.67 5.76 13.64
1/16/2023 5:15:00 PM 2.11 35.798 0.336 7.68 5.83 13.61
1/16/2023 5:30:00 PM 2.08 35.744 0.334 7.67 6.03 13.6
1/16/2023 5:45:00 PM 2.03 35.654 0.328 7.67 5.77 13.58
1/16/2023 6:00:00 PM 1.99 35.582 0.323 7.67 5.86 13.6
1/16/2023 6:15:00 PM 1.95 35.51 0.319 7.66 5.68 13.58
1/16/2023 6:30:00 PM 1.91 35.438 0.316 7.65 5.8 13.57
1/16/2023 6:45:00 PM 1.87 35.366 0.313 7.65 5.95 13.56
1/16/2023 7:00:00 PM 1.84 35.312 0.311 7.64 5.85 13.55
1/16/2023 7:15:00 PM 1.8 35.24 0.311 7.63 5.94 13.54
1/16/2023 7:30:00 PM 1.77 35.186 0.311 7.63 5.74 13.52
1/16/2023 7:45:00 PM 1.74 35.132 0.313 7.63 5.66 13.5
1/16/2023 8:00:00 PM 1.72 35.096 0.315 7.63 6.08 13.47
1/16/2023 8:15:00 PM 1.7 35.06 0.318 7.63 6.69 13.46
1/16/2023 8:30:00 PM 1.68 35.024 0.32 7.62 6.35 13.43
1/16/2023 8:45:00 PM 1.66 34.988 0.32 7.62 6 13.41
1/16/2023 9:00:00 PM 1.63 34.934 0.32 7.62 5.71 13.4
1/16/2023 9:15:00 PM 1.61 34.898 0.32 7.62 5.89 13.39
1/16/2023 9:30:00 PM 1.58 34.844 0.319 7.6 5.81 13.38
1/16/2023 9:45:00 PM 1.55 34.79 0.317 7.61 5.96 13.38
1/16/2023 10:00:00 PM 1.52 34.736 0.316 7.6 6.15 13.38
1/16/2023 10:15:00 PM 1.48 34.664 0.315 7.6 5.98 13.38
1/16/2023 10:30:00 PM 1.46 34.628 0.313 7.59 5.8 13.37
1/16/2023 10:45:00 PM 1.45 34.61 0.312 7.59 6.11 13.36
1/16/2023 11:00:00 PM 1.44 34.592 0.311 7.58 6.18 13.35
1/16/2023 11:15:00 PM 1.44 34.592 0.311 7.58 6.36 13.34
1/16/2023 11:30:00 PM 1.44 34.592 0.311 7.58 6.21 13.33
1/16/2023 11:45:00 PM 1.45 34.61 0.312 7.58 6.27 13.31
1/17/2023 12:00:00 AM 1.46 34.628 0.312 7.58 6.59 13.29
1/17/2023 12:15:00 AM 1.47 34.646 0.313 7.56 5.66 13.28
1/17/2023 12:30:00 AM 1.48 34.664 0.314 7.57 5.97 13.26
1/17/2023 12:45:00 AM 1.49 34.682 0.315 7.57 5.85 13.25
1/17/2023 1:00:00 AM 1.5 34.7 0.317 7.56 5.5 13.24
1/17/2023 1:15:00 AM 1.51 34.718 0.318 7.58 5.84 13.22
1/17/2023 1:30:00 AM 1.51 34.718 0.319 7.58 5.77 13.22
1/17/2023 1:45:00 AM 1.5 34.7 0.32 7.58 5.29 13.21
1/17/2023 2:00:00 AM 1.49 34.682 0.32 7.58 5.94 13.21
1/17/2023 2:15:00 AM 1.48 34.664 0.321 7.58 5.86 13.2
1/17/2023 2:30:00 AM 1.47 34.646 0.322 7.58 5.77 13.2
1/17/2023 2:45:00 AM 1.46 34.628 0.322 7.58 5.82 13.2
1/17/2023 3:00:00 AM 1.44 34.592 0.322 7.56 6.25 13.21
1/17/2023 3:15:00 AM 1.43 34.574 0.322 7.57 6.4 13.2
1/17/2023 3:30:00 AM 1.43 34.574 0.322 7.57 6.93 13.21
1/17/2023 3:45:00 AM 1.43 34.574 0.322 7.58 5.85 13.21
1/17/2023 4:00:00 AM 1.43 34.574 0.322 7.57 6.48 13.21
1/17/2023 4:15:00 AM 1.43 34.574 0.322 7.57 5.87 13.21
1/17/2023 4:30:00 AM 1.42 34.556 0.321 7.57 5.85 13.22
1/17/2023 4:45:00 AM 1.42 34.556 0.322 7.57 5.78 13.22
1/17/2023 5:00:00 AM 1.41 34.538 0.321 7.57 6.03 13.23
1/17/2023 5:15:00 AM 1.4 34.52 0.321 7.57 5.61 13.24
1/17/2023 5:30:00 AM 1.39 34.502 0.321 7.57 5.99 13.25
1/17/2023 5:45:00 AM 1.38 34.484 0.321 7.57 6.49 13.26
1/17/2023 6:00:00 AM 1.36 34.448 0.321 7.57 6.78 13.26
1/17/2023 6:15:00 AM 1.35 34.43 0.321 7.57 6.52 13.27
1/17/2023 6:30:00 AM 1.34 34.412 0.322 7.57 6.39 13.28
1/17/2023 6:45:00 AM 1.33 34.394 0.322 7.57 6.1 13.28
1/17/2023 7:00:00 AM 1.32 34.376 0.322 7.55 6.06 13.29
1/17/2023 7:15:00 AM 1.32 34.376 0.322 7.56 6.24 13.29
1/17/2023 7:30:00 AM 1.31 34.358 0.323 7.57 6.1 13.31
1/17/2023 7:45:00 AM 1.31 34.358 0.323 7.57 5.84 13.31
1/17/2023 8:00:00 AM 1.31 34.358 0.324 7.57 6.37 13.31
1/17/2023 8:15:00 AM 1.31 34.358 0.324 7.57 5.87 13.32
1/17/2023 8:30:00 AM 1.32 34.376 0.324 7.57 5.5 13.32
1/17/2023 8:45:00 AM 1.32 34.376 0.324 7.55 5.67 13.34
1/17/2023 9:00:00 AM 1.33 34.394 0.325 7.57 6.03 13.35
1/17/2023 9:15:00 AM 1.35 34.43 0.325 7.57 5.59 13.37
1/17/2023 9:30:00 AM 1.37 34.466 0.326 7.57 9.51 13.38
1/17/2023 9:45:00 AM 1.4 34.52 0.326 7.58 5.96 13.41
1/17/2023 10:00:00 AM 1.45 34.61 0.327 7.58 5.8 13.43
1/17/2023 10:15:00 AM 1.48 34.664 0.326 7.59 5.58 13.45
1/17/2023 10:30:00 AM 1.51 34.718 0.327 7.58 5.5 13.47
1/17/2023 10:45:00 AM 1.56 34.808 0.327 7.6 5.31 13.5
1/17/2023 11:00:00 AM 1.62 34.916 0.327 7.6 5.38 13.51
1/17/2023 11:15:00 AM 1.67 35.006 0.328 7.6 5.39 13.53
1/17/2023 11:30:00 AM 1.71 35.078 0.328 7.6 5.58 13.54
1/17/2023 11:45:00 AM 1.76 35.168 0.328 7.61 5.28 13.54
1/17/2023 12:00:00 PM 1.8 35.24 0.329 7.61 5.3 13.54
1/17/2023 12:15:00 PM 1.85 35.33 0.329 7.62 5.16 13.55
1/17/2023 12:30:00 PM 1.91 35.438 0.329 7.62 5.32 13.56
1/17/2023 12:45:00 PM 1.95 35.51 0.329 7.63 8.29 13.57
1/17/2023 1:00:00 PM 2.01 35.618 0.33 7.63 5.36 13.57
1/17/2023 1:15:00 PM 2.06 35.708 0.33 7.63 5.65 13.58
1/17/2023 1:30:00 PM 2.1 35.78 0.331 7.65 4.97 13.59
1/17/2023 1:45:00 PM 2.16 35.888 0.331 7.65 5.27 13.59
1/17/2023 2:00:00 PM 2.21 35.978 0.332 7.66 5.32 13.59
1/17/2023 2:15:00 PM 2.27 36.086 0.332 7.66 5.22 13.59
1/17/2023 2:30:00 PM 2.32 36.176 0.333 7.66 5.18 13.58
1/17/2023 2:45:00 PM 2.36 36.248 0.333 7.67 5.6 13.57
1/17/2023 3:00:00 PM 2.39 36.302 0.333 7.67 5.7 13.54
1/17/2023 3:15:00 PM 2.45 36.41 0.334 7.68 5.19 13.53
1/17/2023 3:30:00 PM 2.49 36.482 0.334 7.68 5.33 13.52
1/17/2023 3:45:00 PM 2.52 36.536 0.334 7.68 5.39 13.5
1/17/2023 4:00:00 PM 2.56 36.608 0.334 7.68 6.25 13.46
1/17/2023 4:15:00 PM 2.58 36.644 0.335 7.68 5.25 13.44
1/17/2023 4:30:00 PM 2.6 36.68 0.336 7.68 7.85 13.4
1/17/2023 4:45:00 PM 2.62 36.716 0.338 7.68 5.43 13.36
1/17/2023 5:00:00 PM 2.65 36.77 0.34 7.68 5.63 13.33
1/17/2023 5:15:00 PM 2.67 36.806 0.343 7.68 6.14 13.29
1/17/2023 5:30:00 PM 2.69 36.842 0.346 7.68 5.8 13.26
1/17/2023 5:45:00 PM 2.7 36.86 0.35 7.67 5.65 13.21
1/17/2023 6:00:00 PM 2.72 36.896 0.352 7.67 5.45 13.18
1/17/2023 6:15:00 PM 2.74 36.932 0.352 7.67 5.74 13.15
1/17/2023 6:30:00 PM 2.75 36.95 0.352 7.65 6.43 13.12
1/17/2023 6:45:00 PM 2.77 36.986 0.35 7.66 5.9 13.09
1/17/2023 7:00:00 PM 2.78 37.004 0.349 7.66 6.01 13.06
1/17/2023 7:15:00 PM 2.79 37.022 0.347 7.66 13.89 13.04
1/17/2023 7:30:00 PM 2.8 37.04 0.345 7.64 5.63 13.01
1/17/2023 7:45:00 PM 2.81 37.058 0.344 7.65 5.39 12.98
1/17/2023 8:00:00 PM 2.81 37.058 0.342 7.65 6.41 12.96
1/17/2023 8:15:00 PM 2.83 37.094 0.341 7.65 5.65 12.93
1/17/2023 8:30:00 PM 2.84 37.112 0.339 7.65 5.76 12.9
1/17/2023 8:45:00 PM 2.86 37.148 0.339 7.64 5.91 12.87
1/17/2023 9:00:00 PM 2.87 37.166 0.338 7.64 5.31 12.84
1/17/2023 9:15:00 PM 2.89 37.202 0.338 7.64 5.61 12.81
1/17/2023 9:30:00 PM 2.91 37.238 0.339 7.62 5.68 12.79
1/17/2023 9:45:00 PM 2.93 37.274 0.342 7.64 5.48 12.77
1/17/2023 10:00:00 PM 2.95 37.31 0.348 7.63 5.79 12.75
1/17/2023 10:15:00 PM 2.97 37.346 0.356 7.63 5.53 12.72
1/17/2023 10:30:00 PM 3 37.4 0.367 7.63 5.47 12.7
1/17/2023 10:45:00 PM 3.02 37.436 0.379 7.62 5.33 12.69
1/17/2023 11:00:00 PM 3.03 37.454 0.392 7.62 5.83 12.67
1/17/2023 11:15:00 PM 3.05 37.49 0.402 7.6 5.66 12.65
1/17/2023 11:30:00 PM 3.07 37.526 0.41 7.62 5.79 12.63
1/17/2023 11:45:00 PM 3.09 37.562 0.414 7.62 6 12.62
1/18/2023 12:00:00 AM 3.11 37.598 0.416 7.62 7.67 12.61
1/18/2023 12:15:00 AM 3.12 37.616 0.414 7.62 5.65 12.59
1/18/2023 12:30:00 AM 3.14 37.652 0.41 7.61 6.18 12.58
1/18/2023 12:45:00 AM 3.15 37.67 0.405 7.61 5.61 12.57
1/18/2023 1:00:00 AM 3.16 37.688 0.399 7.61 5.71 12.57
1/18/2023 1:15:00 AM 3.18 37.724 0.393 7.61 5.43 12.56
1/18/2023 1:30:00 AM 3.2 37.76 0.388 7.61 5.51 12.55
1/18/2023 1:45:00 AM 3.22 37.796 0.382 7.6 5.31 12.55
1/18/2023 2:00:00 AM 3.23 37.814 0.377 7.6 5.56 12.53
1/18/2023 2:15:00 AM 3.25 37.85 0.373 7.61 5.44 12.53
1/18/2023 2:30:00 AM 3.27 37.886 0.369 7.59 5.43 12.53
1/18/2023 2:45:00 AM 3.28 37.904 0.365 7.61 5.37 12.53
1/18/2023 3:00:00 AM 3.29 37.922 0.361 7.6 5.35 12.52
1/18/2023 3:15:00 AM 3.3 37.94 0.358 7.6 5.72 12.52
1/18/2023 3:30:00 AM 3.31 37.958 0.355 7.6 5.39 12.53
1/18/2023 3:45:00 AM 3.32 37.976 0.351 7.6 5.68 12.52
1/18/2023 4:00:00 AM 3.32 37.976 0.349 7.58 5.73 12.52
1/18/2023 4:15:00 AM 3.33 37.994 0.346 7.6 5.81 12.52
1/18/2023 4:30:00 AM 3.33 37.994 0.344 7.59 6.08 12.53
1/18/2023 4:45:00 AM 3.33 37.994 0.342 7.59 5.77 12.53
1/18/2023 5:00:00 AM 3.33 37.994 0.339 7.59 5.91 12.53
1/18/2023 5:15:00 AM 3.33 37.994 0.337 7.59 5.91 12.53
1/18/2023 5:30:00 AM 3.33 37.994 0.335 7.59 6.15 12.52
1/18/2023 5:45:00 AM 3.33 37.994 0.334 7.59 5.63 12.53
1/18/2023 6:00:00 AM 3.33 37.994 0.332 7.57 5.94 12.54
1/18/2023 6:15:00 AM 3.32 37.976 0.33 7.58 6.39 12.54
1/18/2023 6:30:00 AM 3.32 37.976 0.328 7.59 6.35 12.54
1/18/2023 6:45:00 AM 3.32 37.976 0.327 7.58 5.85 12.54
1/18/2023 7:00:00 AM 3.31 37.958 0.326 7.57 6.36 12.54
1/18/2023 7:15:00 AM 3.3 37.94 0.325 7.59 6.34 12.56
1/18/2023 7:30:00 AM 3.3 37.94 0.325 7.58 6.37 12.56
1/18/2023 7:45:00 AM 3.29 37.922 0.325 7.57 6.21 12.57
1/18/2023 8:00:00 AM 3.29 37.922 0.325 7.58 6.42 12.58
1/18/2023 8:15:00 AM 3.28 37.904 0.324 7.58 6.71 12.58
1/18/2023 8:30:00 AM 3.28 37.904 0.323 7.58 6.8 12.6
1/18/2023 8:45:00 AM 3.28 37.904 0.321 7.57 7.13 12.62
1/18/2023 9:00:00 AM 3.28 37.904 0.32 7.58 6.33 12.65
1/18/2023 9:15:00 AM 3.29 37.922 0.317 7.58 7.05 12.67
1/18/2023 9:30:00 AM 3.3 37.94 0.316 7.58 6.36 12.7
1/18/2023 9:45:00 AM 3.31 37.958 0.314 7.58 6.26 12.71
1/18/2023 10:00:00 AM 3.31 37.958 0.313 7.59 6.08 12.75
1/18/2023 10:15:00 AM 3.35 38.03 0.311 7.59 6.39 12.78
1/18/2023 10:30:00 AM 3.37 38.066 0.31 7.57 6.09 12.81
1/18/2023 10:45:00 AM 3.45 38.21 0.309 7.58 6.64 12.83
1/18/2023 11:00:00 AM 3.49 38.282 0.309 7.6 6.22 12.87
1/18/2023 11:15:00 AM 3.54 38.372 0.307 7.6 6.41 12.9
1/18/2023 11:30:00 AM 3.59 38.462 0.306 7.6 6.53 12.92
1/18/2023 11:45:00 AM 3.65 38.57 0.306 7.61 5.85 12.96
1/18/2023 12:00:00 PM 3.64 38.552 0.307 7.61 6.35 12.97
1/18/2023 12:15:00 PM 3.66 38.588 0.307 7.62 6.58 13
1/18/2023 12:30:00 PM 3.68 38.624 0.309 7.62 6.3 13.02
1/18/2023 12:45:00 PM 3.72 38.696 0.311 7.61 6.13 13.03
1/18/2023 1:00:00 PM 3.76 38.768 0.312 7.62 6.36 13.05
1/18/2023 1:15:00 PM 3.81 38.858 0.314 7.63 6.03 13.07
1/18/2023 1:30:00 PM 3.84 38.912 0.315 7.63 6.02 13.07
1/18/2023 1:45:00 PM 3.85 38.93 0.316 7.63 6.47 13.07
1/18/2023 2:00:00 PM 3.86 38.948 0.317 7.64 6.23 13.07
1/18/2023 2:15:00 PM 3.87 38.966 0.317 7.63 6.15 13.06
1/18/2023 2:30:00 PM 3.88 38.984 0.318 7.64 6.11 13.06
1/18/2023 2:45:00 PM 3.89 39.002 0.319 7.64 6 13.05
1/18/2023 3:00:00 PM 3.92 39.056 0.318 7.64 6.03 13.06
1/18/2023 3:15:00 PM 3.94 39.092 0.317 7.65 6.04 13.05
1/18/2023 3:30:00 PM 3.95 39.11 0.317 7.64 5.87 13.05
1/18/2023 3:45:00 PM 3.98 39.164 0.317 7.65 5.73 13.05
1/18/2023 4:00:00 PM 3.99 39.182 0.317 7.65 5.91 13.05
1/18/2023 4:15:00 PM 4.01 39.218 0.315 7.66 5.95 13.03
1/18/2023 4:30:00 PM 4.01 39.218 0.315 7.66 6.13 13
1/18/2023 4:45:00 PM 4.01 39.218 0.314 7.65 6.23 12.97
1/18/2023 5:00:00 PM 4.01 39.218 0.314 7.65 6.28 12.93
1/18/2023 5:15:00 PM 4.01 39.218 0.313 7.65 6.19 12.91
1/18/2023 5:30:00 PM 4.01 39.218 0.313 7.64 6.36 12.87
1/18/2023 5:45:00 PM 4 39.2 0.313 7.64 6.27 12.85
1/18/2023 6:00:00 PM 4 39.2 0.313 7.65 6.45 12.82
1/18/2023 6:15:00 PM 4 39.2 0.312 7.64 6.64 12.79
1/18/2023 6:30:00 PM 3.99 39.182 0.312 7.64 6.57 12.77
1/18/2023 6:45:00 PM 3.99 39.182 0.312 7.64 6.48 12.75
1/18/2023 7:00:00 PM 3.99 39.182 0.312 7.63 6.37 12.73
1/18/2023 7:15:00 PM 3.99 39.182 0.311 7.63 6.53 12.71
1/18/2023 7:30:00 PM 4 39.2 0.311 7.63 6.37 12.68
1/18/2023 7:45:00 PM 4 39.2 0.311 7.63 6.2 12.67
1/18/2023 8:00:00 PM 4 39.2 0.311 7.62 6.38 12.65
1/18/2023 8:15:00 PM 4 39.2 0.311 7.62 6.01 12.62
1/18/2023 8:30:00 PM 4 39.2 0.311 7.6 6.32 12.59
1/18/2023 8:45:00 PM 4.01 39.218 0.311 7.62 6.42 12.57
1/18/2023 9:00:00 PM 4.01 39.218 0.311 7.61 6.45 12.55
1/18/2023 9:15:00 PM 4.01 39.218 0.311 7.61 6.51 12.53
1/18/2023 9:30:00 PM 4.01 39.218 0.312 7.61 6.38 12.52
1/18/2023 9:45:00 PM 4.02 39.236 0.312 7.6 6.4 12.51
1/18/2023 10:00:00 PM 4.02 39.236 0.311 7.61 6.54 12.5
1/18/2023 10:15:00 PM 4.02 39.236 0.311 7.6 6.16 12.49
1/18/2023 10:30:00 PM 4.02 39.236 0.312 7.6 6.6 12.48
1/18/2023 10:45:00 PM 4.03 39.254 0.313 7.6 6.68 12.47
1/18/2023 11:00:00 PM 4.03 39.254 0.312 7.6 6.43 12.46
1/18/2023 11:15:00 PM 4.03 39.254 0.312 7.6 6.66 12.45
1/18/2023 11:30:00 PM 4.04 39.272 0.312 7.59 6.36 12.44
1/18/2023 11:45:00 PM 4.04 39.272 0.312 7.59 6.28 12.43
1/19/2023 12:00:00 AM 4.04 39.272 0.313 7.59 6.21 12.43
1/19/2023 12:15:00 AM 4.04 39.272 0.313 7.59 6.58 12.42
1/19/2023 12:30:00 AM 4.04 39.272 0.313 7.58 6.46 12.41
1/19/2023 12:45:00 AM 4.04 39.272 0.314 7.58 5.71 12.41
1/19/2023 1:00:00 AM 4.04 39.272 0.314 7.57 6.28 12.41
1/19/2023 1:15:00 AM 4.04 39.272 0.314 7.57 6.21 12.39
1/19/2023 1:30:00 AM 4.04 39.272 0.314 7.58 6.33 12.4
1/19/2023 1:45:00 AM 4.04 39.272 0.314 7.58 6.53 12.4
1/19/2023 2:00:00 AM 4.04 39.272 0.314 7.58 6.55 12.4
1/19/2023 2:15:00 AM 4.03 39.254 0.313 7.57 6.66 12.4
1/19/2023 2:30:00 AM 4.03 39.254 0.314 7.57 6.59 12.39
1/19/2023 2:45:00 AM 4.03 39.254 0.314 7.58 6.72 12.39
1/19/2023 3:00:00 AM 4.03 39.254 0.314 7.57 6.97 12.39
1/19/2023 3:15:00 AM 4.03 39.254 0.314 7.56 7.29 12.39
1/19/2023 3:30:00 AM 4.03 39.254 0.314 7.57 7.03 12.38
1/19/2023 3:45:00 AM 4.02 39.236 0.315 7.57 6.81 12.39
1/19/2023 4:00:00 AM 4.02 39.236 0.315 7.57 7.1 12.38
1/19/2023 4:15:00 AM 4.01 39.218 0.315 7.57 6.78 12.38
1/19/2023 4:30:00 AM 4 39.2 0.315 7.57 7.39 12.38
1/19/2023 4:45:00 AM 3.99 39.182 0.315 7.56 7.16 12.39
1/19/2023 5:00:00 AM 3.98 39.164 0.315 7.57 7.53 12.39
1/19/2023 5:15:00 AM 3.97 39.146 0.315 7.55 7.39 12.38
1/19/2023 5:30:00 AM 3.96 39.128 0.315 7.56 7.52 12.39
1/19/2023 5:45:00 AM 3.95 39.11 0.315 7.56 7.3 12.4
1/19/2023 6:00:00 AM 3.94 39.092 0.316 7.57 7.21 12.4
1/19/2023 6:15:00 AM 3.93 39.074 0.316 7.56 7.6 12.4
1/19/2023 6:30:00 AM 3.92 39.056 0.317 7.56 6.78 12.4
1/19/2023 6:45:00 AM 3.91 39.038 0.317 7.56 6.81 12.41
1/19/2023 7:00:00 AM 3.89 39.002 0.318 7.56 6.77 12.41
1/19/2023 7:15:00 AM 3.88 38.984 0.318 7.55 7.16 12.41
1/19/2023 7:30:00 AM 3.87 38.966 0.318 7.56 9.03 12.41
1/19/2023 7:45:00 AM 3.86 38.948 0.319 7.56 6.77 12.42
1/19/2023 8:00:00 AM 3.85 38.93 0.319 7.56 6.56 12.42
1/19/2023 8:15:00 AM 3.84 38.912 0.319 7.56 6.66 12.43
1/19/2023 8:30:00 AM 3.83 38.894 0.319 7.57 6.46 12.43
1/19/2023 8:45:00 AM 3.82 38.876 0.319 7.57 6.67 12.45
1/19/2023 9:00:00 AM 3.8 38.84 0.319 7.57 7.34 12.47
1/19/2023 9:15:00 AM 3.79 38.822 0.321 7.57 9.41 12.49
1/19/2023 9:30:00 AM 3.78 38.804 0.322 7.57 9.26 12.5
1/19/2023 9:45:00 AM 3.77 38.786 0.323 7.57 8.54 12.52
1/19/2023 10:00:00 AM 3.77 38.786 0.323 7.58 8.54 12.53
1/19/2023 10:15:00 AM 3.77 38.786 0.322 7.58 9.18 12.55
1/19/2023 10:30:00 AM 3.77 38.786 0.321 7.58 8.37 12.57
1/19/2023 10:45:00 AM 3.76 38.768 0.321 7.58 8.49 12.57
1/19/2023 11:00:00 AM 3.74 38.732 0.321 7.59 9.38 12.59
1/19/2023 11:15:00 AM 3.74 38.732 0.322 7.57 11.43 12.62
1/19/2023 11:30:00 AM 3.74 38.732 0.323 7.59 11.26 12.63
1/19/2023 11:45:00 AM 3.72 38.696 0.322 7.59 13.25 12.64
1/19/2023 12:00:00 PM 3.72 38.696 0.321 7.59 10.33 12.66
1/19/2023 12:15:00 PM 3.71 38.678 0.319 7.59 12.03 12.67
1/19/2023 12:30:00 PM 3.7 38.66 0.318 7.59 12.17 12.67
1/19/2023 12:45:00 PM 3.7 38.66 0.315 7.59 10.55 12.69
1/19/2023 1:00:00 PM 3.7 38.66 0.312 7.59 11.07 12.7
1/19/2023 1:15:00 PM 3.69 38.642 0.31 7.59 13.6 12.71
1/19/2023 1:30:00 PM 3.68 38.624 0.309 7.59 12.94 12.72
1/19/2023 1:45:00 PM 3.68 38.624 0.315 7.59 15 12.73
1/19/2023 2:00:00 PM 3.67 38.606 0.351 7.59 16.68 12.73
1/19/2023 2:15:00 PM 3.66 38.588 0.414 7.58 19.55 12.73
1/19/2023 2:30:00 PM 3.65 38.57 0.474 7.58 21.18 12.72
1/19/2023 2:45:00 PM 3.61 38.498 0.461 7.58 26.54 12.73
1/19/2023 3:00:00 PM 3.53 38.354 0.412 7.57 34.11 12.77
1/19/2023 3:15:00 PM 3.42 38.156 0.385 7.56 45.03 12.83
1/19/2023 3:30:00 PM 3.3 37.94 0.374 7.54 58.46 12.88
1/19/2023 3:45:00 PM 3.19 37.742 0.396 7.53 82.21 12.92
1/19/2023 4:00:00 PM 3.1 37.58 0.444 7.5 120.47 12.95
1/19/2023 4:15:00 PM 3 37.4 0.455 7.47 136.4 13
1/19/2023 4:30:00 PM 2.9 37.22 0.416 7.45 153.29 13.05
1/19/2023 4:45:00 PM 2.83 37.094 0.367 7.42 178.29 13.11
1/19/2023 5:00:00 PM 2.81 37.058 0.33 7.4 181.14 13.13
1/19/2023 5:15:00 PM 2.8 37.04 0.293 7.36 177.81 13.14
1/19/2023 5:30:00 PM 2.76 36.968 0.267 7.32 177.79 13.16
1/19/2023 5:45:00 PM 2.67 36.806 0.259 7.26 175.6 13.19
1/19/2023 6:00:00 PM 2.59 36.662 0.256 7.25 177.1 13.22
1/19/2023 6:15:00 PM 2.56 36.608 0.261 7.26 183.2 13.23
1/19/2023 6:30:00 PM 2.57 36.626 0.262 7.28 166.5 13.21
1/19/2023 6:45:00 PM 2.58 36.644 0.256 7.27 156.99 13.19
1/19/2023 7:00:00 PM 2.58 36.644 0.248 7.26 151.41 13.2
1/19/2023 7:15:00 PM 2.57 36.626 0.242 7.24 137.58 13.21
1/19/2023 7:30:00 PM 2.57 36.626 0.238 7.24 130.89 13.21
1/19/2023 7:45:00 PM 2.58 36.644 0.236 7.24 123.76 13.21
1/19/2023 8:00:00 PM 2.59 36.662 0.234 7.22 112.72 13.19
1/19/2023 8:15:00 PM 2.6 36.68 0.232 7.22 105.11 13.19
1/19/2023 8:30:00 PM 2.62 36.716 0.232 7.22 97.6 13.18
1/19/2023 8:45:00 PM 2.64 36.752 0.231 7.23 93.45 13.16
1/19/2023 9:00:00 PM 2.66 36.788 0.232 7.23 79.73 13.15
1/19/2023 9:15:00 PM 2.67 36.806 0.232 7.23 79.95 13.14
1/19/2023 9:30:00 PM 2.69 36.842 0.232 7.21 74.09 13.13
1/19/2023 9:45:00 PM 2.71 36.878 0.232 7.22 70.02 13.11
1/19/2023 10:00:00 PM 2.72 36.896 0.232 7.22 67.3 13.1
1/19/2023 10:15:00 PM 2.74 36.932 0.232 7.21 62.61 13.08
1/19/2023 10:30:00 PM 2.75 36.95 0.232 7.21 59.1 13.07
1/19/2023 10:45:00 PM 2.77 36.986 0.232 7.21 57.7 13.06
1/19/2023 11:00:00 PM 2.78 37.004 0.232 7.22 53.36 13.05
1/19/2023 11:15:00 PM 2.8 37.04 0.232 7.22 52.2 13.04
1/19/2023 11:30:00 PM 2.82 37.076 0.232 7.22 49.16 13.03
1/19/2023 11:45:00 PM 2.83 37.094 0.232 7.22 48.8 13.01
1/20/2023 12:00:00 AM 2.85 37.13 0.232 7.22 37.83 13
1/20/2023 12:15:00 AM 2.86 37.148 0.232 7.23 44.97 12.99
1/20/2023 12:30:00 AM 2.88 37.184 0.232 7.23 42.8 12.98
1/20/2023 12:45:00 AM 2.89 37.202 0.233 7.24 43.02 12.96
1/20/2023 1:00:00 AM 2.91 37.238 0.233 7.23 40.47 12.95
1/20/2023 1:15:00 AM 2.92 37.256 0.233 7.24 38.28 12.95
1/20/2023 1:30:00 AM 2.93 37.274 0.234 7.25 39.17 12.93
1/20/2023 1:45:00 AM 2.94 37.292 0.234 7.25 35.82 12.92
1/20/2023 2:00:00 AM 2.95 37.31 0.234 7.25 35.29 12.91
1/20/2023 2:15:00 AM 2.96 37.328 0.234 7.25 33.84 12.9
1/20/2023 2:30:00 AM 2.96 37.328 0.235 7.26 33.51 12.89
1/20/2023 2:45:00 AM 2.97 37.346 0.235 7.26 31.92 12.88
1/20/2023 3:00:00 AM 2.98 37.364 0.235 7.26 31.7 12.88
1/20/2023 3:15:00 AM 2.99 37.382 0.236 7.26 31.65 12.87
1/20/2023 3:30:00 AM 3 37.4 0.236 7.27 28.8 12.86
1/20/2023 3:45:00 AM 3.01 37.418 0.237 7.27 28.68 12.85
1/20/2023 4:00:00 AM 3.02 37.436 0.238 7.27 29.53 12.84
1/20/2023 4:15:00 AM 3.03 37.454 0.238 7.27 28.82 12.84
1/20/2023 4:30:00 AM 3.04 37.472 0.239 7.28 27.86 12.83
1/20/2023 4:45:00 AM 3.05 37.49 0.239 7.28 26.4 12.82
1/20/2023 5:00:00 AM 3.06 37.508 0.24 7.29 26.41 12.81
1/20/2023 5:15:00 AM 3.06 37.508 0.241 7.29 25.58 12.81
1/20/2023 5:30:00 AM 3.07 37.526 0.241 7.27 31.86 12.8
1/20/2023 5:45:00 AM 3.08 37.544 0.242 7.3 24.55 12.8
1/20/2023 6:00:00 AM 3.08 37.544 0.242 7.3 24.08 12.78
1/20/2023 6:15:00 AM 3.09 37.562 0.242 7.3 24.15 12.78
1/20/2023 6:30:00 AM 3.09 37.562 0.243 7.29 22.45 12.78
1/20/2023 6:45:00 AM 3.09 37.562 0.244 7.31 22.25 12.77
1/20/2023 7:00:00 AM 3.1 37.58 0.244 7.31 21.55 12.77
1/20/2023 7:15:00 AM 3.11 37.598 0.245 7.29 22.06 12.76
1/20/2023 7:30:00 AM 3.11 37.598 0.245 7.31 21.12 12.76
1/20/2023 7:45:00 AM 3.12 37.616 0.246 7.3 20.77 12.75
1/20/2023 8:00:00 AM 3.12 37.616 0.246 7.32 19.39 12.75
1/20/2023 8:15:00 AM 3.13 37.634 0.247 7.32 20.21 12.75
1/20/2023 8:30:00 AM 3.13 37.634 0.247 7.33 19.22 12.75
1/20/2023 8:45:00 AM 3.14 37.652 0.248 7.33 18.92 12.75
1/20/2023 9:00:00 AM 3.15 37.67 0.249 7.33 19.09 12.75
1/20/2023 9:15:00 AM 3.18 37.724 0.249 7.34 18.87 12.75
1/20/2023 9:30:00 AM 3.2 37.76 0.25 7.34 17.88 12.76
1/20/2023 9:45:00 AM 3.22 37.796 0.25 7.34 16.06 12.76
1/20/2023 10:00:00 AM 3.24 37.832 0.25 7.35 16.75 12.76
1/20/2023 10:15:00 AM 3.27 37.886 0.251 7.35 15.99 12.78
1/20/2023 10:30:00 AM 3.3 37.94 0.251 7.36 16.12 12.79
1/20/2023 10:45:00 AM 3.33 37.994 0.251 7.36 14.5 12.8
1/20/2023 11:00:00 AM 3.37 38.066 0.252 7.35 15.14 12.82
1/20/2023 11:15:00 AM 3.4 38.12 0.252 7.36 15.29 12.83
1/20/2023 11:30:00 AM 3.45 38.21 0.253 7.38 15.28 12.85
1/20/2023 11:45:00 AM 3.48 38.264 0.253 7.39 14.18 12.87
1/20/2023 12:00:00 PM 3.53 38.354 0.254 7.39 15.23 12.88
1/20/2023 12:15:00 PM 3.55 38.39 0.255 7.4 13.74 12.89
1/20/2023 12:30:00 PM 3.58 38.444 0.255 7.4 13.9 12.9
1/20/2023 12:45:00 PM 3.61 38.498 0.255 7.41 14.02 12.9
1/20/2023 1:00:00 PM 3.63 38.534 0.255 7.41 14.04 12.91
1/20/2023 1:15:00 PM 3.66 38.588 0.255 7.42 13.71 12.92
1/20/2023 1:30:00 PM 3.67 38.606 0.254 7.42 14.41 12.92
1/20/2023 1:45:00 PM 3.69 38.642 0.254 7.41 14.69 12.92
1/20/2023 2:00:00 PM 3.7 38.66 0.254 7.43 12.33 12.92
1/20/2023 2:15:00 PM 3.72 38.696 0.255 7.43 12.35 12.91
1/20/2023 2:30:00 PM 3.73 38.714 0.255 7.43 12.67 12.91
1/20/2023 2:45:00 PM 3.74 38.732 0.256 7.44 12.62 12.9
1/20/2023 3:00:00 PM 3.76 38.768 0.258 7.44 13.13 12.9
1/20/2023 3:15:00 PM 3.78 38.804 0.259 7.45 12.69 12.89
1/20/2023 3:30:00 PM 3.8 38.84 0.26 7.45 15.29 12.87
1/20/2023 3:45:00 PM 3.81 38.858 0.261 7.45 14.33 12.86
1/20/2023 4:00:00 PM 3.82 38.876 0.261 7.45 15.2 12.85
1/20/2023 4:15:00 PM 3.83 38.894 0.261 7.43 14.51 12.84
1/20/2023 4:30:00 PM 3.83 38.894 0.26 7.45 13.06 12.82
1/20/2023 4:45:00 PM 3.83 38.894 0.259 7.44 18.27 12.81
1/20/2023 5:00:00 PM 3.83 38.894 0.258 7.45 12.94 12.8
1/20/2023 5:15:00 PM 3.83 38.894 0.258 7.45 17.04 12.78
1/20/2023 5:30:00 PM 3.83 38.894 0.257 7.44 15.3 12.77
1/20/2023 5:45:00 PM 3.83 38.894 0.257 7.44 13.46 12.76
1/20/2023 6:00:00 PM 3.82 38.876 0.256 7.44 15.45 12.75
1/20/2023 6:15:00 PM 3.82 38.876 0.256 7.43 15.54 12.74
1/20/2023 6:30:00 PM 3.81 38.858 0.256 7.44 14.07 12.72
1/20/2023 6:45:00 PM 3.81 38.858 0.256 7.44 16.13 12.7
1/20/2023 7:00:00 PM 3.81 38.858 0.256 7.43 15.39 12.69
1/20/2023 7:15:00 PM 3.8 38.84 0.256 7.43 12.65 12.68
1/20/2023 7:30:00 PM 3.8 38.84 0.256 7.43 12.31 12.66
1/20/2023 7:45:00 PM 3.79 38.822 0.256 7.43 13.23 12.66
1/20/2023 8:00:00 PM 3.79 38.822 0.256 7.43 12.92 12.64
1/20/2023 8:15:00 PM 3.78 38.804 0.256 7.43 15.86 12.64
1/20/2023 8:30:00 PM 3.78 38.804 0.256 7.43 14.99 12.62
1/20/2023 8:45:00 PM 3.76 38.768 0.257 7.43 15.01 12.62
1/20/2023 9:00:00 PM 3.75 38.75 0.257 7.43 15.7 12.62
1/20/2023 9:15:00 PM 3.74 38.732 0.257 7.43 15.56 12.61
1/20/2023 9:30:00 PM 3.73 38.714 0.257 7.43 15.57 12.61
1/20/2023 9:45:00 PM 3.72 38.696 0.257 7.43 14.75 12.61
1/20/2023 10:00:00 PM 3.71 38.678 0.258 7.43 14 12.61
1/20/2023 10:15:00 PM 3.69 38.642 0.258 7.42 13.03 12.61
1/20/2023 10:30:00 PM 3.67 38.606 0.258 7.42 12.99 12.61
1/20/2023 10:45:00 PM 3.65 38.57 0.259 7.43 13.06 12.62
1/20/2023 11:00:00 PM 3.62 38.516 0.259 7.42 12.7 12.62
1/20/2023 11:15:00 PM 3.58 38.444 0.259 7.41 12.56 12.62
1/20/2023 11:30:00 PM 3.55 38.39 0.259 7.42 12.94 12.63
1/20/2023 11:45:00 PM 3.53 38.354 0.26 7.42 12.03 12.64
1/21/2023 12:00:00 AM 3.51 38.318 0.26 7.42 13.23 12.64
1/21/2023 12:15:00 AM 3.48 38.264 0.26 7.42 12.32 12.66
1/21/2023 12:30:00 AM 3.46 38.228 0.261 7.42 13.02 12.67
1/21/2023 12:45:00 AM 3.43 38.174 0.261 7.4 12.64 12.67
1/21/2023 1:00:00 AM 3.4 38.12 0.261 7.42 12.14 12.68
1/21/2023 1:15:00 AM 3.38 38.084 0.262 7.42 12.46 12.69
1/21/2023 1:30:00 AM 3.35 38.03 0.262 7.42 12.15 12.71
1/21/2023 1:45:00 AM 3.33 37.994 0.262 7.41 12.04 12.72
1/21/2023 2:00:00 AM 3.3 37.94 0.262 7.41 11.69 12.73
1/21/2023 2:15:00 AM 3.27 37.886 0.263 7.42 11.75 12.74
1/21/2023 2:30:00 AM 3.24 37.832 0.263 7.41 11.66 12.75
1/21/2023 2:45:00 AM 3.21 37.778 0.263 7.42 11.15 12.76
1/21/2023 3:00:00 AM 3.19 37.742 0.264 7.42 11.1 12.77
1/21/2023 3:15:00 AM 3.17 37.706 0.264 7.42 10.7 12.78
1/21/2023 3:30:00 AM 3.15 37.67 0.264 7.42 11.12 12.79
1/21/2023 3:45:00 AM 3.13 37.634 0.265 7.42 10.69 12.8
1/21/2023 4:00:00 AM 3.11 37.598 0.265 7.41 10.91 12.81
1/21/2023 4:15:00 AM 3.1 37.58 0.266 7.42 10.18 12.82
1/21/2023 4:30:00 AM 3.08 37.544 0.266 7.42 10.51 12.83
1/21/2023 4:45:00 AM 3.07 37.526 0.266 7.42 10.69 12.84
1/21/2023 5:00:00 AM 3.05 37.49 0.266 7.42 11.24 12.85
1/21/2023 5:15:00 AM 3.03 37.454 0.267 7.42 10.36 12.86
1/21/2023 5:30:00 AM 3.01 37.418 0.267 7.42 11 12.87
1/21/2023 5:45:00 AM 3 37.4 0.267 7.42 10.65 12.88
1/21/2023 6:00:00 AM 2.98 37.364 0.267 7.4 10.42 12.89
1/21/2023 6:15:00 AM 2.96 37.328 0.267 7.41 10.91 12.89
1/21/2023 6:30:00 AM 2.94 37.292 0.267 7.42 10.88 12.91
1/21/2023 6:45:00 AM 2.93 37.274 0.267 7.42 10.18 12.91
1/21/2023 7:00:00 AM 2.91 37.238 0.268 7.42 10.57 12.92
1/21/2023 7:15:00 AM 2.89 37.202 0.268 7.42 10.61 12.93
1/21/2023 7:30:00 AM 2.88 37.184 0.269 7.42 11.03 12.93
1/21/2023 7:45:00 AM 2.87 37.166 0.269 7.42 10.6 12.94
1/21/2023 8:00:00 AM 2.85 37.13 0.27 7.43 10.27 12.95
1/21/2023 8:15:00 AM 2.85 37.13 0.27 7.43 10.39 12.96
1/21/2023 8:30:00 AM 2.84 37.112 0.271 7.43 10.31 12.97
1/21/2023 8:45:00 AM 2.83 37.094 0.271 7.43 10.49 12.98
1/21/2023 9:00:00 AM 2.82 37.076 0.272 7.43 10.14 12.99
1/21/2023 9:15:00 AM 2.82 37.076 0.272 7.43 9.65 13.01
1/21/2023 9:30:00 AM 2.82 37.076 0.272 7.44 9.75 13.02
1/21/2023 9:45:00 AM 2.82 37.076 0.272 7.43 9.87 13.04
1/21/2023 10:00:00 AM 2.83 37.094 0.273 7.44 9.21 13.06
1/21/2023 10:15:00 AM 2.83 37.094 0.273 7.44 9.53 13.08
1/21/2023 10:30:00 AM 2.84 37.112 0.273 7.43 9.16 13.1
1/21/2023 10:45:00 AM 2.84 37.112 0.273 7.45 8.81 13.11
1/21/2023 11:00:00 AM 2.85 37.13 0.273 7.45 9.16 13.13
1/21/2023 11:15:00 AM 2.87 37.166 0.274 7.45 11.14 13.15
1/21/2023 11:30:00 AM 2.87 37.166 0.274 7.45 8.84 13.17
1/21/2023 11:45:00 AM 2.88 37.184 0.274 7.46 8.39 13.19
1/21/2023 12:00:00 PM 2.9 37.22 0.274 7.46 8.62 13.21
1/21/2023 12:15:00 PM 2.92 37.256 0.274 7.47 8.3 13.22
1/21/2023 12:30:00 PM 2.94 37.292 0.274 7.48 8.44 13.24
1/21/2023 12:45:00 PM 2.95 37.31 0.275 7.48 8.14 13.25
1/21/2023 1:00:00 PM 2.96 37.328 0.275 7.49 8.19 13.26
1/21/2023 1:15:00 PM 2.97 37.346 0.275 7.49 8.08 13.27
1/21/2023 1:30:00 PM 2.98 37.364 0.275 7.49 8.28 13.29
1/21/2023 1:45:00 PM 3 37.4 0.275 7.49 7.76 13.29
1/21/2023 2:00:00 PM 3.01 37.418 0.276 7.5 7.82 13.29
1/21/2023 2:15:00 PM 3.02 37.436 0.276 7.5 7.85 13.3
1/21/2023 2:30:00 PM 3.03 37.454 0.276 7.51 7.86 13.29
1/21/2023 2:45:00 PM 3.04 37.472 0.277 7.51 7.65 13.3
1/21/2023 3:00:00 PM 3.05 37.49 0.277 7.51 7.79 13.29
1/21/2023 3:15:00 PM 3.06 37.508 0.278 7.5 7.67 13.3
1/21/2023 3:30:00 PM 3.06 37.508 0.278 7.51 7.7 13.29
1/21/2023 3:45:00 PM 3.07 37.526 0.278 7.51 7.72 13.29
1/21/2023 4:00:00 PM 3.07 37.526 0.279 7.52 7.54 13.28
1/21/2023 4:15:00 PM 3.07 37.526 0.281 7.52 7.59 13.26
1/21/2023 4:30:00 PM 3.07 37.526 0.282 7.52 7.7 13.25
1/21/2023 4:45:00 PM 3.07 37.526 0.282 7.52 7.83 13.23
1/21/2023 5:00:00 PM 3.07 37.526 0.282 7.52 7.93 13.21
1/21/2023 5:15:00 PM 3.07 37.526 0.282 7.52 7.74 13.2
1/21/2023 5:30:00 PM 3.06 37.508 0.282 7.52 7.68 13.18
1/21/2023 5:45:00 PM 3.06 37.508 0.282 7.52 7.57 13.16
1/21/2023 6:00:00 PM 3.06 37.508 0.281 7.52 7.74 13.15
1/21/2023 6:15:00 PM 3.06 37.508 0.282 7.52 7.5 13.13
1/21/2023 6:30:00 PM 3.06 37.508 0.282 7.51 7.58 13.11
1/21/2023 6:45:00 PM 3.06 37.508 0.282 7.51 7.81 13.09
1/21/2023 7:00:00 PM 3.06 37.508 0.282 7.49 7.74 13.08
1/21/2023 7:15:00 PM 3.06 37.508 0.282 7.51 7.87 13.06
1/21/2023 7:30:00 PM 3.06 37.508 0.282 7.51 8.01 13.05
1/21/2023 7:45:00 PM 3.06 37.508 0.282 7.5 8.22 13.03
1/21/2023 8:00:00 PM 3.05 37.49 0.283 7.5 7.61 13.02
1/21/2023 8:15:00 PM 3.05 37.49 0.283 7.5 8.06 13
1/21/2023 8:30:00 PM 3.05 37.49 0.283 7.5 8.13 12.99
1/21/2023 8:45:00 PM 3.04 37.472 0.284 7.5 8.01 12.98
1/21/2023 9:00:00 PM 3.04 37.472 0.284 7.49 8.06 12.97
1/21/2023 9:15:00 PM 3.04 37.472 0.284 7.49 8.49 12.96
1/21/2023 9:30:00 PM 3.03 37.454 0.284 7.49 8.48 12.95
1/21/2023 9:45:00 PM 3.03 37.454 0.285 7.5 8.39 12.95
1/21/2023 10:00:00 PM 3.03 37.454 0.285 7.49 7.61 12.94
1/21/2023 10:15:00 PM 3.03 37.454 0.286 7.49 8.04 12.93
1/21/2023 10:30:00 PM 3.02 37.436 0.286 7.49 7.7 12.92
1/21/2023 10:45:00 PM 3.02 37.436 0.287 7.49 7.88 12.92
1/21/2023 11:00:00 PM 3.01 37.418 0.287 7.49 7.96 12.92
1/21/2023 11:15:00 PM 3.01 37.418 0.287 7.49 8.06 12.91
1/21/2023 11:30:00 PM 3 37.4 0.288 7.49 7.86 12.92
1/21/2023 11:45:00 PM 2.99 37.382 0.288 7.49 7.79 12.91
1/22/2023 12:00:00 AM 2.98 37.364 0.288 7.47 7.79 12.92
1/22/2023 12:15:00 AM 2.97 37.346 0.288 7.49 7.74 12.91
1/22/2023 12:30:00 AM 2.96 37.328 0.289 7.49 7.63 12.91
1/22/2023 12:45:00 AM 2.95 37.31 0.289 7.49 7.47 12.91
1/22/2023 1:00:00 AM 2.94 37.292 0.289 7.47 7.87 12.92
1/22/2023 1:15:00 AM 2.93 37.274 0.289 7.48 7.63 12.91
1/22/2023 1:30:00 AM 2.92 37.256 0.29 7.48 7.63 12.91
1/22/2023 1:45:00 AM 2.91 37.238 0.29 7.48 7.77 12.92
1/22/2023 2:00:00 AM 2.89 37.202 0.29 7.48 7.61 12.92
1/22/2023 2:15:00 AM 2.88 37.184 0.29 7.49 7.76 12.92
1/22/2023 2:30:00 AM 2.87 37.166 0.29 7.48 7.93 12.92
1/22/2023 2:45:00 AM 2.86 37.148 0.29 7.47 7.88 12.92
1/22/2023 3:00:00 AM 2.85 37.13 0.29 7.48 7.92 12.93
1/22/2023 3:15:00 AM 2.84 37.112 0.29 7.48 7.77 12.93
1/22/2023 3:30:00 AM 2.83 37.094 0.29 7.48 8.03 12.93
1/22/2023 3:45:00 AM 2.83 37.094 0.29 7.48 8.13 12.93
1/22/2023 4:00:00 AM 2.82 37.076 0.291 7.48 7.9 12.94
1/22/2023 4:15:00 AM 2.82 37.076 0.291 7.48 8.05 12.93
1/22/2023 4:30:00 AM 2.81 37.058 0.291 7.48 7.89 12.94
1/22/2023 4:45:00 AM 2.81 37.058 0.291 7.48 7.78 12.93
1/22/2023 5:00:00 AM 2.8 37.04 0.292 7.48 7.81 12.93
1/22/2023 5:15:00 AM 2.8 37.04 0.292 7.47 7.56 12.93
1/22/2023 5:30:00 AM 2.79 37.022 0.292 7.47 8.06 12.94
1/22/2023 5:45:00 AM 2.78 37.004 0.292 7.48 7.97 12.94
1/22/2023 6:00:00 AM 2.78 37.004 0.293 7.48 7.76 12.93
1/22/2023 6:15:00 AM 2.77 36.986 0.293 7.48 7.83 12.94
1/22/2023 6:30:00 AM 2.77 36.986 0.293 7.47 7.32 12.94
1/22/2023 6:45:00 AM 2.76 36.968 0.293 7.49 7.49 12.94
1/22/2023 7:00:00 AM 2.76 36.968 0.293 7.48 7.46 12.93
1/22/2023 7:15:00 AM 2.75 36.95 0.293 7.48 7.65 12.93
1/22/2023 7:30:00 AM 2.75 36.95 0.294 7.48 7.79 12.93
1/22/2023 7:45:00 AM 2.73 36.914 0.294 7.48 7.6 12.94
1/22/2023 8:00:00 AM 2.71 36.878 0.294 7.49 7.36 12.94
1/22/2023 8:15:00 AM 2.71 36.878 0.294 7.49 7.14 12.96
1/22/2023 8:30:00 AM 2.71 36.878 0.294 7.49 7.32 12.97
1/22/2023 8:45:00 AM 2.71 36.878 0.294 7.49 7.14 12.98
1/22/2023 9:00:00 AM 2.72 36.896 0.295 7.49 7.8 13
1/22/2023 9:15:00 AM 2.74 36.932 0.295 7.5 7.25 13.02
1/22/2023 9:30:00 AM 2.75 36.95 0.295 7.5 7.82 13.04
1/22/2023 9:45:00 AM 2.77 36.986 0.296 7.5 7.37 13.07
1/22/2023 10:00:00 AM 2.8 37.04 0.296 7.51 6.95 13.09
1/22/2023 10:15:00 AM 2.83 37.094 0.296 7.5 7.8 13.11
1/22/2023 10:30:00 AM 2.88 37.184 0.296 7.52 6.83 13.13
1/22/2023 10:45:00 AM 2.92 37.256 0.296 7.52 7.57 13.15
1/22/2023 11:00:00 AM 2.96 37.328 0.296 7.5 7.16 13.17
1/22/2023 11:15:00 AM 2.98 37.364 0.296 7.52 7.29 13.19
1/22/2023 11:30:00 AM 3.01 37.418 0.297 7.53 7.02 13.21
1/22/2023 11:45:00 AM 3.05 37.49 0.297 7.54 7.15 13.23
1/22/2023 12:00:00 PM 3.09 37.562 0.297 7.54 6.99 13.24
1/22/2023 12:15:00 PM 3.13 37.634 0.297 7.55 6.66 13.25
1/22/2023 12:30:00 PM 3.17 37.706 0.297 7.55 6.62 13.26
1/22/2023 12:45:00 PM 3.2 37.76 0.297 7.56 6.74 13.26
1/22/2023 1:00:00 PM 3.23 37.814 0.297 7.56 6.55 13.26
1/22/2023 1:15:00 PM 3.27 37.886 0.297 7.55 6.63 13.26
1/22/2023 1:30:00 PM 3.3 37.94 0.297 7.57 7.16 13.26
1/22/2023 1:45:00 PM 3.32 37.976 0.298 7.57 6.76 13.26
1/22/2023 2:00:00 PM 3.35 38.03 0.298 7.58 6.62 13.25
1/22/2023 2:15:00 PM 3.37 38.066 0.298 7.57 6.76 13.25
1/22/2023 2:30:00 PM 3.38 38.084 0.299 7.58 7.12 13.23
1/22/2023 2:45:00 PM 3.39 38.102 0.299 7.59 6.6 13.22
1/22/2023 3:00:00 PM 3.4 38.12 0.299 7.59 6.56 13.2
1/22/2023 3:15:00 PM 3.41 38.138 0.299 7.59 6.61 13.19
1/22/2023 3:30:00 PM 3.42 38.156 0.299 7.59 6.48 13.17
1/22/2023 3:45:00 PM 3.42 38.156 0.299 7.58 6.64 13.15
1/22/2023 4:00:00 PM 3.42 38.156 0.299 7.59 6.45 13.13
1/22/2023 4:15:00 PM 3.41 38.138 0.3 7.59 6.8 13.09
1/22/2023 4:30:00 PM 3.37 38.066 0.3 7.58 6.9 13.06
1/22/2023 4:45:00 PM 3.32 37.976 0.3 7.58 7 13.04
1/22/2023 5:00:00 PM 3.31 37.958 0.3 7.59 6.72 13.01
1/22/2023 5:15:00 PM 3.28 37.904 0.3 7.58 9.12 12.98
1/22/2023 5:30:00 PM 3.25 37.85 0.301 7.58 7.1 12.96
1/22/2023 5:45:00 PM 3.22 37.796 0.301 7.58 6.79 12.94
1/22/2023 6:00:00 PM 3.21 37.778 0.301 7.57 6.71 12.91
1/22/2023 6:15:00 PM 3.2 37.76 0.301 7.57 6.48 12.89
1/22/2023 6:30:00 PM 3.19 37.742 0.3 7.57 6.49 12.87
1/22/2023 6:45:00 PM 3.18 37.724 0.3 7.57 7.02 12.85
1/22/2023 7:00:00 PM 3.18 37.724 0.3 7.57 6.83 12.82
1/22/2023 7:15:00 PM 3.19 37.742 0.3 7.56 6.53 12.79
1/22/2023 7:30:00 PM 3.2 37.76 0.3 7.56 6.73 12.77
1/22/2023 7:45:00 PM 3.21 37.778 0.3 7.56 6.73 12.76
1/22/2023 8:00:00 PM 3.21 37.778 0.3 7.55 6.68 12.74
1/22/2023 8:15:00 PM 3.21 37.778 0.301 7.55 6.73 12.73
1/22/2023 8:30:00 PM 3.22 37.796 0.301 7.55 6.67 12.72
1/22/2023 8:45:00 PM 3.21 37.778 0.301 7.55 6.9 12.71
1/22/2023 9:00:00 PM 3.21 37.778 0.301 7.55 6.63 12.7
1/22/2023 9:15:00 PM 3.21 37.778 0.301 7.53 6.73 12.69
1/22/2023 9:30:00 PM 3.21 37.778 0.301 7.54 6.3 12.69
1/22/2023 9:45:00 PM 3.2 37.76 0.301 7.54 6.84 12.69
1/22/2023 10:00:00 PM 3.19 37.742 0.301 7.54 6.74 12.67
1/22/2023 10:15:00 PM 3.18 37.724 0.302 7.51 6.73 12.68
1/22/2023 10:30:00 PM 3.16 37.688 0.303 7.53 6.28 12.68
1/22/2023 10:45:00 PM 3.12 37.616 0.305 7.53 6.68 12.68
1/22/2023 11:00:00 PM 3.1 37.58 0.307 7.52 6.85 12.68
1/22/2023 11:15:00 PM 3.09 37.562 0.31 7.53 6.54 12.68
1/22/2023 11:30:00 PM 3.07 37.526 0.31 7.53 6.47 12.68
1/22/2023 11:45:00 PM 3.06 37.508 0.31 7.52 6.99 12.68
1/23/2023 12:00:00 AM 3.05 37.49 0.31 7.52 6.82 12.68
1/23/2023 12:15:00 AM 3.05 37.49 0.311 7.51 6.84 12.68
1/23/2023 12:30:00 AM 3.05 37.49 0.316 7.52 7.22 12.68
1/23/2023 12:45:00 AM 3.04 37.472 0.324 7.5 7.74 12.68
1/23/2023 1:00:00 AM 3.03 37.454 0.331 7.51 7.97 12.69
1/23/2023 1:15:00 AM 3.01 37.418 0.334 7.51 7.86 12.68
1/23/2023 1:30:00 AM 2.99 37.382 0.334 7.5 7.91 12.69
1/23/2023 1:45:00 AM 2.96 37.328 0.331 7.51 7.54 12.7
1/23/2023 2:00:00 AM 2.93 37.274 0.328 7.51 8.51 12.7
1/23/2023 2:15:00 AM 2.91 37.238 0.325 7.5 7.73 12.71
1/23/2023 2:30:00 AM 2.9 37.22 0.323 7.51 7.4 12.71
1/23/2023 2:45:00 AM 2.87 37.166 0.321 7.5 7.32 12.72
1/23/2023 3:00:00 AM 2.84 37.112 0.319 7.5 7.18 12.72
1/23/2023 3:15:00 AM 2.8 37.04 0.317 7.5 7.03 12.73
1/23/2023 3:30:00 AM 2.75 36.95 0.315 7.5 7.58 12.73
1/23/2023 3:45:00 AM 2.71 36.878 0.313 7.5 7.45 12.73
1/23/2023 4:00:00 AM 2.65 36.77 0.312 7.5 7.1 12.74
1/23/2023 4:15:00 AM 2.61 36.698 0.313 7.5 7.2 12.75
1/23/2023 4:30:00 AM 2.56 36.608 0.316 7.5 7.32 12.75
1/23/2023 4:45:00 AM 2.52 36.536 0.323 7.49 7.37 12.76
1/23/2023 5:00:00 AM 2.49 36.482 0.333 7.49 7.33 12.76
1/23/2023 5:15:00 AM 2.45 36.41 0.344 7.49 7.1 12.77
1/23/2023 5:30:00 AM 2.42 36.356 0.354 7.49 7.14 12.77
1/23/2023 5:45:00 AM 2.4 36.32 0.361 7.49 7.34 12.78
1/23/2023 6:00:00 AM 2.38 36.284 0.363 7.49 7.35 12.79
1/23/2023 6:15:00 AM 2.37 36.266 0.362 7.48 7.52 12.79
1/23/2023 6:30:00 AM 2.36 36.248 0.358 7.49 7.51 12.8
1/23/2023 6:45:00 AM 2.35 36.23 0.351 7.5 8.18 12.81
1/23/2023 7:00:00 AM 2.35 36.23 0.345 7.5 7.81 12.82
1/23/2023 7:15:00 AM 2.35 36.23 0.339 7.49 7.23 12.82
1/23/2023 7:30:00 AM 2.35 36.23 0.334 7.5 7.04 12.83
1/23/2023 7:45:00 AM 2.36 36.248 0.33 7.5 7.33 12.84
1/23/2023 8:00:00 AM 2.36 36.248 0.326 7.5 7.15 12.85
1/23/2023 8:15:00 AM 2.36 36.248 0.323 7.5 7.06 12.86
1/23/2023 8:30:00 AM 2.38 36.284 0.321 7.5 7.28 12.87
1/23/2023 8:45:00 AM 2.39 36.302 0.318 7.5 6.85 12.88
1/23/2023 9:00:00 AM 2.4 36.32 0.317 7.49 6.83 12.89
1/23/2023 9:15:00 AM 2.4 36.32 0.315 7.5 6.6 12.9
1/23/2023 9:30:00 AM 2.41 36.338 0.314 7.49 6.41 12.92
1/23/2023 9:45:00 AM 2.42 36.356 0.314 7.51 6.74 12.94
1/23/2023 10:00:00 AM 2.45 36.41 0.314 7.51 7.13 12.95
1/23/2023 10:15:00 AM 2.47 36.446 0.315 7.51 7.14 12.98
1/23/2023 10:30:00 AM 2.49 36.482 0.316 7.51 6.55 13
1/23/2023 10:45:00 AM 2.51 36.518 0.317 7.5 6.67 13.01
1/23/2023 11:00:00 AM 2.53 36.554 0.318 7.52 7.16 13.04
1/23/2023 11:15:00 AM 2.55 36.59 0.318 7.52 6.64 13.07
1/23/2023 11:30:00 AM 2.58 36.644 0.319 7.53 6.84 13.1
1/23/2023 11:45:00 AM 2.63 36.734 0.319 7.53 6.96 13.12
1/23/2023 12:00:00 PM 2.69 36.842 0.319 7.54 7.43 13.14
1/23/2023 12:15:00 PM 2.74 36.932 0.319 7.54 7.65 13.17
1/23/2023 12:30:00 PM 2.77 36.986 0.32 7.54 7.02 13.19
1/23/2023 12:45:00 PM 2.8 37.04 0.322 7.55 6.84 13.21
1/23/2023 1:00:00 PM 2.84 37.112 0.324 7.55 6.63 13.23
1/23/2023 1:15:00 PM 2.86 37.148 0.325 7.56 6.78 13.24
1/23/2023 1:30:00 PM 2.88 37.184 0.327 7.56 6.63 13.25
1/23/2023 1:45:00 PM 2.9 37.22 0.327 7.57 6.41 13.26
1/23/2023 2:00:00 PM 2.92 37.256 0.328 7.57 6.66 13.27
1/23/2023 2:15:00 PM 2.93 37.274 0.328 7.57 6.56 13.27
1/23/2023 2:30:00 PM 2.96 37.328 0.328 7.58 6.66 13.26
1/23/2023 2:45:00 PM 2.98 37.364 0.331 7.58 6.57 13.27
1/23/2023 3:00:00 PM 3 37.4 0.338 7.58 6.37 13.27
1/23/2023 3:15:00 PM 3.01 37.418 0.349 7.58 6.71 13.26
1/23/2023 3:30:00 PM 3.03 37.454 0.358 7.58 6.63 13.25
1/23/2023 3:45:00 PM 3.03 37.454 0.365 7.59 6.61 13.23
1/23/2023 4:00:00 PM 3.03 37.454 0.367 7.58 6.33 13.22
1/23/2023 4:15:00 PM 3.03 37.454 0.368 7.58 6.73 13.2
1/23/2023 4:30:00 PM 3.02 37.436 0.367 7.59 6.5 13.18
1/23/2023 4:45:00 PM 3.02 37.436 0.366 7.59 6.49 13.16
1/23/2023 5:00:00 PM 3.01 37.418 0.366 7.58 6.39 13.14
1/23/2023 5:15:00 PM 3 37.4 0.365 7.59 5.94 13.12
1/23/2023 5:30:00 PM 2.99 37.382 0.365 7.58 5.77 13.1
1/23/2023 5:45:00 PM 2.98 37.364 0.368 7.58 5.97 13.07
1/23/2023 6:00:00 PM 2.97 37.346 0.374 7.58 5.96 13.06
1/23/2023 6:15:00 PM 2.96 37.328 0.386 7.58 5.97 13.04
1/23/2023 6:30:00 PM 2.95 37.31 0.403 7.57 6.24 13.02
1/23/2023 6:45:00 PM 2.95 37.31 0.424 7.57 6.19 12.99
1/23/2023 7:00:00 PM 2.94 37.292 0.448 7.56 6.28 12.97
1/23/2023 7:15:00 PM 2.93 37.274 0.476 7.56 6.35 12.95
1/23/2023 7:30:00 PM 2.93 37.274 0.505 7.56 6.23 12.93
1/23/2023 7:45:00 PM 2.93 37.274 0.528 7.56 6.73 12.91
1/23/2023 8:00:00 PM 2.93 37.274 0.545 7.56 6.67 12.89
1/23/2023 8:15:00 PM 2.93 37.274 0.552 7.55 6.42 12.88
1/23/2023 8:30:00 PM 2.92 37.256 0.551 7.55 6.73 12.86
1/23/2023 8:45:00 PM 2.92 37.256 0.546 7.55 6.91 12.85
1/23/2023 9:00:00 PM 2.92 37.256 0.539 7.55 6.75 12.83
1/23/2023 9:15:00 PM 2.92 37.256 0.529 7.55 6.98 12.82
1/23/2023 9:30:00 PM 2.92 37.256 0.52 7.55 6.72 12.81
1/23/2023 9:45:00 PM 2.92 37.256 0.512 7.55 6.34 12.81
1/23/2023 10:00:00 PM 2.92 37.256 0.503 7.54 6.82 12.8
1/23/2023 10:15:00 PM 2.92 37.256 0.493 7.54 6.62 12.79
1/23/2023 10:30:00 PM 2.91 37.238 0.483 7.54 6.51 12.79
1/23/2023 10:45:00 PM 2.91 37.238 0.472 7.53 6.66 12.79
1/23/2023 11:00:00 PM 2.9 37.22 0.461 7.54 6.47 12.78
1/23/2023 11:15:00 PM 2.9 37.22 0.449 7.54 6.44 12.78
1/23/2023 11:30:00 PM 2.89 37.202 0.438 7.53 6.64 12.78
1/23/2023 11:45:00 PM 2.88 37.184 0.428 7.53 6.71 12.78
1/24/2023 12:00:00 AM 2.87 37.166 0.419 7.54 6.62 12.78
1/24/2023 12:15:00 AM 2.86 37.148 0.41 7.54 6.82 12.78
1/24/2023 12:30:00 AM 2.85 37.13 0.402 7.54 6.69 12.79
1/24/2023 12:45:00 AM 2.83 37.094 0.396 7.53 6.4 12.79
1/24/2023 1:00:00 AM 2.82 37.076 0.39 7.54 6.54 12.79
1/24/2023 1:15:00 AM 2.81 37.058 0.385 7.54 6.38 12.79
1/24/2023 1:30:00 AM 2.8 37.04 0.38 7.54 6.59 12.79
1/24/2023 1:45:00 AM 2.79 37.022 0.376 7.54 6.82 12.8
1/24/2023 2:00:00 AM 2.78 37.004 0.373 7.53 6.58 12.8
1/24/2023 2:15:00 AM 2.77 36.986 0.37 7.53 6.66 12.8
1/24/2023 2:30:00 AM 2.75 36.95 0.367 7.54 6.58 12.81
1/24/2023 2:45:00 AM 2.74 36.932 0.364 7.53 6.32 12.82
1/24/2023 3:00:00 AM 2.71 36.878 0.362 7.53 6.61 12.82
1/24/2023 3:15:00 AM 2.7 36.86 0.359 7.53 6.81 12.83
1/24/2023 3:30:00 AM 2.68 36.824 0.357 7.53 6.61 12.83
1/24/2023 3:45:00 AM 2.66 36.788 0.355 7.53 6.42 12.84
1/24/2023 4:00:00 AM 2.64 36.752 0.354 7.53 8.42 12.85
1/24/2023 4:15:00 AM 2.61 36.698 0.353 7.53 6.66 12.86
1/24/2023 4:30:00 AM 2.59 36.662 0.352 7.53 6.12 12.86
1/24/2023 4:45:00 AM 2.55 36.59 0.351 7.53 6.56 12.87
1/24/2023 5:00:00 AM 2.52 36.536 0.35 7.52 6.65 12.88
1/24/2023 5:15:00 AM 2.49 36.482 0.35 7.53 6.26 12.9
1/24/2023 5:30:00 AM 2.46 36.428 0.349 7.53 6.43 12.9
1/24/2023 5:45:00 AM 2.43 36.374 0.349 7.53 6.45 12.92
1/24/2023 6:00:00 AM 2.39 36.302 0.349 7.52 6.73 12.93
1/24/2023 6:15:00 AM 2.36 36.248 0.349 7.53 6.73 12.94
1/24/2023 6:30:00 AM 2.33 36.194 0.348 7.53 6.29 12.95
1/24/2023 6:45:00 AM 2.29 36.122 0.348 7.53 6.78 12.96
1/24/2023 7:00:00 AM 2.27 36.086 0.348 7.53 6.28 12.97
1/24/2023 7:15:00 AM 2.24 36.032 0.348 7.53 6.33 12.97
1/24/2023 7:30:00 AM 2.23 36.014 0.348 7.53 6.49 12.98
1/24/2023 7:45:00 AM 2.22 35.996 0.348 7.52 6.73 13
1/24/2023 8:00:00 AM 2.21 35.978 0.348 7.53 6.83 13.01
1/24/2023 8:15:00 AM 2.2 35.96 0.349 7.53 6.51 13.02
1/24/2023 8:30:00 AM 2.19 35.942 0.348 7.53 6.27 13.04
1/24/2023 8:45:00 AM 2.19 35.942 0.349 7.54 6.38 13.06
1/24/2023 9:00:00 AM 2.19 35.942 0.349 7.54 6.1 13.07
1/24/2023 9:15:00 AM 2.19 35.942 0.349 7.54 6.77 13.09
1/24/2023 9:30:00 AM 2.19 35.942 0.349 7.54 9.9 13.1
1/24/2023 9:45:00 AM 2.2 35.96 0.349 7.54 6.2 13.13
1/24/2023 10:00:00 AM 2.21 35.978 0.349 7.55 6.21 13.15
1/24/2023 10:15:00 AM 2.22 35.996 0.349 7.54 6.27 13.18
1/24/2023 10:30:00 AM 2.23 36.014 0.349 7.55 5.88 13.2
1/24/2023 10:45:00 AM 2.25 36.05 0.349 7.55 5.86 13.22
1/24/2023 11:00:00 AM 2.27 36.086 0.349 7.56 6.38 13.25
1/24/2023 11:15:00 AM 2.28 36.104 0.348 7.55 5.53 13.27
1/24/2023 11:30:00 AM 2.3 36.14 0.349 7.56 5.33 13.29
1/24/2023 11:45:00 AM 2.32 36.176 0.348 7.57 5.78 13.32
1/24/2023 12:00:00 PM 2.34 36.212 0.348 7.57 5.8 13.35
1/24/2023 12:15:00 PM 2.37 36.266 0.348 7.57 5.86 13.37
1/24/2023 12:30:00 PM 2.38 36.284 0.348 7.57 5.53 13.39
1/24/2023 12:45:00 PM 2.4 36.32 0.348 7.59 5.68 13.4
1/24/2023 1:00:00 PM 2.41 36.338 0.348 7.59 5.79 13.42
1/24/2023 1:15:00 PM 2.42 36.356 0.348 7.59 6.79 13.43
1/24/2023 1:30:00 PM 2.43 36.374 0.348 7.59 5.97 13.44
1/24/2023 1:45:00 PM 2.44 36.392 0.348 7.58 6.05 13.45
1/24/2023 2:00:00 PM 2.45 36.41 0.348 7.6 5.63 13.45
1/24/2023 2:15:00 PM 2.46 36.428 0.348 7.6 6.1 13.45
1/24/2023 2:30:00 PM 2.47 36.446 0.348 7.6 5.96 13.44
1/24/2023 2:45:00 PM 2.48 36.464 0.348 7.6 5.48 13.44
1/24/2023 3:00:00 PM 2.49 36.482 0.348 7.61 5.61 13.44
1/24/2023 3:15:00 PM 2.5 36.5 0.348 7.61 5.65 13.43
1/24/2023 3:30:00 PM 2.5 36.5 0.348 7.61 5.75 13.43
1/24/2023 3:45:00 PM 2.5 36.5 0.349 7.61 5.73 13.42
1/24/2023 4:00:00 PM 2.5 36.5 0.349 7.61 5.54 13.41
1/24/2023 4:15:00 PM 2.5 36.5 0.349 7.61 5.65 13.41
1/24/2023 4:30:00 PM 2.5 36.5 0.349 7.6 6.02 13.41
1/24/2023 4:45:00 PM 2.5 36.5 0.349 7.61 5.69 13.39
1/24/2023 5:00:00 PM 2.5 36.5 0.349 7.6 5.58 13.38
1/24/2023 5:15:00 PM 2.5 36.5 0.35 7.61 6.27 13.35
1/24/2023 5:30:00 PM 2.51 36.518 0.35 7.6 6.39 13.34
1/24/2023 5:45:00 PM 2.51 36.518 0.35 7.6 6.07 13.32
1/24/2023 6:00:00 PM 2.51 36.518 0.35 7.6 5.55 13.31
1/24/2023 6:15:00 PM 2.5 36.5 0.35 7.6 5.87 13.29
1/24/2023 6:30:00 PM 2.5 36.5 0.351 7.58 5.75 13.27
1/24/2023 6:45:00 PM 2.49 36.482 0.351 7.6 5.89 13.26
1/24/2023 7:00:00 PM 2.49 36.482 0.351 7.6 5.64 13.24
1/24/2023 7:15:00 PM 2.48 36.464 0.351 7.6 5.71 13.23
1/24/2023 7:30:00 PM 2.47 36.446 0.351 7.59 5.55 13.23
1/24/2023 7:45:00 PM 2.46 36.428 0.351 7.59 5.53 13.2
1/24/2023 8:00:00 PM 2.44 36.392 0.351 7.59 5.94 13.2
1/24/2023 8:15:00 PM 2.43 36.374 0.351 7.59 5.58 13.19
1/24/2023 8:30:00 PM 2.41 36.338 0.352 7.59 5.8 13.18
1/24/2023 8:45:00 PM 2.4 36.32 0.352 7.59 5.78 13.16
1/24/2023 9:00:00 PM 2.38 36.284 0.352 7.59 5.45 13.16
1/24/2023 9:15:00 PM 2.36 36.248 0.352 7.58 5.51 13.15
1/24/2023 9:30:00 PM 2.34 36.212 0.352 7.58 5.91 13.14
1/24/2023 9:45:00 PM 2.33 36.194 0.352 7.58 5.97 13.13
1/24/2023 10:00:00 PM 2.31 36.158 0.352 7.58 5.85 13.11
1/24/2023 10:15:00 PM 2.28 36.104 0.353 7.58 5.86 13.11
1/24/2023 10:30:00 PM 2.26 36.068 0.353 7.57 5.71 13.11
1/24/2023 10:45:00 PM 2.24 36.032 0.353 7.57 5.58 13.1
1/24/2023 11:00:00 PM 2.22 35.996 0.354 7.57 6.06 13.11
1/24/2023 11:15:00 PM 2.19 35.942 0.354 7.57 5.61 13.11
1/24/2023 11:30:00 PM 2.17 35.906 0.354 7.57 5.55 13.12
1/24/2023 11:45:00 PM 2.14 35.852 0.354 7.57 5.69 13.11
1/25/2023 12:00:00 AM 2.11 35.798 0.354 7.56 6.27 13.12
1/25/2023 12:15:00 AM 2.08 35.744 0.355 7.57 5.4 13.12
1/25/2023 12:30:00 AM 2.05 35.69 0.355 7.55 5.55 13.12
1/25/2023 12:45:00 AM 2.03 35.654 0.355 7.57 5.65 13.13
1/25/2023 1:00:00 AM 2 35.6 0.356 7.56 5.69 13.12
1/25/2023 1:15:00 AM 1.98 35.564 0.356 7.56 5.31 13.13
1/25/2023 1:30:00 AM 1.96 35.528 0.356 7.56 5.42 13.13
1/25/2023 1:45:00 AM 1.94 35.492 0.357 7.56 5.58 13.14
1/25/2023 2:00:00 AM 1.93 35.474 0.357 7.55 5.4 13.14
1/25/2023 2:15:00 AM 1.91 35.438 0.358 7.56 5.55 13.15
1/25/2023 2:30:00 AM 1.9 35.42 0.358 7.56 5.45 13.16
1/25/2023 2:45:00 AM 1.88 35.384 0.359 7.56 5.89 13.16
1/25/2023 3:00:00 AM 1.87 35.366 0.36 7.56 5.68 13.17
1/25/2023 3:15:00 AM 1.85 35.33 0.36 7.56 5.72 13.17
1/25/2023 3:30:00 AM 1.84 35.312 0.361 7.55 5.62 13.18
1/25/2023 3:45:00 AM 1.83 35.294 0.361 7.56 5.66 13.18
1/25/2023 4:00:00 AM 1.81 35.258 0.361 7.56 5.64 13.19
1/25/2023 4:15:00 AM 1.8 35.24 0.361 7.55 5.73 13.2
1/25/2023 4:30:00 AM 1.79 35.222 0.362 7.56 5.76 13.2
1/25/2023 4:45:00 AM 1.78 35.204 0.362 7.55 5.24 13.21
1/25/2023 5:00:00 AM 1.76 35.168 0.362 7.55 5.95 13.22
1/25/2023 5:15:00 AM 1.76 35.168 0.362 7.55 5.77 13.22
1/25/2023 5:30:00 AM 1.75 35.15 0.362 7.55 5.92 13.23
1/25/2023 5:45:00 AM 1.75 35.15 0.362 7.55 6.11 13.23
1/25/2023 6:00:00 AM 1.74 35.132 0.362 7.55 5.76 13.23
1/25/2023 6:15:00 AM 1.74 35.132 0.362 7.55 5.92 13.23
1/25/2023 6:30:00 AM 1.73 35.114 0.362 7.55 5.73 13.24
1/25/2023 6:45:00 AM 1.72 35.096 0.361 7.55 6.31 13.25
1/25/2023 7:00:00 AM 1.71 35.078 0.361 7.55 6.06 13.25
1/25/2023 7:15:00 AM 1.7 35.06 0.36 7.55 6.02 13.25
1/25/2023 7:30:00 AM 1.66 34.988 0.359 7.55 6.46 13.27
1/25/2023 7:45:00 AM 1.62 34.916 0.359 7.55 6.73 13.28
1/25/2023 8:00:00 AM 1.61 34.898 0.358 7.54 6.33 13.28
1/25/2023 8:15:00 AM 1.61 34.898 0.358 7.55 6.21 13.29
1/25/2023 8:30:00 AM 1.6 34.88 0.358 7.55 6.45 13.31
1/25/2023 8:45:00 AM 1.58 34.844 0.358 7.55 6.19 13.33
1/25/2023 9:00:00 AM 1.54 34.772 0.358 7.54 6.34 13.35
1/25/2023 9:15:00 AM 1.49 34.682 0.358 7.55 6.1 13.36
1/25/2023 9:30:00 AM 1.48 34.664 0.358 7.56 5.89 13.38
1/25/2023 9:45:00 AM 1.48 34.664 0.358 7.54 5.72 13.4
1/25/2023 10:00:00 AM 1.48 34.664 0.358 7.56 5.74 13.43
1/25/2023 10:15:00 AM 1.47 34.646 0.358 7.56 5.78 13.45
1/25/2023 10:30:00 AM 1.46 34.628 0.358 7.57 5.75 13.47
1/25/2023 10:45:00 AM 1.46 34.628 0.359 7.58 5.74 13.51
1/25/2023 11:00:00 AM 1.47 34.646 0.359 7.58 5.68 13.53
1/25/2023 11:15:00 AM 1.48 34.664 0.359 7.58 5.26 13.55
1/25/2023 11:30:00 AM 1.47 34.646 0.359 7.58 5.5 13.56
1/25/2023 11:45:00 AM 1.47 34.646 0.359 7.59 5.43 13.59
1/25/2023 12:00:00 PM 1.45 34.61 0.359 7.58 5.63 13.6
1/25/2023 12:15:00 PM 1.43 34.574 0.36 7.6 5.61 13.62
1/25/2023 12:30:00 PM 1.4 34.52 0.36 7.6 6.62 13.63
1/25/2023 12:45:00 PM 1.37 34.466 0.359 7.61 5.39 13.66
1/25/2023 1:00:00 PM 1.33 34.394 0.359 7.61 5.33 13.67
1/25/2023 1:15:00 PM 1.27 34.286 0.359 7.61 5.69 13.68
1/25/2023 1:30:00 PM 1.23 34.214 0.359 7.62 6.19 13.7
1/25/2023 1:45:00 PM 1.2 34.16 0.359 7.62 5.95 13.71
1/25/2023 2:00:00 PM 1.2 34.16 0.359 7.61 5.65 13.72
1/25/2023 2:15:00 PM 1.24 34.232 0.359 7.62 6.03 13.74
1/25/2023 2:30:00 PM 1.26 34.268 0.359 7.63 6.05 13.75
1/25/2023 2:45:00 PM 1.27 34.286 0.359 7.63 6.12 13.75
1/25/2023 3:00:00 PM 1.3 34.34 0.359 7.63 6.33 13.74
1/25/2023 3:15:00 PM 1.32 34.376 0.359 7.63 6.28 13.74
1/25/2023 3:30:00 PM 1.35 34.43 0.359 7.63 6.56 13.72
1/25/2023 3:45:00 PM 1.38 34.484 0.359 7.62 6.34 13.71
1/25/2023 4:00:00 PM 1.41 34.538 0.359 7.64 6.45 13.71
1/25/2023 4:15:00 PM 1.43 34.574 0.359 7.63 6.22 13.7
1/25/2023 4:30:00 PM 1.44 34.592 0.359 7.63 6.11 13.67
1/25/2023 4:45:00 PM 1.45 34.61 0.359 7.63 5.89 13.65
1/25/2023 5:00:00 PM 1.46 34.628 0.359 7.63 6.01 13.63
1/25/2023 5:15:00 PM 1.44 34.592 0.359 7.63 5.87 13.61
1/25/2023 5:30:00 PM 1.43 34.574 0.36 7.63 6.05 13.59
1/25/2023 5:45:00 PM 1.43 34.574 0.36 7.62 6.79 13.57
1/25/2023 6:00:00 PM 1.42 34.556 0.361 7.63 6.17 13.55
1/25/2023 6:15:00 PM 1.41 34.538 0.361 7.62 6.07 13.52
1/25/2023 6:30:00 PM 1.43 34.574 0.361 7.62 6.41 13.5
1/25/2023 6:45:00 PM 1.44 34.592 0.362 7.62 6.48 13.48
1/25/2023 7:00:00 PM 1.45 34.61 0.362 7.62 6.37 13.45
1/25/2023 7:15:00 PM 1.46 34.628 0.362 7.62 6.28 13.44
1/25/2023 7:30:00 PM 1.47 34.646 0.363 7.6 6.5 13.42
1/25/2023 7:45:00 PM 1.49 34.682 0.363 7.61 6.33 13.4
1/25/2023 8:00:00 PM 1.51 34.718 0.363 7.61 6.51 13.37
1/25/2023 8:15:00 PM 1.53 34.754 0.363 7.61 5.99 13.35
1/25/2023 8:30:00 PM 1.54 34.772 0.363 7.61 6.29 13.33
1/25/2023 8:45:00 PM 1.55 34.79 0.363 7.6 5.96 13.31
1/25/2023 9:00:00 PM 1.57 34.826 0.363 7.6 6.07 13.29
1/25/2023 9:15:00 PM 1.58 34.844 0.362 7.6 6.06 13.27
1/25/2023 9:30:00 PM 1.61 34.898 0.362 7.6 5.84 13.25
1/25/2023 9:45:00 PM 1.63 34.934 0.362 7.6 5.85 13.24
1/25/2023 10:00:00 PM 1.64 34.952 0.363 7.59 6.17 13.22
1/25/2023 10:15:00 PM 1.66 34.988 0.364 7.59 5.77 13.2
1/25/2023 10:30:00 PM 1.68 35.024 0.367 7.58 6.17 13.2
1/25/2023 10:45:00 PM 1.7 35.06 0.37 7.59 6.05 13.18
1/25/2023 11:00:00 PM 1.72 35.096 0.375 7.59 6.02 13.16
1/25/2023 11:15:00 PM 1.74 35.132 0.379 7.59 6.07 13.15
1/25/2023 11:30:00 PM 1.77 35.186 0.384 7.59 6.07 13.14
1/25/2023 11:45:00 PM 1.79 35.222 0.388 7.58 5.83 13.13
1/26/2023 12:00:00 AM 1.8 35.24 0.391 7.58 5.86 13.11
1/26/2023 12:15:00 AM 1.82 35.276 0.394 7.58 5.85 13.1
1/26/2023 12:30:00 AM 1.82 35.276 0.396 7.58 5.65 13.09
1/26/2023 12:45:00 AM 1.83 35.294 0.397 7.58 5.77 13.09
1/26/2023 1:00:00 AM 1.84 35.312 0.398 7.58 5.7 13.07
1/26/2023 1:15:00 AM 1.85 35.33 0.398 7.58 5.76 13.06
1/26/2023 1:30:00 AM 1.87 35.366 0.398 7.58 5.56 13.05
1/26/2023 1:45:00 AM 1.89 35.402 0.398 7.57 5.57 13.04
1/26/2023 2:00:00 AM 1.91 35.438 0.398 7.58 5.65 13.02
1/26/2023 2:15:00 AM 1.92 35.456 0.397 7.58 6.09 13
1/26/2023 2:30:00 AM 1.94 35.492 0.396 7.58 6.02 12.99
1/26/2023 2:45:00 AM 1.95 35.51 0.396 7.58 5.84 12.99
1/26/2023 3:00:00 AM 1.97 35.546 0.396 7.58 5.44 12.97
1/26/2023 3:15:00 AM 1.98 35.564 0.398 7.58 5.48 12.96
1/26/2023 3:30:00 AM 1.99 35.582 0.401 7.58 5.83 12.96
1/26/2023 3:45:00 AM 1.99 35.582 0.408 7.57 5.58 12.95
1/26/2023 4:00:00 AM 2.01 35.618 0.416 7.57 5.49 12.94
1/26/2023 4:15:00 AM 2.02 35.636 0.426 7.55 5.99 12.93
1/26/2023 4:30:00 AM 2.02 35.636 0.437 7.56 6.03 12.93
1/26/2023 4:45:00 AM 2.03 35.654 0.449 7.56 6.12 12.93
1/26/2023 5:00:00 AM 2.05 35.69 0.459 7.56 5.83 12.92
1/26/2023 5:15:00 AM 2.06 35.708 0.469 7.56 5.7 12.91
1/26/2023 5:30:00 AM 2.07 35.726 0.477 7.56 5.87 12.91
1/26/2023 5:45:00 AM 2.08 35.744 0.483 7.56 5.88 12.9
1/26/2023 6:00:00 AM 2.09 35.762 0.489 7.56 5.92 12.89
1/26/2023 6:15:00 AM 2.11 35.798 0.496 7.56 5.94 12.88
1/26/2023 6:30:00 AM 2.12 35.816 0.507 7.56 6.33 12.87
1/26/2023 6:45:00 AM 2.13 35.834 0.525 7.56 6.02 12.86
1/26/2023 7:00:00 AM 2.14 35.852 0.552 7.55 6.21 12.85
1/26/2023 7:15:00 AM 2.15 35.87 0.585 7.55 6.37 12.83
1/26/2023 7:30:00 AM 2.17 35.906 0.622 7.55 6.49 12.82
1/26/2023 7:45:00 AM 2.18 35.924 0.663 7.55 7.71 12.81
1/26/2023 8:00:00 AM 2.19 35.942 0.705 7.54 6.45 12.81
1/26/2023 8:15:00 AM 2.21 35.978 0.744 7.55 5.9 12.81
1/26/2023 8:30:00 AM 2.22 35.996 0.778 7.55 5.96 12.81
1/26/2023 8:45:00 AM 2.24 36.032 0.803 7.54 6.25 12.82
1/26/2023 9:00:00 AM 2.25 36.05 0.817 7.55 5.82 12.83
1/26/2023 9:15:00 AM 2.27 36.086 0.82 7.56 6.63 12.84
1/26/2023 9:30:00 AM 2.29 36.122 0.815 7.56 6.78 12.86
1/26/2023 9:45:00 AM 2.33 36.194 0.802 7.57 6.57 12.9
1/26/2023 10:00:00 AM 2.36 36.248 0.785 7.58 6.25 12.93
1/26/2023 10:15:00 AM 2.4 36.32 0.767 7.58 5.88 12.94
1/26/2023 10:30:00 AM 2.43 36.374 0.748 7.59 6.08 12.97
1/26/2023 10:45:00 AM 2.45 36.41 0.729 7.59 6.87 12.99
1/26/2023 11:00:00 AM 2.5 36.5 0.709 7.6 6.66 13.01
1/26/2023 11:15:00 AM 2.54 36.572 0.69 7.6 5.95 13.04
1/26/2023 11:30:00 AM 2.59 36.662 0.671 7.61 5.83 13.06
1/26/2023 11:45:00 AM 2.62 36.716 0.652 7.62 5.82 13.07
1/26/2023 12:00:00 PM 2.64 36.752 0.634 7.62 5.62 13.09
1/26/2023 12:15:00 PM 2.67 36.806 0.616 7.63 6.09 13.11
1/26/2023 12:30:00 PM 2.71 36.878 0.601 7.63 5.64 13.14
1/26/2023 12:45:00 PM 2.74 36.932 0.586 7.64 5.67 13.15
1/26/2023 1:00:00 PM 2.77 36.986 0.572 7.64 5.53 13.17
1/26/2023 1:15:00 PM 2.79 37.022 0.561 7.65 5.51 13.18
1/26/2023 1:30:00 PM 2.81 37.058 0.551 7.64 5.42 13.19
1/26/2023 1:45:00 PM 2.83 37.094 0.542 7.66 5.4 13.2
1/26/2023 2:00:00 PM 2.86 37.148 0.532 7.66 5.45 13.21
1/26/2023 2:15:00 PM 2.87 37.166 0.524 7.66 5.69 13.22
1/26/2023 2:30:00 PM 2.88 37.184 0.517 7.66 5.59 13.22
1/26/2023 2:45:00 PM 2.89 37.202 0.511 7.67 5.72 13.22
1/26/2023 3:00:00 PM 2.89 37.202 0.504 7.67 6.07 13.21
1/26/2023 3:15:00 PM 2.9 37.22 0.498 7.67 5.82 13.21
1/26/2023 3:30:00 PM 2.91 37.238 0.493 7.67 6.17 13.21
1/26/2023 3:45:00 PM 2.92 37.256 0.488 7.68 5.62 13.21
1/26/2023 4:00:00 PM 2.93 37.274 0.484 7.68 6.01 13.2
1/26/2023 4:15:00 PM 2.92 37.256 0.481 7.68 5.89 13.19
1/26/2023 4:30:00 PM 2.92 37.256 0.478 7.68 5.82 13.19
1/26/2023 4:45:00 PM 2.91 37.238 0.476 7.68 5.86 13.17
1/26/2023 5:00:00 PM 2.91 37.238 0.475 7.68 5.72 13.15
1/26/2023 5:15:00 PM 2.89 37.202 0.474 7.67 5.95 13.13
1/26/2023 5:30:00 PM 2.88 37.184 0.472 7.67 5.9 13.11
1/26/2023 5:45:00 PM 2.87 37.166 0.471 7.67 5.84 13.09
1/26/2023 6:00:00 PM 2.85 37.13 0.47 7.67 5.82 13.07
1/26/2023 6:15:00 PM 2.84 37.112 0.469 7.66 6.21 13.04
1/26/2023 6:30:00 PM 2.83 37.094 0.468 7.66 6.41 13.03
1/26/2023 6:45:00 PM 2.81 37.058 0.467 7.66 6.24 13.01
1/26/2023 7:00:00 PM 2.79 37.022 0.466 7.64 5.98 12.99
1/26/2023 7:15:00 PM 2.78 37.004 0.464 7.65 5.74 12.98
1/26/2023 7:30:00 PM 2.76 36.968 0.462 7.64 5.96 12.97
1/26/2023 7:45:00 PM 2.75 36.95 0.46 7.65 5.71 12.95
1/26/2023 8:00:00 PM 2.74 36.932 0.458 7.64 5.86 12.94
1/26/2023 8:15:00 PM 2.73 36.914 0.458 7.64 5.87 12.93
1/26/2023 8:30:00 PM 2.73 36.914 0.458 7.64 5.79 12.92
1/26/2023 8:45:00 PM 2.72 36.896 0.459 7.63 5.98 12.9
1/26/2023 9:00:00 PM 2.72 36.896 0.46 7.62 5.96 12.88
1/26/2023 9:15:00 PM 2.71 36.878 0.464 7.63 6 12.87
1/26/2023 9:30:00 PM 2.7 36.86 0.467 7.63 6.06 12.85
1/26/2023 9:45:00 PM 2.68 36.824 0.47 7.62 6.22 12.83
1/26/2023 10:00:00 PM 2.68 36.824 0.474 7.61 6.06 12.82
1/26/2023 10:15:00 PM 2.67 36.806 0.477 7.61 5.94 12.81
1/26/2023 10:30:00 PM 2.67 36.806 0.478 7.62 6.35 12.8
1/26/2023 10:45:00 PM 2.66 36.788 0.479 7.61 6.45 12.8
1/26/2023 11:00:00 PM 2.65 36.77 0.479 7.61 6.26 12.79
1/26/2023 11:15:00 PM 2.64 36.752 0.478 7.6 5.64 12.79
1/26/2023 11:30:00 PM 2.64 36.752 0.476 7.61 6.07 12.79
1/26/2023 11:45:00 PM 2.63 36.734 0.474 7.61 6.26 12.78
1/27/2023 12:00:00 AM 2.62 36.716 0.471 7.6 7.22 12.78
1/27/2023 12:15:00 AM 2.61 36.698 0.468 7.6 6.37 12.78
1/27/2023 12:30:00 AM 2.6 36.68 0.464 7.6 5.67 12.78
1/27/2023 12:45:00 AM 2.59 36.662 0.461 7.6 5.95 12.78
1/27/2023 1:00:00 AM 2.57 36.626 0.458 7.6 5.73 12.78
1/27/2023 1:15:00 AM 2.55 36.59 0.455 7.6 5.74 12.78
1/27/2023 1:30:00 AM 2.53 36.554 0.452 7.6 6.02 12.8
1/27/2023 1:45:00 AM 2.52 36.536 0.449 7.6 5.95 12.8
1/27/2023 2:00:00 AM 2.51 36.518 0.446 7.6 5.91 12.8
1/27/2023 2:15:00 AM 2.48 36.464 0.443 7.58 5.81 12.81
1/27/2023 2:30:00 AM 2.45 36.41 0.441 7.59 5.95 12.82
1/27/2023 2:45:00 AM 2.43 36.374 0.438 7.59 6.01 12.83
1/27/2023 3:00:00 AM 2.41 36.338 0.435 7.59 6.05 12.83
1/27/2023 3:15:00 AM 2.39 36.302 0.433 7.59 5.85 12.83
1/27/2023 3:30:00 AM 2.37 36.266 0.431 7.59 6.11 12.83
1/27/2023 3:45:00 AM 2.35 36.23 0.428 7.59 5.85 12.85
1/27/2023 4:00:00 AM 2.33 36.194 0.426 7.59 6.04 12.85
1/27/2023 4:15:00 AM 2.31 36.158 0.424 7.59 6.03 12.86
1/27/2023 4:30:00 AM 2.3 36.14 0.422 7.58 6.13 12.87
1/27/2023 4:45:00 AM 2.28 36.104 0.421 7.58 6.18 12.88
1/27/2023 5:00:00 AM 2.26 36.068 0.419 7.59 6.05 12.89
1/27/2023 5:15:00 AM 2.25 36.05 0.417 7.58 6.24 12.89
1/27/2023 5:30:00 AM 2.23 36.014 0.416 7.58 5.84 12.9
1/27/2023 5:45:00 AM 2.21 35.978 0.415 7.58 6.31 12.91
1/27/2023 6:00:00 AM 2.2 35.96 0.414 7.58 6.32 12.91
1/27/2023 6:15:00 AM 2.18 35.924 0.412 7.57 6.21 12.92
1/27/2023 6:30:00 AM 2.18 35.924 0.411 7.58 6.59 12.93
1/27/2023 6:45:00 AM 2.16 35.888 0.411 7.58 6.42 12.93
1/27/2023 7:00:00 AM 2.15 35.87 0.41 7.58 6.3 12.94
1/27/2023 7:15:00 AM 2.15 35.87 0.409 7.58 6.3 12.95
1/27/2023 7:30:00 AM 2.14 35.852 0.408 7.58 6.35 12.96
1/27/2023 7:45:00 AM 2.13 35.834 0.408 7.56 7.77 12.97
1/27/2023 8:00:00 AM 2.12 35.816 0.407 7.57 7.08 12.98
1/27/2023 8:15:00 AM 2.12 35.816 0.407 7.58 6.73 13
1/27/2023 8:30:00 AM 2.11 35.798 0.407 7.58 6.43 13.02
1/27/2023 8:45:00 AM 2.11 35.798 0.407 7.58 5.97 13.04
1/27/2023 9:00:00 AM 2.1 35.78 0.406 7.59 5.97 13.07
1/27/2023 9:15:00 AM 2.09 35.762 0.406 7.59 5.9 13.1
1/27/2023 9:30:00 AM 2.09 35.762 0.406 7.59 5.67 13.14
1/27/2023 9:45:00 AM 2.09 35.762 0.405 7.59 5.96 13.17
1/27/2023 10:00:00 AM 2.1 35.78 0.405 7.6 6.16 13.2
1/27/2023 10:15:00 AM 2.13 35.834 0.405 7.6 6.45 13.24
1/27/2023 10:30:00 AM 2.19 35.942 0.405 7.61 6.6 13.27
1/27/2023 10:45:00 AM 2.23 36.014 0.405 7.61 6.69 13.31
1/27/2023 11:00:00 AM 2.32 36.176 0.404 7.62 6.89 13.33
1/27/2023 11:15:00 AM 2.41 36.338 0.404 7.62 6.86 13.36
1/27/2023 11:30:00 AM 2.44 36.392 0.404 7.62 6.95 13.39
1/27/2023 11:45:00 AM 2.48 36.464 0.404 7.63 6.68 13.41
1/27/2023 12:00:00 PM 2.5 36.5 0.404 7.63 6.15 13.43
1/27/2023 12:15:00 PM 2.54 36.572 0.403 7.64 6.19 13.45
1/27/2023 12:30:00 PM 2.6 36.68 0.403 7.64 6.52 13.46
1/27/2023 12:45:00 PM 2.65 36.77 0.403 7.65 6.34 13.48
1/27/2023 1:00:00 PM 2.7 36.86 0.403 7.65 6.53 13.5
1/27/2023 1:15:00 PM 2.75 36.95 0.403 7.66 6.46 13.53
1/27/2023 1:30:00 PM 2.8 37.04 0.403 7.66 6.52 13.54
1/27/2023 1:45:00 PM 2.85 37.13 0.403 7.67 6.92 13.55
1/27/2023 2:00:00 PM 2.88 37.184 0.403 7.68 6.76 13.56
1/27/2023 2:15:00 PM 2.92 37.256 0.403 7.68 7.26 13.56
1/27/2023 2:30:00 PM 2.95 37.31 0.403 7.69 6.86 13.56
1/27/2023 2:45:00 PM 2.98 37.364 0.402 7.69 6.49 13.55
1/27/2023 3:00:00 PM 3.02 37.436 0.403 7.69 6.52 13.55
1/27/2023 3:15:00 PM 3.04 37.472 0.402 7.7 6.38 13.54
1/27/2023 3:30:00 PM 3.06 37.508 0.402 7.69 6.66 13.53
1/27/2023 3:45:00 PM 3.07 37.526 0.402 7.7 7.26 13.51
1/27/2023 4:00:00 PM 3.07 37.526 0.402 7.7 7.1 13.49
1/27/2023 4:15:00 PM 3.08 37.544 0.402 7.7 6.73 13.47
1/27/2023 4:30:00 PM 3.08 37.544 0.402 7.7 6.41 13.45
1/27/2023 4:45:00 PM 3.08 37.544 0.402 7.7 5.83 13.43
1/27/2023 5:00:00 PM 3.07 37.526 0.402 7.71 6.64 13.4
1/27/2023 5:15:00 PM 3.06 37.508 0.403 7.7 7.73 13.35
1/27/2023 5:30:00 PM 3.04 37.472 0.402 7.7 6.11 13.32
1/27/2023 5:45:00 PM 3.02 37.436 0.403 7.7 6.38 13.28
1/27/2023 6:00:00 PM 3.01 37.418 0.403 7.7 6.97 13.25
1/27/2023 6:15:00 PM 2.98 37.364 0.403 7.69 6.73 13.22
1/27/2023 6:30:00 PM 2.96 37.328 0.403 7.69 6.23 13.2
1/27/2023 6:45:00 PM 2.92 37.256 0.403 7.69 6.09 13.17
1/27/2023 7:00:00 PM 2.89 37.202 0.403 7.69 6.1 13.15
1/27/2023 7:15:00 PM 2.86 37.148 0.403 7.68 6.27 13.13
1/27/2023 7:30:00 PM 2.81 37.058 0.403 7.67 6.16 13.11
1/27/2023 7:45:00 PM 2.78 37.004 0.403 7.68 6.54 13.09
1/27/2023 8:00:00 PM 2.75 36.95 0.403 7.67 6.18 13.07
1/27/2023 8:15:00 PM 2.71 36.878 0.404 7.67 6.24 13.06
1/27/2023 8:30:00 PM 2.67 36.806 0.404 7.67 6.46 13.04
1/27/2023 8:45:00 PM 2.64 36.752 0.404 7.66 6.34 13.03
1/27/2023 9:00:00 PM 2.61 36.698 0.404 7.66 6 13.01
1/27/2023 9:15:00 PM 2.57 36.626 0.404 7.65 6.37 13
1/27/2023 9:30:00 PM 2.54 36.572 0.404 7.65 6.3 12.98
1/27/2023 9:45:00 PM 2.5 36.5 0.405 7.65 6.68 12.98
1/27/2023 10:00:00 PM 2.46 36.428 0.405 7.65 6.06 12.97
1/27/2023 10:15:00 PM 2.44 36.392 0.406 7.64 6.45 12.96
1/27/2023 10:30:00 PM 2.42 36.356 0.406 7.64 6.05 12.95
1/27/2023 10:45:00 PM 2.4 36.32 0.406 7.64 6.38 12.94
1/27/2023 11:00:00 PM 2.39 36.302 0.407 7.64 6.36 12.94
1/27/2023 11:15:00 PM 2.38 36.284 0.407 7.64 5.96 12.93
1/27/2023 11:30:00 PM 2.36 36.248 0.407 7.62 5.76 12.93
1/27/2023 11:45:00 PM 2.35 36.23 0.408 7.64 5.74 12.93
1/28/2023 12:00:00 AM 2.35 36.23 0.408 7.63 5.71 12.92
1/28/2023 12:15:00 AM 2.34 36.212 0.409 7.62 5.71 12.92
1/28/2023 12:30:00 AM 2.33 36.194 0.409 7.63 5.68 12.91
1/28/2023 12:45:00 AM 2.32 36.176 0.41 7.62 5.58 12.91
1/28/2023 1:00:00 AM 2.31 36.158 0.41 7.63 5.95 12.91
1/28/2023 1:15:00 AM 2.31 36.158 0.411 7.63 5.62 12.91
1/28/2023 1:30:00 AM 2.31 36.158 0.412 7.62 5.71 12.91
1/28/2023 1:45:00 AM 2.31 36.158 0.412 7.62 5.41 12.9
1/28/2023 2:00:00 AM 2.31 36.158 0.413 7.62 5.75 12.9
1/28/2023 2:15:00 AM 2.32 36.176 0.414 7.62 6.02 12.89
1/28/2023 2:30:00 AM 2.32 36.176 0.415 7.62 6.12 12.89
1/28/2023 2:45:00 AM 2.32 36.176 0.416 7.62 7.11 12.88
1/28/2023 3:00:00 AM 2.33 36.194 0.417 7.62 6.06 12.89
1/28/2023 3:15:00 AM 2.33 36.194 0.418 7.62 5.58 12.88
1/28/2023 3:30:00 AM 2.34 36.212 0.419 7.6 5.84 12.87
1/28/2023 3:45:00 AM 2.35 36.23 0.42 7.62 5.65 12.86
1/28/2023 4:00:00 AM 2.36 36.248 0.42 7.62 6.14 12.86
1/28/2023 4:15:00 AM 2.37 36.266 0.421 7.61 6.01 12.86
1/28/2023 4:30:00 AM 2.38 36.284 0.421 7.62 5.7 12.85
1/28/2023 4:45:00 AM 2.4 36.32 0.421 7.61 5.73 12.85
1/28/2023 5:00:00 AM 2.41 36.338 0.421 7.61 5.91 12.84
1/28/2023 5:15:00 AM 2.42 36.356 0.421 7.61 6.01 12.84
1/28/2023 5:30:00 AM 2.42 36.356 0.42 7.61 6.11 12.83
1/28/2023 5:45:00 AM 2.43 36.374 0.42 7.61 6.08 12.84
1/28/2023 6:00:00 AM 2.43 36.374 0.419 7.61 6.13 12.84
1/28/2023 6:15:00 AM 2.42 36.356 0.419 7.61 6.01 12.84
1/28/2023 6:30:00 AM 2.41 36.338 0.418 7.61 5.78 12.85
1/28/2023 6:45:00 AM 2.4 36.32 0.417 7.62 6.13 12.85
1/28/2023 7:00:00 AM 2.38 36.284 0.417 7.62 6.08 12.85
1/28/2023 7:15:00 AM 2.37 36.266 0.416 7.61 6.1 12.85
1/28/2023 7:30:00 AM 2.35 36.23 0.415 7.61 7.1 12.86
1/28/2023 7:45:00 AM 2.33 36.194 0.415 7.61 9.37 12.87
1/28/2023 8:00:00 AM 2.32 36.176 0.414 7.61 8.05 12.89
1/28/2023 8:15:00 AM 2.3 36.14 0.414 7.61 6.86 12.91
1/28/2023 8:30:00 AM 2.28 36.104 0.414 7.62 7.3 12.92
1/28/2023 8:45:00 AM 2.27 36.086 0.413 7.62 7.46 12.94
1/28/2023 9:00:00 AM 2.26 36.068 0.413 7.62 7.23 12.96
1/28/2023 9:15:00 AM 2.26 36.068 0.413 7.62 5.68 12.99
1/28/2023 9:30:00 AM 2.26 36.068 0.413 7.62 5.99 13.02
1/28/2023 9:45:00 AM 2.26 36.068 0.413 7.62 9.81 13.04
1/28/2023 10:00:00 AM 2.28 36.104 0.412 7.63 5.95 13.08
1/28/2023 10:15:00 AM 2.32 36.176 0.412 7.63 6.17 13.12
1/28/2023 10:30:00 AM 2.35 36.23 0.412 7.63 5.8 13.15
1/28/2023 10:45:00 AM 2.38 36.284 0.412 7.63 5.3 13.18
1/28/2023 11:00:00 AM 2.41 36.338 0.412 7.64 5.32 13.21
1/28/2023 11:15:00 AM 2.47 36.446 0.411 7.64 4.94 13.24
1/28/2023 11:30:00 AM 2.53 36.554 0.411 7.63 5.34 13.27
1/28/2023 11:45:00 AM 2.58 36.644 0.411 7.65 5.34 13.29
1/28/2023 12:00:00 PM 2.62 36.716 0.411 7.65 5.45 13.33
1/28/2023 12:15:00 PM 2.68 36.824 0.411 7.66 5.3 13.35
1/28/2023 12:30:00 PM 2.77 36.986 0.411 7.66 5.41 13.38
1/28/2023 12:45:00 PM 2.92 37.256 0.41 7.66 5.57 13.41
1/28/2023 1:00:00 PM 3.1 37.58 0.41 7.68 5.45 13.43
1/28/2023 1:15:00 PM 3.25 37.85 0.41 7.68 5.52 13.43
1/28/2023 1:30:00 PM 3.39 38.102 0.41 7.69 5.46 13.44
1/28/2023 1:45:00 PM 3.5 38.3 0.41 7.7 5.32 13.44
1/28/2023 2:00:00 PM 3.62 38.516 0.41 7.7 5.17 13.45
1/28/2023 2:15:00 PM 3.74 38.732 0.41 7.69 5.21 13.44
1/28/2023 2:30:00 PM 3.86 38.948 0.41 7.72 5.22 13.42
1/28/2023 2:45:00 PM 3.95 39.11 0.409 7.71 5.19 13.41
1/28/2023 3:00:00 PM 4.03 39.254 0.409 7.73 5.04 13.39
1/28/2023 3:15:00 PM 4.08 39.344 0.409 7.72 5.42 13.36
1/28/2023 3:30:00 PM 4.14 39.452 0.41 7.74 5.24 13.34
1/28/2023 3:45:00 PM 4.19 39.542 0.409 7.74 5.26 13.32
1/28/2023 4:00:00 PM 4.21 39.578 0.409 7.74 5.57 13.29
1/28/2023 4:15:00 PM 4.23 39.614 0.409 7.75 5.06 13.26
1/28/2023 4:30:00 PM 4.23 39.614 0.409 7.74 5.26 13.22
1/28/2023 4:45:00 PM 4.23 39.614 0.409 7.74 8.09 13.18
1/28/2023 5:00:00 PM 4.21 39.578 0.409 7.74 5.84 13.15
1/28/2023 5:15:00 PM 4.2 39.56 0.409 7.74 5.79 13.1
1/28/2023 5:30:00 PM 4.18 39.524 0.41 7.74 5.58 13.05
1/28/2023 5:45:00 PM 4.16 39.488 0.409 7.74 5.49 13.01
1/28/2023 6:00:00 PM 4.14 39.452 0.41 7.74 5.2 12.97
1/28/2023 6:15:00 PM 4.12 39.416 0.409 7.74 5.2 12.93
1/28/2023 6:30:00 PM 4.1 39.38 0.409 7.73 5.33 12.89
1/28/2023 6:45:00 PM 4.09 39.362 0.409 7.73 5.31 12.86
1/28/2023 7:00:00 PM 4.07 39.326 0.409 7.72 5.58 12.82
1/28/2023 7:15:00 PM 4.05 39.29 0.409 7.72 5.66 12.79
1/28/2023 7:30:00 PM 4.02 39.236 0.409 7.72 5.5 12.77
1/28/2023 7:45:00 PM 4 39.2 0.409 7.71 5.36 12.74
1/28/2023 8:00:00 PM 3.98 39.164 0.41 7.71 5.29 12.72
1/28/2023 8:15:00 PM 3.96 39.128 0.41 7.71 5.41 12.69
1/28/2023 8:30:00 PM 3.94 39.092 0.411 7.71 5.52 12.67
1/28/2023 8:45:00 PM 3.91 39.038 0.412 7.7 5.46 12.65
1/28/2023 9:00:00 PM 3.89 39.002 0.413 7.7 5.31 12.63
1/28/2023 9:15:00 PM 3.87 38.966 0.413 7.69 5.21 12.61
1/28/2023 9:30:00 PM 3.85 38.93 0.413 7.69 5.56 12.59
1/28/2023 9:45:00 PM 3.83 38.894 0.413 7.67 5.6 12.57
1/28/2023 10:00:00 PM 3.81 38.858 0.413 7.68 5.71 12.56
1/28/2023 10:15:00 PM 3.79 38.822 0.412 7.68 5.26 12.54
1/28/2023 10:30:00 PM 3.75 38.75 0.412 7.67 5.78 12.53
1/28/2023 10:45:00 PM 3.72 38.696 0.411 7.67 5.67 12.52
1/28/2023 11:00:00 PM 3.69 38.642 0.411 7.66 5.49 12.51
1/28/2023 11:15:00 PM 3.66 38.588 0.412 7.65 5.53 12.5
1/28/2023 11:30:00 PM 3.63 38.534 0.412 7.66 5.38 12.49
1/28/2023 11:45:00 PM 3.61 38.498 0.412 7.64 5.2 12.5
1/29/2023 12:00:00 AM 3.58 38.444 0.413 7.65 5.9 12.5
1/29/2023 12:15:00 AM 3.55 38.39 0.414 7.65 5.51 12.5
1/29/2023 12:30:00 AM 3.53 38.354 0.414 7.65 5.32 12.49
1/29/2023 12:45:00 AM 3.5 38.3 0.416 7.65 5.3 12.49
1/29/2023 1:00:00 AM 3.48 38.264 0.417 7.64 5.34 12.49
1/29/2023 1:15:00 AM 3.45 38.21 0.42 7.64 5.3 12.48
1/29/2023 1:30:00 AM 3.43 38.174 0.423 7.63 5.33 12.48
1/29/2023 1:45:00 AM 3.42 38.156 0.426 7.64 5.32 12.48
1/29/2023 2:00:00 AM 3.41 38.138 0.43 7.64 5.16 12.48
1/29/2023 2:15:00 AM 3.39 38.102 0.434 7.63 5.32 12.48
1/29/2023 2:30:00 AM 3.36 38.048 0.438 7.63 5.34 12.48
1/29/2023 2:45:00 AM 3.33 37.994 0.441 7.62 5.28 12.48
1/29/2023 3:00:00 AM 3.31 37.958 0.444 7.63 5.3 12.48
1/29/2023 3:15:00 AM 3.27 37.886 0.446 7.62 5.46 12.49
1/29/2023 3:30:00 AM 3.25 37.85 0.448 7.63 5.29 12.5
1/29/2023 3:45:00 AM 3.23 37.814 0.449 7.63 5.62 12.51
1/29/2023 4:00:00 AM 3.21 37.778 0.45 7.62 5.81 12.51
1/29/2023 4:15:00 AM 3.19 37.742 0.45 7.62 5.58 12.52
1/29/2023 4:30:00 AM 3.17 37.706 0.45 7.62 5.74 12.53
1/29/2023 4:45:00 AM 3.13 37.634 0.449 7.62 6.05 12.54
1/29/2023 5:00:00 AM 3.1 37.58 0.448 7.62 6.03 12.55
1/29/2023 5:15:00 AM 3.07 37.526 0.447 7.61 5.68 12.56
1/29/2023 5:30:00 AM 3.04 37.472 0.445 7.62 5.84 12.58
1/29/2023 5:45:00 AM 3.02 37.436 0.443 7.62 5.83 12.59
1/29/2023 6:00:00 AM 2.99 37.382 0.441 7.61 5.79 12.59
1/29/2023 6:15:00 AM 2.97 37.346 0.439 7.61 6.17 12.6
1/29/2023 6:30:00 AM 2.95 37.31 0.437 7.6 6.07 12.61
1/29/2023 6:45:00 AM 2.93 37.274 0.435 7.61 5.96 12.62
1/29/2023 7:00:00 AM 2.91 37.238 0.433 7.6 6.34 12.62
1/29/2023 7:15:00 AM 2.9 37.22 0.431 7.61 6.33 12.64
1/29/2023 7:30:00 AM 2.89 37.202 0.429 7.61 6.71 12.64
1/29/2023 7:45:00 AM 2.88 37.184 0.428 7.61 6.5 12.65
1/29/2023 8:00:00 AM 2.87 37.166 0.427 7.61 5.9 12.67
1/29/2023 8:15:00 AM 2.87 37.166 0.425 7.61 5.94 12.69
1/29/2023 8:30:00 AM 2.86 37.148 0.425 7.61 5.84 12.71
1/29/2023 8:45:00 AM 2.86 37.148 0.424 7.61 6.1 12.73
1/29/2023 9:00:00 AM 2.86 37.148 0.424 7.61 5.94 12.75
1/29/2023 9:15:00 AM 2.86 37.148 0.423 7.62 6.22 12.78
1/29/2023 9:30:00 AM 2.85 37.13 0.422 7.62 6.5 12.81
1/29/2023 9:45:00 AM 2.87 37.166 0.422 7.62 6.16 12.84
1/29/2023 10:00:00 AM 2.88 37.184 0.421 7.62 6.45 12.88
1/29/2023 10:15:00 AM 2.9 37.22 0.421 7.63 6.66 12.92
1/29/2023 10:30:00 AM 2.92 37.256 0.421 7.63 6.53 12.95
1/29/2023 10:45:00 AM 2.92 37.256 0.42 7.63 6.04 12.98
1/29/2023 11:00:00 AM 2.92 37.256 0.42 7.64 6.15 13
1/29/2023 11:15:00 AM 2.93 37.274 0.42 7.63 5.93 13.02
1/29/2023 11:30:00 AM 2.96 37.328 0.419 7.63 6.03 13.06
1/29/2023 11:45:00 AM 2.98 37.364 0.419 7.65 6.33 13.09
1/29/2023 12:00:00 PM 3.07 37.526 0.419 7.65 6.34 13.12
1/29/2023 12:15:00 PM 3.13 37.634 0.418 7.65 6.12 13.15
1/29/2023 12:30:00 PM 3.21 37.778 0.418 7.66 5.98 13.18
1/29/2023 12:45:00 PM 3.3 37.94 0.418 7.67 5.84 13.21
1/29/2023 1:00:00 PM 3.41 38.138 0.417 7.67 6.07 13.24
1/29/2023 1:15:00 PM 3.54 38.372 0.417 7.68 6.82 13.26
1/29/2023 1:30:00 PM 3.61 38.498 0.417 7.69 5.58 13.29
1/29/2023 1:45:00 PM 3.7 38.66 0.417 7.69 5.55 13.29
1/29/2023 2:00:00 PM 3.81 38.858 0.417 7.7 5.35 13.31
1/29/2023 2:15:00 PM 3.91 39.038 0.417 7.7 5.65 13.3
1/29/2023 2:30:00 PM 4.02 39.236 0.417 7.71 5.8 13.32
1/29/2023 2:45:00 PM 4.09 39.362 0.417 7.72 5.72 13.3
1/29/2023 3:00:00 PM 4.17 39.506 0.417 7.72 5.57 13.31
1/29/2023 3:15:00 PM 4.23 39.614 0.417 7.72 5.7 13.29
1/29/2023 3:30:00 PM 4.27 39.686 0.416 7.73 5.53 13.25
1/29/2023 3:45:00 PM 4.31 39.758 0.416 7.73 5.4 13.22
1/29/2023 4:00:00 PM 4.34 39.812 0.416 7.73 5.25 13.18
1/29/2023 4:15:00 PM 4.37 39.866 0.416 7.73 5.37 13.13
1/29/2023 4:30:00 PM 4.39 39.902 0.415 7.73 5.44 13.08
1/29/2023 4:45:00 PM 4.42 39.956 0.415 7.73 5.73 13.03
1/29/2023 5:00:00 PM 4.44 39.992 0.415 7.73 5.71 12.97
1/29/2023 5:15:00 PM 4.46 40.028 0.415 7.72 5.64 12.93
1/29/2023 5:30:00 PM 4.48 40.064 0.414 7.73 5.59 12.87
1/29/2023 5:45:00 PM 4.5 40.1 0.414 7.73 6.03 12.82
1/29/2023 6:00:00 PM 4.52 40.136 0.414 7.72 6.11 12.77
1/29/2023 6:15:00 PM 4.52 40.136 0.413 7.73 5.81 12.72
1/29/2023 6:30:00 PM 4.53 40.154 0.413 7.72 6.17 12.68
1/29/2023 6:45:00 PM 4.52 40.136 0.413 7.72 6.13 12.65
1/29/2023 7:00:00 PM 4.5 40.1 0.413 7.72 5.6 12.61
1/29/2023 7:15:00 PM 4.48 40.064 0.412 7.71 5.81 12.58
1/29/2023 7:30:00 PM 4.46 40.028 0.412 7.71 6.01 12.55
1/29/2023 7:45:00 PM 4.43 39.974 0.412 7.7 5.72 12.53
1/29/2023 8:00:00 PM 4.41 39.938 0.411 7.7 5.93 12.5
1/29/2023 8:15:00 PM 4.39 39.902 0.411 7.7 5.66 12.48
1/29/2023 8:30:00 PM 4.38 39.884 0.411 7.69 5.66 12.46
1/29/2023 8:45:00 PM 4.37 39.866 0.411 7.69 5.92 12.44
1/29/2023 9:00:00 PM 4.35 39.83 0.413 7.69 5.93 12.42
1/29/2023 9:15:00 PM 4.34 39.812 0.414 7.66 5.78 12.4
1/29/2023 9:30:00 PM 4.33 39.794 0.414 7.68 5.94 12.39
1/29/2023 9:45:00 PM 4.32 39.776 0.414 7.68 5.98 12.37
1/29/2023 10:00:00 PM 4.31 39.758 0.413 7.67 5.9 12.37
1/29/2023 10:15:00 PM 4.3 39.74 0.412 7.67 5.83 12.35
1/29/2023 10:30:00 PM 4.29 39.722 0.411 7.67 6.33 12.35
1/29/2023 10:45:00 PM 4.28 39.704 0.41 7.66 6.3 12.35
1/29/2023 11:00:00 PM 4.27 39.686 0.41 7.66 6.35 12.34
1/29/2023 11:15:00 PM 4.25 39.65 0.41 7.66 6.5 12.34
1/29/2023 11:30:00 PM 4.23 39.614 0.41 7.65 6.66 12.34
1/29/2023 11:45:00 PM 4.21 39.578 0.411 7.65 8.9 12.35
1/30/2023 12:00:00 AM 4.19 39.542 0.412 7.65 6.83 12.34
1/30/2023 12:15:00 AM 4.17 39.506 0.414 7.65 6.33 12.35
1/30/2023 12:30:00 AM 4.14 39.452 0.417 7.62 6.57 12.36
1/30/2023 12:45:00 AM 4.12 39.416 0.421 7.64 6.82 12.36
1/30/2023 1:00:00 AM 4.09 39.362 0.425 7.63 6.67 12.36
1/30/2023 1:15:00 AM 4.07 39.326 0.431 7.64 6.91 12.36
1/30/2023 1:30:00 AM 4.04 39.272 0.438 7.63 6.98 12.36
1/30/2023 1:45:00 AM 4.02 39.236 0.447 7.63 7.08 12.37
1/30/2023 2:00:00 AM 4 39.2 0.455 7.63 6.9 12.37
1/30/2023 2:15:00 AM 3.98 39.164 0.462 7.62 6.9 12.38
1/30/2023 2:30:00 AM 3.96 39.128 0.466 7.62 7.41 12.38
1/30/2023 2:45:00 AM 3.93 39.074 0.467 7.63 7.4 12.39
1/30/2023 3:00:00 AM 3.91 39.038 0.467 7.62 7.37 12.39
1/30/2023 3:15:00 AM 3.88 38.984 0.468 7.6 7.53 12.41
1/30/2023 3:30:00 AM 3.85 38.93 0.471 7.61 7.61 12.42
1/30/2023 3:45:00 AM 3.81 38.858 0.469 7.61 7.74 12.43
1/30/2023 4:00:00 AM 3.78 38.804 0.461 7.61 7.97 12.45
1/30/2023 4:15:00 AM 3.74 38.732 0.45 7.61 7.93 12.46
1/30/2023 4:30:00 AM 3.7 38.66 0.439 7.6 7.8 12.48
1/30/2023 4:45:00 AM 3.67 38.606 0.429 7.6 8.13 12.49
1/30/2023 5:00:00 AM 3.63 38.534 0.421 7.59 7.98 12.51
1/30/2023 5:15:00 AM 3.6 38.48 0.416 7.59 8.13 12.52
1/30/2023 5:30:00 AM 3.57 38.426 0.411 7.58 8.36 12.54
1/30/2023 5:45:00 AM 3.54 38.372 0.408 7.58 8.49 12.56
1/30/2023 6:00:00 AM 3.51 38.318 0.405 7.58 8.68 12.57
1/30/2023 6:15:00 AM 3.48 38.264 0.403 7.58 8.47 12.58
1/30/2023 6:30:00 AM 3.45 38.21 0.401 7.57 8.72 12.6
1/30/2023 6:45:00 AM 3.42 38.156 0.4 7.57 8.49 12.62
1/30/2023 7:00:00 AM 3.39 38.102 0.402 7.56 8.65 12.63
1/30/2023 7:15:00 AM 3.36 38.048 0.408 7.56 9.17 12.64
1/30/2023 7:30:00 AM 3.33 37.994 0.416 7.56 10.59 12.65
1/30/2023 7:45:00 AM 3.3 37.94 0.425 7.55 9.22 12.66
1/30/2023 8:00:00 AM 3.28 37.904 0.43 7.55 9.07 12.67
1/30/2023 8:15:00 AM 3.25 37.85 0.433 7.55 8.63 12.69
1/30/2023 8:30:00 AM 3.23 37.814 0.431 7.55 8.88 12.71
1/30/2023 8:45:00 AM 3.2 37.76 0.427 7.54 17.79 12.73
1/30/2023 9:00:00 AM 3.18 37.724 0.421 7.55 11.12 12.75
1/30/2023 9:15:00 AM 3.15 37.67 0.415 7.55 11.38 12.77
1/30/2023 9:30:00 AM 3.12 37.616 0.409 7.53 10.98 12.81
1/30/2023 9:45:00 AM 3.09 37.562 0.404 7.55 10.63 12.84
1/30/2023 10:00:00 AM 3.07 37.526 0.399 7.55 10.32 12.86
1/30/2023 10:15:00 AM 3.06 37.508 0.394 7.55 10.75 12.89
1/30/2023 10:30:00 AM 3.03 37.454 0.391 7.55 10.12 12.92
1/30/2023 10:45:00 AM 3.01 37.418 0.388 7.55 10.6 12.96
1/30/2023 11:00:00 AM 3 37.4 0.385 7.56 10.51 13
1/30/2023 11:15:00 AM 3.01 37.418 0.383 7.56 9.79 13.03
1/30/2023 11:30:00 AM 3.01 37.418 0.381 7.56 9.53 13.07
1/30/2023 11:45:00 AM 3 37.4 0.379 7.57 9.89 13.09
1/30/2023 12:00:00 PM 2.99 37.382 0.378 7.57 10.08 13.11
1/30/2023 12:15:00 PM 2.99 37.382 0.377 7.57 10.04 13.14
1/30/2023 12:30:00 PM 2.99 37.382 0.376 7.58 9.94 13.17
1/30/2023 12:45:00 PM 3 37.4 0.375 7.58 9.58 13.2
1/30/2023 1:00:00 PM 2.99 37.382 0.375 7.57 9.64 13.21
1/30/2023 1:15:00 PM 2.99 37.382 0.374 7.59 9.59 13.22
1/30/2023 1:30:00 PM 2.99 37.382 0.374 7.59 9.51 13.25
1/30/2023 1:45:00 PM 2.99 37.382 0.374 7.59 9.47 13.26
1/30/2023 2:00:00 PM 3 37.4 0.373 7.6 9.3 13.28
1/30/2023 2:15:00 PM 3.01 37.418 0.373 7.6 9.05 13.29
1/30/2023 2:30:00 PM 3.01 37.418 0.373 7.6 9.06 13.3
1/30/2023 2:45:00 PM 3.02 37.436 0.373 7.6 8.91 13.3
1/30/2023 3:00:00 PM 3.02 37.436 0.373 7.61 8.84 13.3
1/30/2023 3:15:00 PM 3.03 37.454 0.373 7.61 9.15 13.3
1/30/2023 3:30:00 PM 3.03 37.454 0.373 7.61 8.92 13.29
1/30/2023 3:45:00 PM 3.03 37.454 0.373 7.61 8.86 13.28
1/30/2023 4:00:00 PM 3.03 37.454 0.373 7.61 8.71 13.27
1/30/2023 4:15:00 PM 3.01 37.418 0.374 7.62 8.91 13.26
1/30/2023 4:30:00 PM 3 37.4 0.375 7.62 8.69 13.25
1/30/2023 4:45:00 PM 2.98 37.364 0.376 7.62 8.67 13.23
1/30/2023 5:00:00 PM 2.96 37.328 0.378 7.61 8.83 13.22
1/30/2023 5:15:00 PM 2.94 37.292 0.38 7.61 8.75 13.2
1/30/2023 5:30:00 PM 2.92 37.256 0.383 7.61 8.98 13.18
1/30/2023 5:45:00 PM 2.9 37.22 0.385 7.6 9.01 13.16
1/30/2023 6:00:00 PM 2.88 37.184 0.385 7.61 9.1 13.14
1/30/2023 6:15:00 PM 2.86 37.148 0.384 7.6 8.78 13.12
1/30/2023 6:30:00 PM 2.85 37.13 0.383 7.6 9.24 13.11
1/30/2023 6:45:00 PM 2.82 37.076 0.381 7.61 11.1 13.09
1/30/2023 7:00:00 PM 2.79 37.022 0.38 7.6 8.85 13.08
1/30/2023 7:15:00 PM 2.76 36.968 0.38 7.6 8.91 13.07
1/30/2023 7:30:00 PM 2.74 36.932 0.38 7.58 8.52 13.06
1/30/2023 7:45:00 PM 2.71 36.878 0.38 7.6 8.82 13.05
1/30/2023 8:00:00 PM 2.69 36.842 0.381 7.59 8.61 13.04
1/30/2023 8:15:00 PM 2.66 36.788 0.381 7.59 8.67 13.03
1/30/2023 8:30:00 PM 2.64 36.752 0.381 7.59 8.65 13.02
1/30/2023 8:45:00 PM 2.62 36.716 0.382 7.59 8.81 13.01
1/30/2023 9:00:00 PM 2.61 36.698 0.383 7.58 8.95 13
1/30/2023 9:15:00 PM 2.6 36.68 0.385 7.58 8.84 12.99
1/30/2023 9:30:00 PM 2.59 36.662 0.388 7.58 8.91 12.99
1/30/2023 9:45:00 PM 2.58 36.644 0.392 7.56 9.11 12.98
1/30/2023 10:00:00 PM 2.57 36.626 0.396 7.58 8.59 12.98
1/30/2023 10:15:00 PM 2.57 36.626 0.401 7.57 8.4 12.96
1/30/2023 10:30:00 PM 2.56 36.608 0.406 7.57 8.29 12.96
1/30/2023 10:45:00 PM 2.55 36.59 0.41 7.57 8.2 12.96
1/30/2023 11:00:00 PM 2.54 36.572 0.414 7.57 8.18 12.95
1/30/2023 11:15:00 PM 2.53 36.554 0.417 7.56 8.44 12.95
1/30/2023 11:30:00 PM 2.51 36.518 0.419 7.56 8.36 12.95
1/30/2023 11:45:00 PM 2.5 36.5 0.421 7.56 8.41 12.95
1/31/2023 12:00:00 AM 2.49 36.482 0.421 7.56 8.57 12.95
1/31/2023 12:15:00 AM 2.46 36.428 0.421 7.56 8.52 12.95
1/31/2023 12:30:00 AM 2.46 36.428 0.42 7.54 8.37 12.95
1/31/2023 12:45:00 AM 2.45 36.41 0.42 7.56 8.59 12.95
1/31/2023 1:00:00 AM 2.45 36.41 0.419 7.56 8.66 12.95
1/31/2023 1:15:00 AM 2.44 36.392 0.417 7.56 8.47 12.95
1/31/2023 1:30:00 AM 2.43 36.374 0.416 7.56 8.36 12.96
1/31/2023 1:45:00 AM 2.42 36.356 0.415 7.54 8.62 12.97
1/31/2023 2:00:00 AM 2.41 36.338 0.416 7.56 8.61 12.95

These are provisional data and have not been subject to a quality assurance process, but rather are the raw data reported by the instrument.
H: value is above sensor operating range
L: value is below sensor operating range
Offline: station is not reporting data
NC: parameter is not collected at site

Data Availability & Limitations

Uncertainty and potential for error can be associated with environmental monitoring data. Provisional data have not been subject to a quality assurance process, but rather are the raw data reported by the instrument. Data users are cautioned to consider carefully the provisional nature of the information before using it for decisions that concern personal or public safety or the conduct of business that involves substantial monetary or operational consequences.

Approved data are currently available by request by emailing: [email protected]. Approved data have been subject to a quality assurance process to correct for equipment or fouling drift. Data recorded during equipment malfunctions have been removed.

View Historical Stations that have been discontinued.